Provisional Data: Tomjack Creek near Burlington, PA


Please select a monitoring station.
Please select start date.
Please select start date.
Historical Station - Data Range: 04/27/2010 - 10/04/2016

Toggle Unit: C/F Toggle Unit: C/F
Sample Time Temperature (C) Temperature (F) Specific Conductivity (mS/cm) pH   Turbidity (NTU+) DO (mg/L)
9/4/2016 12:00:00 AM 17.94 64.292 0.273 7.64 0.5 8.07
9/4/2016 12:15:00 AM 17.64 63.752 0.274 7.63 0.3 8.15
9/4/2016 12:30:00 AM 17.73 63.914 0.273 7.64 0.7 8.1
9/4/2016 12:45:00 AM 17.52 63.536 0.274 7.64 0.4 8.16
9/4/2016 1:00:00 AM 17.43 63.374 0.273 7.64 0.9 8.19
9/4/2016 1:15:00 AM 17.43 63.374 0.273 7.64 0.5 7.99
9/4/2016 1:30:00 AM 17.14 62.852 0.274 7.64 0.6 8.25
9/4/2016 1:45:00 AM 17.06 62.708 0.274 7.63 0.6 8.3
9/4/2016 2:00:00 AM 16.91 62.438 0.274 7.64 0.3 8.32
9/4/2016 2:15:00 AM 16.95 62.51 0.273 7.63 0.4 8.3
9/4/2016 2:30:00 AM 16.8 62.24 0.273 7.63 0.3 8.33
9/4/2016 2:45:00 AM 16.66 61.988 0.274 7.63 0.7 8.39
9/4/2016 3:00:00 AM 16.46 61.628 0.274 7.64 0.5 8.44
9/4/2016 3:15:00 AM 16.4 61.52 0.274 7.63 0.9 8.47
9/4/2016 3:30:00 AM 16.45 61.61 0.273 7.64 0.4 8.42
9/4/2016 3:45:00 AM 16.14 61.052 0.274 7.64 0.7 8.53
9/4/2016 4:00:00 AM 16.2 61.16 0.273 7.63 0.7 8.5
9/4/2016 4:15:00 AM 16.1 60.98 0.273 7.63 0.4 8.53
9/4/2016 4:30:00 AM 16.01 60.818 0.273 7.63 0.9 8.54
9/4/2016 4:45:00 AM 15.86 60.548 0.273 7.63 0.8 8.59
9/4/2016 5:00:00 AM 15.88 60.584 0.273 7.63 0.6 8.48
9/4/2016 5:15:00 AM 15.81 60.458 0.273 7.64 0.5 8.58
9/4/2016 5:30:00 AM 15.66 60.188 0.273 7.63 0.4 8.63
9/4/2016 5:45:00 AM 15.63 60.134 0.273 7.63 0.8 8.67
9/4/2016 6:00:00 AM 15.59 60.062 0.273 7.64 0.8 8.67
9/4/2016 6:15:00 AM 15.42 59.756 0.274 7.64 0.8 8.71
9/4/2016 6:30:00 AM 15.4 59.72 0.273 7.64 0.6 8.7
9/4/2016 6:45:00 AM 15.32 59.576 0.274 7.64 0.6 8.7
9/4/2016 7:00:00 AM 15.27 59.486 0.273 7.64 0.9 8.76
9/4/2016 7:15:00 AM 15.05 59.09 0.274 7.64 0.6 8.87
9/4/2016 7:30:00 AM 15.02 59.036 0.274 7.65 0.1 8.89
9/4/2016 7:45:00 AM 15.03 59.054 0.273 7.66 0.2 8.99
9/4/2016 8:00:00 AM 15.02 59.036 0.273 7.68 0.2 9.07
9/4/2016 8:15:00 AM 14.99 58.982 0.273 7.7 0.4 9.17
9/4/2016 8:30:00 AM 14.96 58.928 0.273 7.72 0.2 9.27
9/4/2016 8:45:00 AM 14.85 58.73 0.273 7.74 0.2 9.23
9/4/2016 9:00:00 AM 15.03 59.054 0.272 7.75 0.4 9.44
9/4/2016 9:15:00 AM 15.12 59.216 0.273 7.78 0 9.56
9/4/2016 9:30:00 AM 15.23 59.414 0.272 7.81 0.3 9.65
9/4/2016 9:45:00 AM 15.29 59.522 0.272 7.83 0.4 9.81
9/4/2016 10:00:00 AM 15.46 59.828 0.272 7.86 0.2 9.91
9/4/2016 10:15:00 AM 15.63 60.134 0.271 7.9 0.4 10
9/4/2016 10:30:00 AM 15.78 60.404 0.271 7.93 0.4 10.1
9/4/2016 10:45:00 AM 15.98 60.764 0.27 7.97 1.1 10.19
9/4/2016 11:00:00 AM 16.19 61.142 0.27 8 0.8 10.31
9/4/2016 11:15:00 AM 16.43 61.574 0.269 8.05 0.9 10.46
9/4/2016 11:30:00 AM 16.74 62.132 0.269 8.1 0.9 10.56
9/4/2016 11:45:00 AM 17.15 62.87 0.267 8.16 1.2 10.76
9/4/2016 12:00:00 PM 18.06 64.508 0.267 8.26 1.1 10.93
9/4/2016 12:15:00 PM 19.01 66.218 0.265 8.37 1.1 11.22
9/4/2016 12:30:00 PM 20.39 68.702 0.265 8.47 1.1 11.07
9/4/2016 12:45:00 PM 21.44 70.592 0.264 8.54 1 11.36
9/4/2016 1:00:00 PM 22.12 71.816 0.263 8.6 1.2 11.44
9/4/2016 1:15:00 PM 22.88 73.184 0.262 8.61 1.2 11.29
9/4/2016 1:30:00 PM 23.36 74.048 0.262 8.64 1.2 11.3
9/4/2016 1:45:00 PM 23.59 74.462 0.262 8.67 1.2 11.3
9/4/2016 2:00:00 PM 23.46 74.228 0.263 8.67 1.2 11.2
9/4/2016 2:15:00 PM 24.15 75.47 0.262 8.69 1.1 11.02
9/4/2016 2:30:00 PM 24.75 76.55 0.262 8.72 1.2 10.9
9/4/2016 2:45:00 PM 24.8 76.64 0.262 8.74 1.1 11
9/4/2016 3:00:00 PM 24.63 76.334 0.263 8.75 1.3 10.75
9/4/2016 3:15:00 PM 24.72 76.496 0.262 8.64 1.1 10.14
9/4/2016 3:30:00 PM 24.8 76.64 0.264 8.72 1.3 10.38
9/4/2016 3:45:00 PM 23.87 74.966 0.263 8.56 1.5 9.9
9/4/2016 4:00:00 PM 23.2 73.76 0.264 8.42 1.4 9.72
9/4/2016 4:15:00 PM 23.11 73.598 0.265 8.41 1.3 9.31
9/4/2016 4:30:00 PM 22.88 73.184 0.267 8.37 1.3 9.49
9/4/2016 4:45:00 PM 22.68 72.824 0.267 8.37 1.3 9.32
9/4/2016 5:00:00 PM 22.58 72.644 0.267 8.32 1.3 9.21
9/4/2016 5:15:00 PM 22.17 71.906 0.269 8.23 1.3 9.05
9/4/2016 5:30:00 PM 21.93 71.474 0.268 8.2 1.4 8.97
9/4/2016 5:45:00 PM 21.78 71.204 0.269 8.17 1.3 8.88
9/4/2016 6:00:00 PM 21.42 70.556 0.269 8.13 1.3 8.85
9/4/2016 6:15:00 PM 21.32 70.376 0.269 8.1 1.2 8.74
9/4/2016 6:30:00 PM 19.07 66.326 0.026 8 0.3 9.23
9/4/2016 6:45:00 PM 18.36 65.048 0.024 7.94 0.3 9.28
9/4/2016 7:00:00 PM 18.04 64.472 0.024 7.92 0.4 9.2
9/4/2016 7:15:00 PM 17.75 63.95 0.023 7.89 0.8 9.11
9/4/2016 7:30:00 PM 17.7 63.86 0.022 7.85 1 8.97
9/4/2016 7:45:00 PM 17.44 63.392 0.021 7.81 0.6 8.88
9/4/2016 8:00:00 PM 17.42 63.356 0.02 7.78 0.8 8.57
9/4/2016 8:15:00 PM 16.88 62.384 0.019 7.75 0.7 8.82
9/4/2016 8:30:00 PM 16.77 62.186 0.021 7.74 0.8 8.77
9/4/2016 8:45:00 PM 16.76 62.168 0.019 7.72 0.6 8.7
9/4/2016 9:00:00 PM 16.65 61.97 0.017 7.71 1 8.66
9/4/2016 9:15:00 PM 16.13 61.034 0.016 7.68 0.6 8.79
9/4/2016 9:30:00 PM 16.02 60.836 0.016 7.67 0.9 8.78
9/4/2016 9:45:00 PM 15.95 60.71 0.015 7.67 0.9 8.75
9/4/2016 10:00:00 PM 15.81 60.458 0.015 7.65 0.5 8.76
9/4/2016 10:15:00 PM 15.27 59.486 0.015 7.65 0.7 8.89
9/4/2016 10:30:00 PM 15.48 59.864 0.015 7.65 0.6 8.82
9/4/2016 10:45:00 PM 15.27 59.486 0.015 7.63 0.7 8.88
9/4/2016 11:00:00 PM 14.93 58.874 0.015 7.63 0.7 8.94
9/4/2016 11:15:00 PM 14.8 58.64 0.014 7.63 0.8 8.95
9/4/2016 11:30:00 PM 14.99 58.982 0.014 7.63 0.8 8.91
9/4/2016 11:45:00 PM 15.25 59.45 0.014 7.63 0.8 8.63
9/5/2016 12:00:00 AM 14.57 58.226 0.014 7.61 0.9 8.99
9/5/2016 12:15:00 AM 14.28 57.704 0.014 7.59 0.8 9.11
9/5/2016 12:30:00 AM 14.13 57.434 0.014 7.58 0.6 9.13
9/5/2016 12:45:00 AM 13.69 56.642 0.014 7.58 1 9.32
9/5/2016 1:00:00 AM 13.73 56.714 0.014 7.57 0.9 9.27
9/5/2016 1:15:00 AM 13.72 56.696 0.014 7.57 1.2 9.25
9/5/2016 1:30:00 AM 13.52 56.336 0.014 7.57 0.7 9.32
9/5/2016 1:45:00 AM 13.29 55.922 0.014 7.57 1 9.4
9/5/2016 2:00:00 AM 13.13 55.634 0.014 7.56 1 9.46
9/5/2016 2:15:00 AM 13.42 56.156 0.014 7.57 0.8 9.35
9/5/2016 2:30:00 AM 13.22 55.796 0.014 7.56 0.6 9.41
9/5/2016 2:45:00 AM 12.82 55.076 0.014 7.56 0.7 9.54
9/5/2016 3:00:00 AM 12.61 54.698 0.014 7.56 0.7 9.62
9/5/2016 3:15:00 AM 12.7 54.86 0.014 7.56 0.9 9.57
9/5/2016 3:30:00 AM 12.34 54.212 0.014 7.57 0.7 9.54
9/5/2016 3:45:00 AM 12.22 53.996 0.014 7.55 0.8 9.78
9/5/2016 4:00:00 AM 12.32 54.176 0.014 7.56 0.9 9.71
9/5/2016 4:15:00 AM 12.16 53.888 0.014 7.56 0.9 9.73
9/5/2016 4:30:00 AM 11.74 53.132 0.014 7.55 0.9 9.9
9/5/2016 4:45:00 AM 12.07 53.726 0.014 7.56 0.9 9.78
9/5/2016 5:00:00 AM 11.95 53.51 0.014 7.55 0.7 9.84
9/5/2016 5:15:00 AM 11.55 52.79 0.014 7.55 0.6 9.97
9/5/2016 5:30:00 AM 11.4 52.52 0.014 7.55 0.6 10.01
9/5/2016 5:45:00 AM 11.31 52.358 0.014 7.55 0.9 10.05
9/5/2016 6:00:00 AM 11.33 52.394 0.014 7.56 0.9 10.03
9/5/2016 6:15:00 AM 10.97 51.746 0.014 7.55 1 10.16
9/5/2016 6:30:00 AM 11.28 52.304 0.014 7.55 0.9 10.04
9/5/2016 6:45:00 AM 10.91 51.638 0.014 7.55 0.8 10.14
9/5/2016 7:00:00 AM 11.13 52.034 0.014 7.55 0.7 10.08
9/5/2016 7:15:00 AM 11.23 52.214 0.014 7.58 0.9 9.95
9/5/2016 7:30:00 AM 11.2 52.16 0.014 7.56 0.9 10.15
9/5/2016 7:45:00 AM 11.89 53.402 0.014 7.59 0.7 9.97
9/5/2016 8:00:00 AM 11.47 52.646 0.014 7.6 0.6 10.25
9/5/2016 8:15:00 AM 12.14 53.852 0.014 7.63 0.6 10.08
9/5/2016 8:30:00 AM 13.34 56.012 0.013 7.65 0.8 9.76
9/5/2016 8:45:00 AM 13.44 56.192 0.013 7.65 0.4 9.81
9/5/2016 9:00:00 AM 13.77 56.786 0.013 7.68 0.5 9.81
9/5/2016 9:15:00 AM 14.43 57.974 0.013 7.7 0.8 9.67
9/5/2016 9:30:00 AM 14.84 58.712 0.013 7.72 0.6 9.63
9/5/2016 9:45:00 AM 15.38 59.684 0.013 7.73 0.6 9.56
9/5/2016 10:00:00 AM 15.71 60.278 0.013 7.76 0.7 9.6
9/5/2016 10:15:00 AM 15.99 60.782 0.013 7.78 0.5 9.65
9/5/2016 10:30:00 AM 16.35 61.43 0.013 7.81 0.7 9.67
9/5/2016 10:45:00 AM 16.7 62.06 0.013 7.84 0.7 9.7
9/5/2016 11:00:00 AM 17.08 62.744 0.013 7.89 0.8 9.58
9/5/2016 11:15:00 AM 17.27 63.086 0.013 7.91 1.2 9.89
9/5/2016 11:30:00 AM 17.88 64.184 0.013 7.97 0.8 9.9
9/5/2016 11:45:00 AM 18.31 64.958 0.012 8.03 0.7 10.11
9/5/2016 12:00:00 PM 19.64 67.352 0.012 8.16 0.8 10.21
9/5/2016 12:15:00 PM 20.71 69.278 0.012 8.3 1 10.5
9/5/2016 12:30:00 PM 21.34 70.412 0.012 8.39 1.2 10.93
9/5/2016 12:45:00 PM 22.75 72.95 0.012 8.45 1.2 10.92
9/5/2016 1:00:00 PM 21.88 71.384 0.012 8.51 1.2 11.52
9/5/2016 1:15:00 PM 22.69 72.842 0.009 8.54 1.4 11.41
9/5/2016 1:30:00 PM 24.25 75.65 0.008 8.58 1.6 10.99
9/5/2016 1:45:00 PM 24.38 75.884 0.006 8.61 1.3 11.02
9/5/2016 2:00:00 PM 25.14 77.252 0.005 8.62 1.3 10.71
9/5/2016 2:15:00 PM 26.74 80.132 0.004 8.64 1.3 10.13
9/5/2016 2:30:00 PM 26.46 79.628 0.003 8.63 1.3 10.1
9/5/2016 2:45:00 PM 26.97 80.546 0.003 8.64 1.3 9.6
9/5/2016 3:00:00 PM 27.34 81.212 0.002 8.64 1.3 9.46
9/5/2016 3:15:00 PM 27.72 81.896 0.002 8.56 1.2 9
9/5/2016 3:30:00 PM 27.67 81.806 0.002 8.5 1.3 8.74
9/5/2016 3:45:00 PM 26.48 79.664 0.002 8.32 1.4 8.76
9/5/2016 4:00:00 PM 25.86 78.548 0.002 8.28 1.5 8.69
9/5/2016 4:15:00 PM 25.79 78.422 0.002 8.25 1.6 8.54
9/5/2016 4:30:00 PM 26.24 79.232 0.001 8.22 1.5 8.27
9/5/2016 4:45:00 PM 26.73 80.114 0.001 8.19 1.4 7.91
9/5/2016 5:00:00 PM 26.1 78.98 0 8.1 1.5 7.92
9/5/2016 5:15:00 PM 26.55 79.79 0 8.08 1.4 7.59
9/5/2016 5:30:00 PM 26.51 79.718 0 8.05 1.5 7.52
9/5/2016 5:45:00 PM 26.54 79.772 0 8.01 1.8 7.43
9/5/2016 6:00:00 PM 24.57 76.226 0 7.91 1.5 7.73
9/5/2016 6:15:00 PM 22.81 73.058 0 7.89 1.7 8.06
9/5/2016 6:30:00 PM 22.02 71.636 0 7.83 1.8 7.93
9/5/2016 6:45:00 PM 21.43 70.574 0 7.81 2 8.08
9/5/2016 7:00:00 PM 20.99 69.782 0 7.78 1.9 8.07
9/5/2016 7:15:00 PM 20.51 68.918 0 7.76 1.8 8.06
9/5/2016 7:30:00 PM 20.05 68.09 0 7.73 1.8 8.07
9/5/2016 7:45:00 PM 19.53 67.154 0 7.71 1.6 8.07
9/5/2016 8:00:00 PM 19.14 66.452 0 7.68 1.8 8.08
9/5/2016 8:15:00 PM 18.99 66.182 0 7.68 1.6 8.05
9/5/2016 8:30:00 PM 18.57 65.426 0 7.65 1.6 8.1
9/5/2016 8:45:00 PM 18.31 64.958 0 7.66 1.5 8.12
9/5/2016 9:00:00 PM 17.7 63.86 0 7.61 1.5 8.23
9/5/2016 9:15:00 PM 17.77 63.986 0 7.64 1.8 8.17
9/5/2016 9:30:00 PM 17.52 63.536 0 7.62 1.4 8.23
9/5/2016 9:45:00 PM 17.07 62.726 0 7.6 1.7 8.33
9/5/2016 10:00:00 PM 16.78 62.204 0 7.6 1.4 8.37
9/5/2016 10:15:00 PM 16.69 62.042 0 7.59 1.4 8.21
9/5/2016 10:30:00 PM 16.45 61.61 0 7.6 1.2 8.43
9/5/2016 10:45:00 PM 16.55 61.79 0 7.59 1 8.37
9/5/2016 11:00:00 PM 16.48 61.664 0 7.61 1.3 8.41
9/5/2016 11:15:00 PM 15.77 60.386 0 7.56 1.5 8.59
9/5/2016 11:30:00 PM 15.93 60.674 0 7.61 1.2 8.52
9/5/2016 11:45:00 PM 15.56 60.008 0 7.57 1.2 8.61
9/6/2016 12:00:00 AM 15.66 60.188 0 7.59 1 8.59
9/6/2016 12:15:00 AM 15.35 59.63 0 7.58 1.1 8.69
9/6/2016 12:30:00 AM 15.16 59.288 0 7.56 1.3 8.73
9/6/2016 12:45:00 AM 14.84 58.712 0 7.57 1.2 8.8
9/6/2016 1:00:00 AM 14.96 58.928 0 7.54 1.1 8.79
9/6/2016 1:15:00 AM 14.53 58.154 0 7.55 1.2 8.89
9/6/2016 1:30:00 AM 14.35 57.83 0 7.56 1.2 9
9/6/2016 1:45:00 AM 14.32 57.776 0 7.54 1 9
9/6/2016 2:00:00 AM 14.12 57.416 0 7.56 1.1 8.85
9/6/2016 2:15:00 AM 13.96 57.128 0 7.55 1.1 9.09
9/6/2016 2:30:00 AM 13.66 56.588 0 7.56 1.1 9.21
9/6/2016 2:45:00 AM 13.79 56.822 0 7.56 1 9.16
9/6/2016 3:00:00 AM 13.43 56.174 0 7.54 1.1 9.27
9/6/2016 3:15:00 AM 13.31 55.958 0 7.54 0.9 9.32
9/6/2016 3:30:00 AM 13.44 56.192 0 7.54 0.9 9.24
9/6/2016 3:45:00 AM 13.23 55.814 0 7.56 1 9.33
9/6/2016 4:00:00 AM 13.09 55.562 0 7.57 1.2 9.38
9/6/2016 4:15:00 AM 13 55.4 0 7.53 0.8 9.38
9/6/2016 4:30:00 AM 12.94 55.292 0 7.56 0.9 9.43
9/6/2016 4:45:00 AM 12.66 54.788 0 7.55 1 9.49
9/6/2016 5:00:00 AM 12.52 54.536 0 7.55 0.8 9.54
9/6/2016 5:15:00 AM 12.69 54.842 0 7.57 0.8 9.51
9/6/2016 5:30:00 AM 12.52 54.536 0 7.56 0.9 9.56
9/6/2016 5:45:00 AM 12.43 54.374 0 7.56 0.9 9.35
9/6/2016 6:00:00 AM 12.2 53.96 0 7.57 0.8 9.63
9/6/2016 6:15:00 AM 12.26 54.068 0 7.58 0.9 9.62
9/6/2016 6:30:00 AM 12.35 54.23 0 7.59 0.9 9.57
9/6/2016 6:45:00 AM 11.98 53.564 0 7.55 1 9.69
9/6/2016 7:00:00 AM 11.91 53.438 0 7.58 0.9 9.73
9/6/2016 7:15:00 AM 11.78 53.204 0 7.6 0.7 9.82
9/6/2016 7:30:00 AM 11.97 53.546 0 7.6 1 9.8
9/6/2016 7:45:00 AM 12.22 53.996 0 7.61 0.8 9.81
9/6/2016 8:00:00 AM 12.44 54.392 0 7.63 1 9.82
9/6/2016 8:15:00 AM 13.08 55.544 0 7.65 0.8 9.68
9/6/2016 8:30:00 AM 13.94 57.092 0 7.68 0.7 9.47
9/6/2016 8:45:00 AM 14.31 57.758 0 7.69 0.8 9.44
9/6/2016 9:00:00 AM 14.88 58.784 0 7.7 0.8 9.33
9/6/2016 9:15:00 AM 15.39 59.702 0 7.72 0.7 9.27
9/6/2016 9:30:00 AM 16 60.8 0 7.73 0.8 8.99
9/6/2016 9:45:00 AM 16.42 61.556 0 7.75 1 9.12
9/6/2016 10:00:00 AM 16.89 62.402 0 7.77 0.9 9.07
9/6/2016 10:15:00 AM 17.32 63.176 0 7.79 1.1 9.1
9/6/2016 10:30:00 AM 17.61 63.698 0 7.82 0.9 9.12
9/6/2016 10:45:00 AM 18.18 64.724 0 7.85 1.1 9.14
9/6/2016 11:00:00 AM 18.54 65.372 0 7.89 1.1 9.18
9/6/2016 11:15:00 AM 18.82 65.876 0 7.9 1.1 9.22
9/6/2016 11:30:00 AM 19.37 66.866 0 7.95 1.2 9.26
9/6/2016 11:45:00 AM 19.47 67.046 0 8.02 1.2 9.58
9/6/2016 12:00:00 PM 20.49 68.882 0 8.14 1.5 9.78
9/6/2016 12:15:00 PM 22.23 72.014 0 8.3 1.4 9.91
9/6/2016 12:30:00 PM 24.6 76.28 0 8.4 1.3 9.84
9/6/2016 12:45:00 PM 25.4 77.72 0 8.47 1.1 10.05
9/6/2016 1:00:00 PM 26.25 79.25 0 8.52 1.3 10.05
9/6/2016 1:15:00 PM 26.82 80.276 0 8.56 3.2 9.81
9/6/2016 1:30:00 PM 27.42 81.356 0 8.58 3.8 9.99
9/6/2016 1:45:00 PM 27.72 81.896 0 8.63 4 9.93
9/6/2016 2:00:00 PM 27.67 81.806 0 8.63 3.5 9.96
9/6/2016 2:15:00 PM 28.33 82.994 0 8.62 3.9 9.61
9/6/2016 2:30:00 PM 28.23 82.814 0 8.64 3.9 9.5
9/6/2016 2:45:00 PM 28.36 83.048 0 8.6 4 9.32
9/6/2016 3:00:00 PM 28.46 83.228 0 8.66 3.8 9.08
9/6/2016 3:15:00 PM 28.27 82.886 0 8.61 3.9 8.87
9/6/2016 3:30:00 PM 28.4 83.12 0 8.46 3.8 8.61
9/6/2016 3:45:00 PM 27.28 81.104 0 8.33 4.1 8.57
9/6/2016 4:00:00 PM 27.05 80.69 0 8.26 4.2 8.34
9/6/2016 4:15:00 PM 26.99 80.582 0 8.29 4.1 8.24
9/6/2016 4:30:00 PM 26.62 79.916 0 8.23 3.9 8.16
9/6/2016 4:45:00 PM 28.09 82.562 0 8.22 3.9 7.6
9/6/2016 5:00:00 PM 28.05 82.49 0 8.18 1.6 7.36
9/6/2016 5:15:00 PM 27.52 81.536 0 8.09 1.7 7.44
9/6/2016 5:30:00 PM 27.72 81.896 0 8.07 1.7 7.27
9/6/2016 5:45:00 PM 27.12 80.816 0 8.03 1.6 7.32
9/6/2016 6:00:00 PM 25.82 78.476 0 7.95 1.6 7.48
9/6/2016 6:15:00 PM 23.87 74.966 0 7.92 1.9 7.82
9/6/2016 6:30:00 PM 22.96 73.328 0 7.88 1.7 7.88
9/6/2016 6:45:00 PM 22.4 72.32 0 7.85 1.8 7.86
9/6/2016 7:00:00 PM 21.88 71.384 0 7.81 1.7 7.87
9/6/2016 7:15:00 PM 21.41 70.538 0 7.79 1.6 7.85
9/6/2016 7:30:00 PM 20.84 69.512 0 7.75 1.9 7.89
9/6/2016 7:45:00 PM 20.47 68.846 0 7.74 1.6 7.83
9/6/2016 8:00:00 PM 20.05 68.09 0 7.71 2.2 7.84
9/6/2016 8:15:00 PM 19.74 67.532 0 7.68 1.6 7.84
9/6/2016 8:30:00 PM 19.26 66.668 0 7.68 2 7.9
9/6/2016 8:45:00 PM 18.91 66.038 0 7.68 1.7 7.76
9/6/2016 9:00:00 PM 18.82 65.876 0 7.65 1.6 7.92
9/6/2016 9:15:00 PM 18.61 65.498 0 7.65 1.7 7.93
9/6/2016 9:30:00 PM 18.55 65.39 0 7.64 1.4 7.89
9/6/2016 9:45:00 PM 18.17 64.706 0 7.65 1.8 7.98
9/6/2016 10:00:00 PM 17.91 64.238 0 7.63 1.5 8.03
9/6/2016 10:15:00 PM 17.65 63.77 0 7.63 1.5 8.12
9/6/2016 10:30:00 PM 17.53 63.554 0 7.63 1.5 8.07
9/6/2016 10:45:00 PM 17.22 62.996 0 7.61 1.6 8.18
9/6/2016 11:00:00 PM 17.11 62.798 0 7.63 1.8 8.19
9/6/2016 11:15:00 PM 17.14 62.852 0 7.63 1.4 8.19
9/6/2016 11:30:00 PM 16.77 62.186 0 7.62 1.2 8.26
9/6/2016 11:45:00 PM 16.76 62.168 0 7.62 1.4 8.25
9/7/2016 12:00:00 AM 16.78 62.204 0 7.62 1.2 8.25
9/7/2016 12:15:00 AM 16.41 61.538 0 7.61 1.4 8.34
9/7/2016 12:30:00 AM 16.16 61.088 0 7.6 1.2 8.15
9/7/2016 12:45:00 AM 16.14 61.052 0 7.62 1.1 8.42
9/7/2016 1:00:00 AM 15.82 60.476 0 7.61 1.1 8.54
9/7/2016 1:15:00 AM 16.02 60.836 0 7.61 1.5 8.44
9/7/2016 1:30:00 AM 15.57 60.026 0 7.59 1.3 8.56
9/7/2016 1:45:00 AM 15.48 59.864 0 7.62 1.1 8.61
9/7/2016 2:00:00 AM 15.59 60.062 0 7.62 1.2 8.57
9/7/2016 2:15:00 AM 15.14 59.252 0 7.59 1 8.7
9/7/2016 2:30:00 AM 15.18 59.324 0 7.62 1 8.68
9/7/2016 2:45:00 AM 15.24 59.432 0 7.62 1.1 8.67
9/7/2016 3:00:00 AM 15.01 59.018 0 7.62 1.2 8.74
9/7/2016 3:15:00 AM 14.96 58.928 0 7.62 1.2 8.76
9/7/2016 3:30:00 AM 15.11 59.198 0 7.62 1.2 8.74
9/7/2016 3:45:00 AM 15.36 59.648 0 7.63 1 8.64
9/7/2016 4:00:00 AM 14.85 58.73 0 7.6 1.1 8.74
9/7/2016 4:15:00 AM 14.95 58.91 0 7.62 1 8.48
9/7/2016 4:30:00 AM 14.76 58.568 0 7.6 0.8 8.77
9/7/2016 4:45:00 AM 14.95 58.91 0 7.63 1.1 8.73
9/7/2016 5:00:00 AM 14.71 58.478 0 7.6 0.9 8.81
9/7/2016 5:15:00 AM 14.42 57.956 0 7.6 1.1 8.89
9/7/2016 5:30:00 AM 14.11 57.398 0 7.63 0.9 9.03
9/7/2016 5:45:00 AM 14.26 57.668 0 7.61 0.9 8.97
9/7/2016 6:00:00 AM 14.48 58.064 0 7.64 1.1 8.89
9/7/2016 6:15:00 AM 14.05 57.29 0 7.59 0.9 9.02
9/7/2016 6:30:00 AM 13.94 57.092 0 7.6 1.1 9.06
9/7/2016 6:45:00 AM 13.77 56.786 0 7.62 0.9 9.09
9/7/2016 7:00:00 AM 13.69 56.642 0 7.61 0.8 9.13
9/7/2016 7:15:00 AM 14.18 57.524 0 7.66 1.1 9.02
9/7/2016 7:30:00 AM 14.36 57.848 0 7.63 0.7 9.02
9/7/2016 7:45:00 AM 14.27 57.686 0 7.63 1.2 9.14
9/7/2016 8:00:00 AM 14.56 58.208 0 7.65 0.9 8.9
9/7/2016 8:15:00 AM 14.84 58.712 0 7.68 0.8 9.12
9/7/2016 8:30:00 AM 15.3 59.54 0 7.7 0.9 9.09
9/7/2016 8:45:00 AM 15.61 60.098 0 7.72 0.7 9.06
9/7/2016 9:00:00 AM 16.24 61.232 0 7.75 0.9 8.98
9/7/2016 9:15:00 AM 16.62 61.916 0 7.76 0.9 8.95
9/7/2016 9:30:00 AM 17.19 62.942 0 7.77 1 8.85
9/7/2016 9:45:00 AM 17.61 63.698 0 7.79 1.3 8.86
9/7/2016 10:00:00 AM 18.17 64.706 0 7.86 1.1 8.81
9/7/2016 10:15:00 AM 18.31 64.958 0 7.9 1.1 8.9
9/7/2016 10:30:00 AM 18.85 65.93 0 7.93 1.1 8.9
9/7/2016 10:45:00 AM 19.22 66.596 0 7.96 1.2 9
9/7/2016 11:00:00 AM 20.01 68.018 0 7.99 1.8 8.91
9/7/2016 11:15:00 AM 20.1 68.18 0 8.02 1.5 9.1
9/7/2016 11:30:00 AM 20.68 69.224 0 8.05 1.6 9.16
9/7/2016 11:45:00 AM 21.58 70.844 0 8.13 1.6 8.95
9/7/2016 12:00:00 PM 21.82 71.276 0 8.21 1.4 9.65
9/7/2016 12:15:00 PM 22.74 72.932 0 8.33 1.4 10.03
9/7/2016 12:30:00 PM 25.28 77.504 0 8.43 1.4 9.91
9/7/2016 12:45:00 PM 26.97 80.546 0 8.49 1 9.83
9/7/2016 1:00:00 PM 28.11 82.598 0 8.54 1.4 9.77
9/7/2016 1:15:00 PM 28.57 83.426 0 8.57 1.5 9.89
9/7/2016 1:30:00 PM 28.8 83.84 0 8.58 1.3 9.9
9/7/2016 1:45:00 PM 30.31 86.558 0 8.68 1.4 9.54
9/7/2016 2:00:00 PM 29.96 85.92799 0 8.64 1.5 9.68
9/7/2016 2:15:00 PM 30.24 86.432 0 8.65 1.6 9.78
9/7/2016 2:30:00 PM 30.28 86.50401 0 8.69 1.3 9.44
9/7/2016 2:45:00 PM 30.6 87.08 0 8.71 0.5 9.36
9/7/2016 3:00:00 PM 28.94 84.092 0 8.59 1.7 9.5
9/7/2016 3:15:00 PM 28.1 82.58 0 8.46 2 9.48
9/7/2016 3:30:00 PM 27.5 81.5 0 8.53 1.5 9.34
9/7/2016 3:45:00 PM 28.27 82.886 0 8.59 1.8 9.26
9/7/2016 4:00:00 PM 27.79 82.022 0 8.48 1.6 9.19
9/7/2016 4:15:00 PM 27.71 81.878 0 8.49 1.7 8.93
9/7/2016 4:30:00 PM 27.75 81.95 0 8.47 1.6 8.61
9/7/2016 4:45:00 PM 28.59 83.462 0 8.45 1.6 8.05
9/7/2016 5:00:00 PM 28.2 82.76 0 8.4 1.7 7.98
9/7/2016 5:15:00 PM 27.08 80.744 0 8.3 1.7 8
9/7/2016 5:30:00 PM 27.83 82.094 0 8.3 1.7 7.58
9/7/2016 5:45:00 PM 27.16 80.888 0 8.26 1.7 7.65
9/7/2016 6:00:00 PM 26.56 79.808 0 8.21 1.6 7.61
9/7/2016 6:15:00 PM 24.68 76.424 0 8.14 1.8 7.88
9/7/2016 6:30:00 PM 24.04 75.272 0 8.11 1.8 7.8
9/7/2016 6:45:00 PM 23.7 74.66 0 8.1 1.8 7.64
9/7/2016 7:00:00 PM 23.33 73.994 0 8.05 1.6 7.51
9/7/2016 7:15:00 PM 23.22 73.796 0 8.03 1.7 7.3
9/7/2016 7:30:00 PM 22.93 73.274 0 7.99 1.7 7.29
9/7/2016 7:45:00 PM 22.65 72.77 0 7.97 2 7.24
9/7/2016 8:00:00 PM 22.44 72.392 0 7.96 1.7 7.19
9/7/2016 8:15:00 PM 22.19 71.942 0 7.94 1.7 7.18
9/7/2016 8:30:00 PM 21.88 71.384 0 7.91 1.6 7.18
9/7/2016 8:45:00 PM 21.63 70.934 0 7.91 1.4 7.09
9/7/2016 9:00:00 PM 21.44 70.592 0 7.9 1.5 7.19
9/7/2016 9:15:00 PM 21.4 70.52 0 7.91 1.6 7.18
9/7/2016 9:30:00 PM 21.33 70.394 0 7.89 1.8 7.12
9/7/2016 9:45:00 PM 21.63 70.934 0 7.92 1.4 7.02
9/7/2016 10:00:00 PM 21.56 70.808 0 7.87 2.1 7.01
9/7/2016 10:15:00 PM 21.51 70.718 0 7.89 1.6 7.03
9/7/2016 10:30:00 PM 21.43 70.574 0 7.87 2 7.03
9/7/2016 10:45:00 PM 21.42 70.556 0 7.87 1.5 7.02
9/7/2016 11:00:00 PM 21.11 69.998 0.001 7.83 0.6 6.96
9/7/2016 11:15:00 PM 21.19 70.142 0.002 7.81 0.6 7.04
9/7/2016 11:30:00 PM 21.09 69.962 0.002 7.81 0.7 7.01
9/7/2016 11:45:00 PM 20.97 69.746 0.002 7.81 0 6.99
9/8/2016 12:00:00 AM 20.93 69.674 0.002 7.81 0.4 6.99
9/8/2016 12:15:00 AM 20.79 69.422 0.002 7.8 0.7 7.02
9/8/2016 12:30:00 AM 20.73 69.314 0.002 7.81 0.5 7.06
9/8/2016 12:45:00 AM 20.47 68.846 0.002 7.8 0.5 7.12
9/8/2016 1:00:00 AM 20.41 68.738 0.002 7.8 0.5 7.17
9/8/2016 1:15:00 AM 20.23 68.414 0.002 7.8 0.9 7.19
9/8/2016 1:30:00 AM 20.01 68.018 0.002 7.8 0.3 7.26
9/8/2016 1:45:00 AM 20.12 68.216 0.002 7.8 0.4 7.25
9/8/2016 2:00:00 AM 19.97 67.946 0.002 7.8 0.3 7.29
9/8/2016 2:15:00 AM 19.78 67.604 0.001 7.81 0.4 7.31
9/8/2016 2:30:00 AM 19.84 67.712 0.001 7.8 0.6 7.27
9/8/2016 2:45:00 AM 19.64 67.352 0.001 7.81 0.4 7.13
9/8/2016 3:00:00 AM 19.65 67.37 0.001 7.81 0.5 7.36
9/8/2016 3:15:00 AM 19.59 67.262 0.001 7.81 0.5 7.35
9/8/2016 3:30:00 AM 19.56 67.208 0.001 7.82 0.5 7.37
9/8/2016 3:45:00 AM 19.64 67.352 0.001 7.82 0.7 7.34
9/8/2016 4:00:00 AM 19.76 67.568 0.001 7.83 0.6 7.34
9/8/2016 4:15:00 AM 19.54 67.172 0.001 7.81 0.4 7.36
9/8/2016 4:30:00 AM 19.7 67.46 0.001 7.82 0.5 7.36
9/8/2016 4:45:00 AM 19.59 67.262 0.001 7.82 0.3 7.39
9/8/2016 5:00:00 AM 19.63 67.334 0.001 7.81 0.5 7.39
9/8/2016 5:15:00 AM 19.74 67.532 0.001 7.82 0.5 7.36
9/8/2016 5:30:00 AM 19.76 67.568 0.001 7.81 0.4 7.37
9/8/2016 5:45:00 AM 19.5 67.1 0.001 7.8 0.6 7.42
9/8/2016 6:00:00 AM 19.54 67.172 0.002 7.8 0.4 7.43
9/8/2016 6:15:00 AM 19.46 67.028 0.001 7.79 0.5 7.42
9/8/2016 6:30:00 AM 19.4 66.92 0.001 7.79 0.6 7.27
9/8/2016 6:45:00 AM 19.51 67.118 0.001 7.78 0.7 7.41
9/8/2016 7:00:00 AM 19.24 66.632 0.001 7.77 0.6 7.48
9/8/2016 7:15:00 AM 19.42 66.956 0.001 7.79 0.4 7.48
9/8/2016 7:30:00 AM 19.45 67.01 0.001 7.79 0.7 7.56
9/8/2016 7:45:00 AM 19.54 67.172 0.001 7.8 0.7 7.69
9/8/2016 8:00:00 AM 19.64 67.352 0.001 7.81 0.5 7.8
9/8/2016 8:15:00 AM 19.56 67.208 0.001 7.81 0.4 7.87
9/8/2016 8:30:00 AM 19.52 67.136 0.001 7.82 0.9 7.87
9/8/2016 8:45:00 AM 19.55 67.19 0.001 7.81 0.6 7.85
9/8/2016 9:00:00 AM 20.17 68.306 0.002 7.82 0.6 7.73
9/8/2016 9:15:00 AM 20.47 68.846 0.002 7.82 0.6 7.74
9/8/2016 9:30:00 AM 20.79 69.422 0.002 7.83 0.7 7.77
9/8/2016 9:45:00 AM 21.09 69.962 0.002 7.83 0.8 7.85
9/8/2016 10:00:00 AM 21.46 70.628 0.002 7.86 0.7 7.89
9/8/2016 10:15:00 AM 22.12 71.816 0.002 7.89 0.9 7.66
9/8/2016 10:30:00 AM 22.84 73.112 0.001 7.92 0.9 7.93
9/8/2016 10:45:00 AM 23.96 75.128 0.001 7.95 1.2 7.91
9/8/2016 11:00:00 AM 24.17 75.506 0.001 8.01 1.3 8.14
9/8/2016 11:15:00 AM 24.83 76.694 0 8.09 1.5 8.34
9/8/2016 11:30:00 AM 25.11 77.198 0 8.15 1.6 8.75
9/8/2016 11:45:00 AM 25.47 77.846 0 8.2 1.7 8.99
9/8/2016 12:00:00 PM 25.42 77.756 0 8.27 1.4 9.24
9/8/2016 12:15:00 PM 26.49 79.682 0 8.35 1.5 9.25
9/8/2016 12:30:00 PM 27.6 81.68 0 8.44 1.4 9.4
9/8/2016 12:45:00 PM 28.01 82.418 0 8.5 1.2 9.63
9/8/2016 1:00:00 PM 28.98 84.164 0 8.6 1.2 9.73
9/8/2016 1:15:00 PM 29.32 84.776 0 8.6 1.4 9.83
9/8/2016 1:30:00 PM 25.21 77.378 0.273 8.57 45.4 11.18
9/8/2016 1:45:00 PM 25.61 78.098 0.27 8.58 9 10.54
9/8/2016 2:00:00 PM 25.65 78.17 0.269 8.61 4.2 10.54
9/8/2016 2:15:00 PM 25.74 78.332 0.269 8.63 3.6 10.49
9/8/2016 2:30:00 PM 26 78.8 0.268 8.67 2.3 10.3
9/8/2016 2:45:00 PM 26.36 79.448 0.267 8.67 2.4 10.28
9/8/2016 3:00:00 PM 26.45 79.61 0.267 8.69 2.3 10.46
9/8/2016 3:15:00 PM 26.33 79.394 0.267 8.67 2.5 10.13
9/8/2016 3:30:00 PM 26.22 79.196 0.267 8.62 2.5 9.66
9/8/2016 3:45:00 PM 26.09 78.962 0.267 8.6 2.6 9.5
9/8/2016 4:00:00 PM 26.09 78.962 0.268 8.56 5.5 9.24
9/8/2016 4:15:00 PM 26.02 78.836 0.268 8.53 2.5 9.24
9/8/2016 4:30:00 PM 25.95 78.71 0.269 8.5 2 9.08
9/8/2016 4:45:00 PM 25.85 78.53 0.269 8.46 2.4 8.83
9/8/2016 5:00:00 PM 25.78 78.404 0.269 8.44 2.8 8.65
9/8/2016 5:15:00 PM 25.68 78.224 0.27 8.38 2.1 8.46
9/8/2016 5:30:00 PM 25.58 78.044 0.27 8.33 2.4 8.08
9/8/2016 5:45:00 PM 25.5 77.9 0.271 8.3 2.3 8.13
9/8/2016 6:00:00 PM 25.42 77.756 0.271 8.24 2.3 7.73
9/8/2016 6:15:00 PM 25.32 77.576 0.271 8.19 2 7.74
9/8/2016 6:30:00 PM 25.21 77.378 0.272 8.13 1.5 7.7
9/8/2016 6:45:00 PM 25.11 77.198 0.273 8.06 2 7.46
9/8/2016 7:00:00 PM 24.99 76.982 0.274 7.99 2 7.25
9/8/2016 7:15:00 PM 24.87 76.766 0.275 7.93 2.6 7.02
9/8/2016 7:30:00 PM 24.76 76.568 0.275 7.87 2.6 6.91
9/8/2016 7:45:00 PM 24.64 76.352 0.276 7.82 2.2 6.72
9/8/2016 8:00:00 PM 24.51 76.118 0.277 7.78 2.4 6.68
9/8/2016 8:15:00 PM 24.38 75.884 0.277 7.74 2.9 6.57
9/8/2016 8:30:00 PM 24.3 75.74 0.278 7.72 2.2 6.52
9/8/2016 8:45:00 PM 24.21 75.578 0.278 7.7 2.3 6.45
9/8/2016 9:00:00 PM 24.04 75.272 0.272 7.7 6.3 6.66
9/8/2016 9:15:00 PM 23.84 74.912 0.259 7.68 35.3 6.62
9/8/2016 9:30:00 PM 23.67 74.606 0.25 7.55 117.9 6.73
9/8/2016 9:45:00 PM 23.52 74.336 0.246 7.49 181.3 6.51
9/8/2016 10:00:00 PM 23.43 74.174 0.253 7.48 105.2 6.41
9/8/2016 10:15:00 PM 23.35 74.03 0.26 7.49 45.9 6.24
9/8/2016 10:30:00 PM 23.25 73.85 0.261 7.49 26.3 6.23
9/8/2016 10:45:00 PM 23.15 73.67 0.26 7.5 15.1 6.15
9/8/2016 11:00:00 PM 23.07 73.526 0.259 7.5 11.1 6.08
9/8/2016 11:15:00 PM 22.99 73.382 0.259 7.5 8.4 6.16
9/8/2016 11:30:00 PM 22.91 73.238 0.258 7.5 6.2 6.23
9/8/2016 11:45:00 PM 22.84 73.112 0.257 7.5 6 6.14
9/9/2016 12:00:00 AM 22.77 72.986 0.257 7.5 5.1 6.15
9/9/2016 12:15:00 AM 22.71 72.878 0.258 7.49 4.4 6.19
9/9/2016 12:30:00 AM 22.65 72.77 0.259 7.5 4.1 6.1
9/9/2016 12:45:00 AM 22.59 72.662 0.261 7.5 3.9 6.31
9/9/2016 1:00:00 AM 22.54 72.57201 0.262 7.51 3.8 6.07
9/9/2016 1:15:00 AM 22.49 72.482 0.264 7.51 3.8 6.24
9/9/2016 1:30:00 AM 22.44 72.392 0.265 7.51 3.8 6.24
9/9/2016 1:45:00 AM 22.4 72.32 0.266 7.52 3.6 6.38
9/9/2016 2:00:00 AM 22.37 72.266 0.267 7.53 3.3 6.43
9/9/2016 2:15:00 AM 22.34 72.212 0.267 7.53 3.8 6.37
9/9/2016 2:30:00 AM 22.3 72.14 0.267 7.54 3.4 6.45
9/9/2016 2:45:00 AM 22.28 72.104 0.267 7.54 4.1 6.43
9/9/2016 3:00:00 AM 22.25 72.05 0.267 7.55 4.2 6.45
9/9/2016 3:15:00 AM 22.22 71.996 0.267 7.55 3.4 6.42
9/9/2016 3:30:00 AM 22.18 71.924 0.267 7.55 3.5 6.55
9/9/2016 3:45:00 AM 22.16 71.888 0.268 7.54 3.4 6.51
9/9/2016 4:00:00 AM 22.14 71.852 0.268 7.54 2.9 6.57
9/9/2016 4:15:00 AM 22.12 71.816 0.268 7.55 2.9 6.61
9/9/2016 4:30:00 AM 22.1 71.78 0.269 7.55 3.2 6.61
9/9/2016 4:45:00 AM 22.09 71.762 0.269 7.55 3.3 6.44
9/9/2016 5:00:00 AM 22.06 71.708 0.27 7.55 3.2 6.72
9/9/2016 5:15:00 AM 22.04 71.672 0.27 7.55 3.6 6.71
9/9/2016 5:30:00 AM 22.02 71.636 0.271 7.56 2.5 6.77
9/9/2016 5:45:00 AM 22 71.6 0.271 7.56 2.5 6.76
9/9/2016 6:00:00 AM 21.97 71.546 0.271 7.56 3.8 6.81
9/9/2016 6:15:00 AM 21.95 71.51 0.271 7.55 3.6 6.77
9/9/2016 6:30:00 AM 21.94 71.492 0.272 7.56 3.1 6.69
9/9/2016 6:45:00 AM 21.92 71.456 0.272 7.56 3 6.76
9/9/2016 7:00:00 AM 21.9 71.42 0.272 7.55 2.6 6.82
9/9/2016 7:15:00 AM 21.89 71.402 0.272 7.56 3.3 6.73
9/9/2016 7:30:00 AM 21.89 71.402 0.272 7.56 3 6.8
9/9/2016 7:45:00 AM 21.89 71.402 0.272 7.58 2.4 6.93
9/9/2016 8:00:00 AM 21.93 71.474 0.272 7.61 3.2 6.96
9/9/2016 8:15:00 AM 21.97 71.546 0.272 7.63 2 7.26
9/9/2016 8:30:00 AM 22 71.6 0.272 7.65 2.6 7.29
9/9/2016 8:45:00 AM 22.05 71.69 0.272 7.65 3.2 7.44
9/9/2016 9:00:00 AM 22.09 71.762 0.271 7.68 3 7.59
9/9/2016 9:15:00 AM 22.14 71.852 0.271 7.66 2.6 7.52
9/9/2016 9:30:00 AM 22.22 71.996 0.271 7.69 2.1 7.61
9/9/2016 9:45:00 AM 22.29 72.122 0.27 7.73 2.2 7.8
9/9/2016 10:00:00 AM 22.37 72.266 0.27 7.73 2.3 8.01
9/9/2016 10:15:00 AM 22.48 72.464 0.27 7.76 1.9 7.9
9/9/2016 10:30:00 AM 22.53 72.554 0.269 7.76 2.3 8.07
9/9/2016 10:45:00 AM 22.54 72.57201 0.269 7.75 2.2 7.92
9/9/2016 11:00:00 AM 22.54 72.57201 0.27 7.77 3.2 7.91
9/9/2016 11:15:00 AM 22.56 72.608 0.27 7.77 2.2 7.61
9/9/2016 11:30:00 AM 22.65 72.77 0.269 7.77 2.5 7.58
9/9/2016 11:45:00 AM 22.76 72.968 0.269 7.79 2.5 7.65
9/9/2016 12:00:00 PM 22.87 73.166 0.268 7.83 2.8 7.78
9/9/2016 12:15:00 PM 22.99 73.382 0.268 7.85 2.3 7.71
9/9/2016 12:30:00 PM 23.16 73.688 0.267 7.93 2.6 8.33
9/9/2016 12:45:00 PM 23.33 73.994 0.266 8 3 8.6
9/9/2016 1:00:00 PM 23.48 74.264 0.266 8.07 1.7 8.89
9/9/2016 1:15:00 PM 23.56 74.408 0.265 8.12 2.7 9.19
9/9/2016 1:30:00 PM 23.89 75.002 0.265 8.24 2.4 9.35
9/9/2016 1:45:00 PM 24.03 75.254 0.264 8.27 1.9 9.52
9/9/2016 2:00:00 PM 24.03 75.254 0.264 8.25 1.8 9.55
9/9/2016 2:15:00 PM 24.1 75.38 0.264 8.34 2.7 9.67
9/9/2016 2:30:00 PM 24.34 75.812 0.263 8.41 2.3 9.69
9/9/2016 2:45:00 PM 24.42 75.956 0.263 8.37 2.8 9.46
9/9/2016 3:00:00 PM 24.4 75.92 0.262 8.36 2.7 9.75
9/9/2016 3:15:00 PM 24.34 75.812 0.263 8.38 1.6 9.72
9/9/2016 3:30:00 PM 24.21 75.578 0.263 8.35 2.3 9.46
9/9/2016 3:45:00 PM 24.08 75.344 0.262 8.27 2.2 8.65
9/9/2016 4:00:00 PM 23.89 75.002 0.258 8.19 3.8 8.02
9/9/2016 4:15:00 PM 23.77 74.786 0.25 8.09 81.2 8.2
9/9/2016 4:30:00 PM 23.72 74.696 0.248 7.99 91.2 8.12
9/9/2016 4:45:00 PM 23.71 74.67799 0.25 7.95 73.9 8.05
9/9/2016 5:00:00 PM 23.71 74.67799 0.253 7.92 40.4 7.99
9/9/2016 5:15:00 PM 23.67 74.606 0.255 7.91 18.5 7.91
9/9/2016 5:30:00 PM 23.63 74.534 0.255 7.87 9.8 7.85
9/9/2016 5:45:00 PM 23.56 74.408 0.254 7.88 6.8 7.84
9/9/2016 6:00:00 PM 23.5 74.3 0.254 7.86 4.7 7.57
9/9/2016 6:15:00 PM 23.43 74.174 0.254 7.84 3.6 7.63
9/9/2016 6:30:00 PM 23.37 74.066 0.254 7.8 4.3 7.54
9/9/2016 6:45:00 PM 23.32 73.976 0.255 7.8 4.3 7.56
9/9/2016 7:00:00 PM 23.27 73.886 0.256 7.78 3.8 7.5
9/9/2016 7:15:00 PM 23.2 73.76 0.257 7.76 3.1 7.42
9/9/2016 7:30:00 PM 23.14 73.652 0.258 7.74 3 7.29
9/9/2016 7:45:00 PM 23.07 73.526 0.259 7.72 4 6.94
9/9/2016 8:00:00 PM 23.02 73.436 0.26 7.7 2.9 7.12
9/9/2016 8:15:00 PM 22.96 73.328 0.26 7.68 3.8 6.92
9/9/2016 8:30:00 PM 22.9 73.22 0.26 7.67 3.5 6.99
9/9/2016 8:45:00 PM 22.84 73.112 0.26 7.66 3.1 6.92
9/9/2016 9:00:00 PM 22.77 72.986 0.26 7.66 3.7 6.85
9/9/2016 9:15:00 PM 22.72 72.896 0.261 7.65 3.9 6.9
9/9/2016 9:30:00 PM 22.66 72.788 0.261 7.64 3.8 6.86
9/9/2016 9:45:00 PM 22.61 72.698 0.262 7.64 3.1 6.88
9/9/2016 10:00:00 PM 22.57 72.626 0.262 7.64 3.3 6.87
9/9/2016 10:15:00 PM 22.52 72.536 0.263 7.64 3.9 6.91
9/9/2016 10:30:00 PM 22.48 72.464 0.263 7.63 2.5 6.86
9/9/2016 10:45:00 PM 22.43 72.374 0.264 7.63 3.1 6.93
9/9/2016 11:00:00 PM 22.4 72.32 0.264 7.63 3.6 6.83
9/9/2016 11:15:00 PM 22.36 72.248 0.264 7.63 2.9 6.91
9/9/2016 11:30:00 PM 22.32 72.176 0.264 7.64 3.3 6.77
9/9/2016 11:45:00 PM 22.28 72.104 0.265 7.63 2.9 6.97
9/10/2016 12:00:00 AM 22.25 72.05 0.265 7.63 3.8 7.01
9/10/2016 12:15:00 AM 22.22 71.996 0.265 7.63 2.7 6.95
9/10/2016 12:30:00 AM 22.18 71.924 0.265 7.63 2.8 7.03
9/10/2016 12:45:00 AM 22.16 71.888 0.264 7.63 2.4 7.1
9/10/2016 1:00:00 AM 22.13 71.834 0.264 7.64 3.2 6.96
9/10/2016 1:15:00 AM 22.1 71.78 0.264 7.64 3.6 7.12
9/10/2016 1:30:00 AM 22.08 71.744 0.264 7.65 3.7 7.23
9/10/2016 1:45:00 AM 22.06 71.708 0.264 7.65 4.1 7.24
9/10/2016 2:00:00 AM 22.04 71.672 0.263 7.65 3.8 7.29
9/10/2016 2:15:00 AM 22.02 71.636 0.263 7.66 4.4 7.32
9/10/2016 2:30:00 AM 22.01 71.618 0.262 7.66 4.1 7.32
9/10/2016 2:45:00 AM 21.99 71.582 0.262 7.66 4.1 7.34
9/10/2016 3:00:00 AM 21.98 71.564 0.262 7.66 4.4 7.3
9/10/2016 3:15:00 AM 21.96 71.528 0.261 7.67 3.6 7.18
9/10/2016 3:30:00 AM 21.95 71.51 0.261 7.66 4.2 7.37
9/10/2016 3:45:00 AM 21.93 71.474 0.261 7.67 4 7.37
9/10/2016 4:00:00 AM 21.92 71.456 0.261 7.67 3.7 7.39
9/10/2016 4:15:00 AM 21.9 71.42 0.261 7.66 3.9 7.41
9/10/2016 4:30:00 AM 21.89 71.402 0.261 7.66 3.2 7.39
9/10/2016 4:45:00 AM 21.86 71.348 0.261 7.66 4.6 7.38
9/10/2016 5:00:00 AM 21.85 71.33 0.261 7.66 3.2 7.39
9/10/2016 5:15:00 AM 21.83 71.294 0.262 7.66 2.9 7.4
9/10/2016 5:30:00 AM 21.81 71.258 0.262 7.66 3 7.36
9/10/2016 5:45:00 AM 21.79 71.222 0.262 7.66 3.1 7.29
9/10/2016 6:00:00 AM 21.77 71.186 0.262 7.66 3.8 7.31
9/10/2016 6:15:00 AM 21.75 71.15 0.262 7.65 4.4 7.24
9/10/2016 6:30:00 AM 21.73 71.114 0.262 7.65 3.6 7.27
9/10/2016 6:45:00 AM 21.71 71.078 0.262 7.65 3.9 7.32
9/10/2016 7:00:00 AM 21.69 71.042 0.262 7.65 3.1 7.11
9/10/2016 7:15:00 AM 21.68 71.024 0.262 7.65 4.6 7.26
9/10/2016 7:30:00 AM 21.67 71.006 0.262 7.65 3.4 7.25
9/10/2016 7:45:00 AM 21.66 70.988 0.262 7.66 3.1 7.25
9/10/2016 8:00:00 AM 21.66 70.988 0.262 7.67 3.1 7.4
9/10/2016 8:15:00 AM 21.66 70.988 0.262 7.68 3 7.38
9/10/2016 8:30:00 AM 21.67 71.006 0.262 7.7 2.4 7.4
9/10/2016 8:45:00 AM 21.71 71.078 0.262 7.72 3.6 7.61
9/10/2016 9:00:00 AM 21.73 71.114 0.262 7.74 3 7.78
9/10/2016 9:15:00 AM 21.76 71.168 0.262 7.76 2.7 7.88
9/10/2016 9:30:00 AM 21.79 71.222 0.262 7.78 1.6 7.84
9/10/2016 9:45:00 AM 21.83 71.294 0.262 7.8 2.3 7.93
9/10/2016 10:00:00 AM 21.91 71.438 0.261 7.83 2.4 8.07
9/10/2016 10:15:00 AM 22.05 71.69 0.261 7.87 2.2 8.31
9/10/2016 10:30:00 AM 22.16 71.888 0.261 7.9 2.4 8.5
9/10/2016 10:45:00 AM 22.24 72.032 0.26 7.92 2.1 8.31
9/10/2016 11:00:00 AM 22.33 72.194 0.26 7.92 2.7 8.66
9/10/2016 11:15:00 AM 22.5 72.5 0.26 7.97 2.3 8.78
9/10/2016 11:30:00 AM 22.7 72.86 0.259 8.01 4.3 8.81
9/10/2016 11:45:00 AM 22.91 73.238 0.259 8.07 2.3 8.95
9/10/2016 12:00:00 PM 23.22 73.796 0.258 8.14 1.8 9.04
9/10/2016 12:15:00 PM 23.61 74.498 0.258 8.22 2.3 9.23
9/10/2016 12:30:00 PM 24.1 75.38 0.257 8.35 2 9.47
9/10/2016 12:45:00 PM 24.3 75.74 0.257 8.39 1.7 9.58
9/10/2016 1:00:00 PM 24.72 76.496 0.257 8.44 2.5 9.55
9/10/2016 1:15:00 PM 24.95 76.91 0.257 8.46 3.1 9.72
9/10/2016 1:30:00 PM 25.01 77.018 0.257 8.48 2.3 9.79
9/10/2016 1:45:00 PM 25.07 77.126 0.257 8.5 2.7 9.47
9/10/2016 2:00:00 PM 25.34 77.612 0.257 8.53 2 9.62
9/10/2016 2:15:00 PM 25.35 77.63 0.257 8.57 2.6 9.58
9/10/2016 2:30:00 PM 25.52 77.936 0.257 8.62 2.7 9.2
9/10/2016 2:45:00 PM 25.64 78.152 0.257 8.64 3.2 9.53
9/10/2016 3:00:00 PM 25.78 78.404 0.257 8.61 2.2 9.56
9/10/2016 3:15:00 PM 25.67 78.206 0.258 8.55 1.8 9.42
9/10/2016 3:30:00 PM 25.63 78.134 0.258 8.52 2.1 9.33
9/10/2016 3:45:00 PM 25.5 77.9 0.258 8.47 2 9.11
9/10/2016 4:00:00 PM 25.48 77.864 0.259 8.44 2.1 9
9/10/2016 4:15:00 PM 25.45 77.81 0.259 8.4 2.6 8.9
9/10/2016 4:30:00 PM 25.42 77.756 0.259 8.4 2.4 8.73
9/10/2016 4:45:00 PM 25.38 77.684 0.26 8.38 2.1 8.67
9/10/2016 5:00:00 PM 25.34 77.612 0.26 8.34 2 8.37
9/10/2016 5:15:00 PM 25.27 77.486 0.26 8.33 2.4 8.31
9/10/2016 5:30:00 PM 25.26 77.468 0.261 8.3 2.1 8.17
9/10/2016 5:45:00 PM 25.21 77.378 0.261 8.24 1.9 8.06
9/10/2016 6:00:00 PM 25.15 77.27 0.261 8.15 1.8 7.91
9/10/2016 6:15:00 PM 25.05 77.09 0.262 8.06 2.8 7.52
9/10/2016 6:30:00 PM 24.96 76.92799 0.262 8 1.9 7.63
9/10/2016 6:45:00 PM 24.87 76.766 0.263 7.95 2.5 7.46
9/10/2016 7:00:00 PM 24.78 76.604 0.263 7.9 2.6 7.32
9/10/2016 7:15:00 PM 24.7 76.46 0.264 7.85 2.3 7.11
9/10/2016 7:30:00 PM 24.61 76.298 0.264 7.82 2.3 7.1
9/10/2016 7:45:00 PM 24.52 76.136 0.264 7.79 2.2 7.03
9/10/2016 8:00:00 PM 24.44 75.992 0.265 7.75 2.8 6.87
9/10/2016 8:15:00 PM 24.36 75.848 0.265 7.73 2.4 6.86
9/10/2016 8:30:00 PM 24.27 75.686 0.265 7.72 2.8 6.85
9/10/2016 8:45:00 PM 24.19 75.542 0.265 7.7 2.3 6.81
9/10/2016 9:00:00 PM 24.1 75.38 0.266 7.68 2.8 6.76
9/10/2016 9:15:00 PM 24.02 75.236 0.266 7.67 2.8 6.72
9/10/2016 9:30:00 PM 23.94 75.092 0.266 7.65 2.7 6.65
9/10/2016 9:45:00 PM 23.85 74.93 0.266 7.64 3.1 6.64
9/10/2016 10:00:00 PM 23.77 74.786 0.266 7.63 2.6 6.53
9/10/2016 10:15:00 PM 23.69 74.642 0.267 7.62 2.1 6.67
9/10/2016 10:30:00 PM 23.59 74.462 0.267 7.62 2.8 6.66
9/10/2016 10:45:00 PM 23.52 74.336 0.267 7.61 2.5 6.69
9/10/2016 11:00:00 PM 23.45 74.21 0.267 7.61 2 6.66
9/10/2016 11:15:00 PM 23.37 74.066 0.267 7.6 3 6.78
9/10/2016 11:30:00 PM 23.3 73.94 0.267 7.59 2.8 6.76
9/10/2016 11:45:00 PM 23.26 73.868 0.267 7.59 2.4 6.76
9/11/2016 12:00:00 AM 23.22 73.796 0.267 7.6 2.4 6.74
9/11/2016 12:15:00 AM 23.19 73.742 0.267 7.61 3.1 6.72
9/11/2016 12:30:00 AM 23.16 73.688 0.267 7.61 2.8 6.65
9/11/2016 12:45:00 AM 23.13 73.634 0.267 7.61 2.4 6.67
9/11/2016 1:00:00 AM 23.09 73.562 0.267 7.61 2.1 6.65
9/11/2016 1:15:00 AM 23.05 73.49 0.267 7.61 2.9 6.74
9/11/2016 1:30:00 AM 23.03 73.454 0.268 7.62 2.8 6.65
9/11/2016 1:45:00 AM 23 73.4 0.268 7.62 2.3 6.5
9/11/2016 2:00:00 AM 22.97 73.346 0.268 7.61 2.9 6.73
9/11/2016 2:15:00 AM 22.94 73.292 0.268 7.62 2.9 6.87
9/11/2016 2:30:00 AM 22.9 73.22 0.268 7.61 2.4 6.74
9/11/2016 2:45:00 AM 22.86 73.148 0.268 7.61 2.2 6.78
9/11/2016 3:00:00 AM 22.81 73.058 0.268 7.61 2.2 6.74
9/11/2016 3:15:00 AM 22.76 72.968 0.268 7.61 2.5 6.61
9/11/2016 3:30:00 AM 22.71 72.878 0.268 7.6 2.1 6.77
9/11/2016 3:45:00 AM 22.66 72.788 0.268 7.6 2.2 6.73
9/11/2016 4:00:00 AM 22.62 72.716 0.268 7.59 2 6.84
9/11/2016 4:15:00 AM 22.59 72.662 0.268 7.59 1.9 6.8
9/11/2016 4:30:00 AM 22.56 72.608 0.268 7.6 2.6 6.67
9/11/2016 4:45:00 AM 22.51 72.518 0.269 7.61 2.5 6.79
9/11/2016 5:00:00 AM 22.44 72.392 0.269 7.61 2 6.89
9/11/2016 5:15:00 AM 22.33 72.194 0.269 7.6 2.9 6.95
9/11/2016 5:30:00 AM 22.18 71.924 0.269 7.61 2.6 6.75
9/11/2016 5:45:00 AM 22.08 71.744 0.269 7.61 2.3 6.98
9/11/2016 6:00:00 AM 21.99 71.582 0.269 7.61 2.7 7.01
9/11/2016 6:15:00 AM 21.87 71.366 0.268 7.61 3.1 7.05
9/11/2016 6:30:00 AM 21.77 71.186 0.268 7.61 2.6 7.05
9/11/2016 6:45:00 AM 21.68 71.024 0.268 7.58 2.8 7.04
9/11/2016 7:00:00 AM 21.59 70.862 0.268 7.59 3 6.97
9/11/2016 7:15:00 AM 21.5 70.7 0.268 7.59 2 6.96
9/11/2016 7:30:00 AM 21.39 70.502 0.268 7.59 2.2 7.09
9/11/2016 7:45:00 AM 21.3 70.34 0.269 7.6 2.1 7.12
9/11/2016 8:00:00 AM 21.22 70.196 0.269 7.63 2.1 7.27
9/11/2016 8:15:00 AM 21.13 70.034 0.269 7.64 1.6 7.37
9/11/2016 8:30:00 AM 21.05 69.89 0.268 7.65 2.2 7.46
9/11/2016 8:45:00 AM 20.99 69.782 0.268 7.66 1.7 7.45
9/11/2016 9:00:00 AM 20.95 69.71 0.268 7.68 1.9 7.55
9/11/2016 9:15:00 AM 20.95 69.71 0.268 7.71 2 7.54
9/11/2016 9:30:00 AM 20.95 69.71 0.268 7.74 1.7 7.82
9/11/2016 9:45:00 AM 20.97 69.746 0.267 7.77 2 8.07
9/11/2016 10:00:00 AM 21 69.8 0.266 7.82 2 8.12
9/11/2016 10:15:00 AM 21.04 69.872 0.266 7.87 2.3 8.44
9/11/2016 10:30:00 AM 21.08 69.944 0.266 7.91 2 8.61
9/11/2016 10:45:00 AM 21.14 70.052 0.265 7.96 1.6 8.77
9/11/2016 11:00:00 AM 21.21 70.17799 0.265 7.99 1.5 8.94
9/11/2016 11:15:00 AM 21.28 70.304 0.265 8.02 1.9 9.13
9/11/2016 11:30:00 AM 21.35 70.43 0.264 8.05 2.7 9.16
9/11/2016 11:45:00 AM 21.38 70.484 0.264 8.08 2.9 9.22
9/11/2016 12:00:00 PM 21.44 70.592 0.265 8.1 2.5 9.39
9/11/2016 12:15:00 PM 21.75 71.15 0.263 8.17 2.2 9.23
9/11/2016 12:30:00 PM 22.54 72.57201 0.262 8.31 1.9 9.66
9/11/2016 12:45:00 PM 23.28 73.904 0.263 8.42 1.7 9.98
9/11/2016 1:00:00 PM 23.97 75.146 0.262 8.49 2.2 9.67
9/11/2016 1:15:00 PM 23.99 75.182 0.262 8.48 2.9 10.07
9/11/2016 1:30:00 PM 24.19 75.542 0.262 8.54 1.9 9.94
9/11/2016 1:45:00 PM 24.53 76.154 0.261 8.65 2.2 10
9/11/2016 2:00:00 PM 24.82 76.676 0.261 8.72 1.7 10.16
9/11/2016 2:15:00 PM 24.96 76.92799 0.262 8.74 2.6 10.08
9/11/2016 2:30:00 PM 25.01 77.018 0.262 8.73 1.4 9.94
9/11/2016 2:45:00 PM 25.02 77.036 0.262 8.69 3 9.71
9/11/2016 3:00:00 PM 24.92 76.856 0.263 8.63 2.6 9.53
9/11/2016 3:15:00 PM 24.71 76.478 0.264 8.55 2.2 9.31
9/11/2016 3:30:00 PM 24.43 75.974 0.264 8.44 2.1 9.16
9/11/2016 3:45:00 PM 24 75.2 0.265 8.32 2.7 8.93
9/11/2016 4:00:00 PM 23.77 74.786 0.266 8.27 2.1 8.82
9/11/2016 4:15:00 PM 23.54 74.372 0.265 8.24 1.8 8.74
9/11/2016 4:30:00 PM 23.35 74.03 0.266 8.27 1.6 8.74
9/11/2016 4:45:00 PM 23.17 73.706 0.265 8.25 1.7 8.37
9/11/2016 5:00:00 PM 22.94 73.292 0.266 8.24 3.1 8.56
9/11/2016 5:15:00 PM 22.78 73.004 0.266 8.25 2.3 8.46
9/11/2016 5:30:00 PM 22.64 72.752 0.266 8.26 2.1 8.37
9/11/2016 5:45:00 PM 22.48 72.464 0.266 8.17 1.4 8.33
9/11/2016 6:00:00 PM 22.34 72.212 0.266 8.09 2.4 8.24
9/11/2016 6:15:00 PM 22.18 71.924 0.266 7.99 2.4 8.05
9/11/2016 6:30:00 PM 22.04 71.672 0.267 7.94 2.6 7.91
9/11/2016 6:45:00 PM 21.87 71.366 0.267 7.9 1.8 7.79
9/11/2016 7:00:00 PM 21.71 71.078 0.267 7.86 2 7.71
9/11/2016 7:15:00 PM 21.52 70.736 0.268 7.82 2.3 7.65
9/11/2016 7:30:00 PM 21.35 70.43 0.268 7.8 2.2 7.55
9/11/2016 7:45:00 PM 21.19 70.142 0.269 7.77 2.9 7.47
9/11/2016 8:00:00 PM 21.04 69.872 0.268 7.74 2.1 7.46
9/11/2016 8:15:00 PM 20.87 69.566 0.269 7.73 1.9 7.38
9/11/2016 8:30:00 PM 20.68 69.224 0.269 7.71 2.3 7.32
9/11/2016 8:45:00 PM 20.55 68.99 0.269 7.69 2.3 7.36
9/11/2016 9:00:00 PM 20.4 68.72 0.269 7.68 2.5 7.4
9/11/2016 9:15:00 PM 20.23 68.414 0.269 7.67 2.5 7.46
9/11/2016 9:30:00 PM 20.08 68.144 0.269 7.67 1.9 7.43
9/11/2016 9:45:00 PM 19.91 67.838 0.27 7.66 2.9 7.48
9/11/2016 10:00:00 PM 19.78 67.604 0.27 7.65 2.6 7.51
9/11/2016 10:15:00 PM 19.63 67.334 0.27 7.65 2.2 7.51
9/11/2016 10:30:00 PM 19.48 67.064 0.27 7.64 2.9 7.6
9/11/2016 10:45:00 PM 19.34 66.812 0.27 7.65 2.3 7.62
9/11/2016 11:00:00 PM 19.21 66.578 0.27 7.63 2.1 7.64
9/11/2016 11:15:00 PM 19.08 66.344 0.271 7.64 2.4 7.69
9/11/2016 11:30:00 PM 18.94 66.092 0.271 7.64 2.9 7.71
9/11/2016 11:45:00 PM 18.85 65.93 0.271 7.64 1.8 7.71
9/12/2016 12:00:00 AM 18.67 65.606 0.271 7.64 3.6 7.76
9/12/2016 12:15:00 AM 18.55 65.39 0.271 7.64 2.6 7.79
9/12/2016 12:30:00 AM 18.44 65.192 0.271 7.63 2.3 7.83
9/12/2016 12:45:00 AM 18.3 64.94 0.271 7.63 2 7.8
9/12/2016 1:00:00 AM 18.18 64.724 0.271 7.63 2.3 7.86
9/12/2016 1:15:00 AM 18.08 64.544 0.272 7.64 2 7.9
9/12/2016 1:30:00 AM 17.92 64.256 0.272 7.63 2.1 7.92
9/12/2016 1:45:00 AM 17.84 64.112 0.271 7.62 2.1 7.97
9/12/2016 2:00:00 AM 17.71 63.878 0.272 7.63 3 7.98
9/12/2016 2:15:00 AM 17.6 63.68 0.272 7.64 2.8 8.01
9/12/2016 2:30:00 AM 17.52 63.536 0.272 7.63 2.5 8.03
9/12/2016 2:45:00 AM 17.38 63.284 0.272 7.62 2.3 8.09
9/12/2016 3:00:00 AM 17.27 63.086 0.272 7.63 2.4 8.14
9/12/2016 3:15:00 AM 17.15 62.87 0.272 7.64 2.3 8.15
9/12/2016 3:30:00 AM 17.07 62.726 0.272 7.64 2.4 8.19
9/12/2016 3:45:00 AM 16.97 62.546 0.272 7.63 3.6 8.17
9/12/2016 4:00:00 AM 16.86 62.348 0.273 7.63 2.5 7.98
9/12/2016 4:15:00 AM 16.75 62.15 0.272 7.63 2.2 8.22
9/12/2016 4:30:00 AM 16.63 61.934 0.272 7.64 2.6 8.24
9/12/2016 4:45:00 AM 16.56 61.808 0.272 7.63 2.7 8.29
9/12/2016 5:00:00 AM 16.46 61.628 0.272 7.63 2.6 8.25
9/12/2016 5:15:00 AM 16.37 61.466 0.272 7.64 3.7 8.36
9/12/2016 5:30:00 AM 16.28 61.304 0.273 7.64 7.2 8.37
9/12/2016 5:45:00 AM 16.18 61.124 0.272 7.63 4.5 8.43
9/12/2016 6:00:00 AM 16.09 60.962 0.273 7.64 2.4 8.46
9/12/2016 6:15:00 AM 16.01 60.818 0.272 7.64 2.7 8.48
9/12/2016 6:30:00 AM 15.92 60.656 0.272 7.64 2.2 8.45
9/12/2016 6:45:00 AM 15.86 60.548 0.272 7.64 2.2 8.5
9/12/2016 7:00:00 AM 15.77 60.386 0.273 7.65 2.4 8.52
9/12/2016 7:15:00 AM 15.71 60.278 0.272 7.65 2.3 8.58
9/12/2016 7:30:00 AM 15.66 60.188 0.272 7.65 2.7 8.62
9/12/2016 7:45:00 AM 15.6 60.08 0.272 7.67 1.9 8.72
9/12/2016 8:00:00 AM 15.55 59.99 0.272 7.7 2 8.76
9/12/2016 8:15:00 AM 15.51 59.918 0.271 7.72 1.9 8.92
9/12/2016 8:30:00 AM 15.51 59.918 0.272 7.74 2 8.93
9/12/2016 8:45:00 AM 15.49 59.882 0.272 7.76 1.4 9.09
9/12/2016 9:00:00 AM 15.48 59.864 0.271 7.77 1.6 9.16
9/12/2016 9:15:00 AM 15.49 59.882 0.271 7.77 1.8 9.06
9/12/2016 9:30:00 AM 15.52 59.936 0.271 7.78 1.9 9.21
9/12/2016 9:45:00 AM 15.59 60.062 0.271 7.79 1.4 9.2
9/12/2016 10:00:00 AM 15.68 60.224 0.271 7.81 1.6 9.15
9/12/2016 10:15:00 AM 15.79 60.422 0.271 7.83 1.4 9.19
9/12/2016 10:30:00 AM 15.93 60.674 0.27 7.83 1 9.41
9/12/2016 10:45:00 AM 16.09 60.962 0.27 7.85 1 9.48
9/12/2016 11:00:00 AM 16.28 61.304 0.27 7.86 1.1 9.49
9/12/2016 11:15:00 AM 16.44 61.592 0.27 7.88 1.2 9.52
9/12/2016 11:30:00 AM 16.43 61.574 0.269 7.91 1.3 9.15
9/12/2016 11:45:00 AM 16.65 61.97 0.269 7.94 1.5 9.56
9/12/2016 12:00:00 PM 17.11 62.798 0.269 7.98 1.5 9.69
9/12/2016 12:15:00 PM 17.79 64.022 0.268 8.09 1.4 9.83
9/12/2016 12:30:00 PM 18.92 66.056 0.267 8.25 1.2 10.3
9/12/2016 12:45:00 PM 20.12 68.216 0.265 8.37 1.2 10.45
9/12/2016 1:00:00 PM 21.08 69.944 0.265 8.46 1.3 10.58
9/12/2016 1:15:00 PM 21.5 70.7 0.267 8.53 1.7 10.66
9/12/2016 1:30:00 PM 22.34 72.212 0.264 8.58 1.7 10.7
9/12/2016 1:45:00 PM 22.7 72.86 0.265 8.65 2 10.72
9/12/2016 2:00:00 PM 22.97 73.346 0.265 8.72 1.8 10.82
9/12/2016 2:15:00 PM 23.16 73.688 0.265 8.79 1.8 10.83
9/12/2016 2:30:00 PM 23.28 73.904 0.265 8.8 1.9 10.77
9/12/2016 2:45:00 PM 23.31 73.958 0.266 8.75 2.4 10.25
9/12/2016 3:00:00 PM 23.25 73.85 0.266 8.67 2.3 10
9/12/2016 3:15:00 PM 23.07 73.526 0.267 8.6 1.9 9.56
9/12/2016 3:30:00 PM 22.71 72.878 0.268 8.5 2.3 9.58
9/12/2016 3:45:00 PM 22.37 72.266 0.269 8.36 3.2 9.2
9/12/2016 4:00:00 PM 22.11 71.798 0.269 8.3 2.5 9.13
9/12/2016 4:15:00 PM 21.87 71.366 0.269 8.27 2.9 9.08
9/12/2016 4:30:00 PM 21.7 71.06 0.269 8.32 2.8 9.05
9/12/2016 4:45:00 PM 21.58 70.844 0.269 8.32 3 9.02
9/12/2016 5:00:00 PM 21.4 70.52 0.269 8.33 2.3 8.94
9/12/2016 5:15:00 PM 21.29 70.32201 0.269 8.35 1.8 8.9
9/12/2016 5:30:00 PM 21.23 70.214 0.269 8.37 1.7 8.77
9/12/2016 5:45:00 PM 21.1 69.98 0.269 8.31 2.4 8.76
9/12/2016 6:00:00 PM 21 69.8 0.269 8.2 1.7 8.68
9/12/2016 6:15:00 PM 20.86 69.548 0.269 8.08 1.6 8.56
9/12/2016 6:30:00 PM 20.74 69.332 0.27 8.01 1.6 8.39
9/12/2016 6:45:00 PM 20.57 69.026 0.27 7.96 1.9 8.24
9/12/2016 7:00:00 PM 20.41 68.738 0.27 7.92 1.8 7.99
9/12/2016 7:15:00 PM 20.27 68.486 0.27 7.88 1.9 8.07
9/12/2016 7:30:00 PM 20.12 68.216 0.271 7.84 2.8 8.01
9/12/2016 7:45:00 PM 19.97 67.946 0.271 7.81 2.9 7.95
9/12/2016 8:00:00 PM 19.82 67.676 0.271 7.79 2.3 7.9
9/12/2016 8:15:00 PM 19.68 67.424 0.272 7.77 2.1 7.85
9/12/2016 8:30:00 PM 19.52 67.136 0.272 7.74 4.9 7.87
9/12/2016 8:45:00 PM 19.39 66.902 0.272 7.74 2 7.83
9/12/2016 9:00:00 PM 19.25 66.65 0.273 7.72 2.1 7.82
9/12/2016 9:15:00 PM 19.12 66.416 0.273 7.71 1.9 7.88
9/12/2016 9:30:00 PM 18.97 66.146 0.273 7.7 2.2 7.82
9/12/2016 9:45:00 PM 18.83 65.894 0.273 7.69 2.6 7.83
9/12/2016 10:00:00 PM 18.71 65.67799 0.273 7.69 1.9 7.84
9/12/2016 10:15:00 PM 18.55 65.39 0.273 7.68 1.9 7.93
9/12/2016 10:30:00 PM 18.43 65.174 0.273 7.67 1.8 7.88
9/12/2016 10:45:00 PM 18.29 64.922 0.273 7.68 2 7.7
9/12/2016 11:00:00 PM 18.15 64.67 0.273 7.66 2.1 8
9/12/2016 11:15:00 PM 18.02 64.436 0.273 7.67 2.1 7.94
9/12/2016 11:30:00 PM 17.9 64.22 0.273 7.66 1.9 8
9/12/2016 11:45:00 PM 17.78 64.004 0.273 7.66 1.4 8
9/13/2016 12:00:00 AM 17.65 63.77 0.273 7.66 2 8.08
9/13/2016 12:15:00 AM 17.54 63.572 0.273 7.65 1.7 8.08
9/13/2016 12:30:00 AM 17.42 63.356 0.273 7.66 2.7 8.1
9/13/2016 12:45:00 AM 17.31 63.158 0.273 7.66 2.6 8.13
9/13/2016 1:00:00 AM 17.19 62.942 0.273 7.66 1.8 8.2
9/13/2016 1:15:00 AM 17.09 62.762 0.273 7.65 2.2 8.18
9/13/2016 1:30:00 AM 16.97 62.546 0.273 7.65 2 8.25
9/13/2016 1:45:00 AM 16.87 62.366 0.273 7.65 2.2 8.33
9/13/2016 2:00:00 AM 16.77 62.186 0.273 7.66 2.9 8.35
9/13/2016 2:15:00 AM 16.69 62.042 0.273 7.65 2.3 8.37
9/13/2016 2:30:00 AM 16.56 61.808 0.273 7.66 1.6 8.15
9/13/2016 2:45:00 AM 16.47 61.646 0.273 7.65 1.7 8.4
9/13/2016 3:00:00 AM 16.37 61.466 0.273 7.64 2.9 8.43
9/13/2016 3:15:00 AM 16.28 61.304 0.273 7.65 2 8.5
9/13/2016 3:30:00 AM 16.19 61.142 0.273 7.64 2 8.45
9/13/2016 3:45:00 AM 16.11 60.998 0.273 7.65 1.9 8.49
9/13/2016 4:00:00 AM 16.01 60.818 0.273 7.65 2.5 8.44
9/13/2016 4:15:00 AM 15.93 60.674 0.273 7.65 2.3 8.53
9/13/2016 4:30:00 AM 15.85 60.53 0.273 7.65 3 8.51
9/13/2016 4:45:00 AM 15.76 60.368 0.273 7.65 3 8.51
9/13/2016 5:00:00 AM 15.68 60.224 0.273 7.64 2.7 8.56
9/13/2016 5:15:00 AM 15.61 60.098 0.273 7.65 3.1 8.6
9/13/2016 5:30:00 AM 15.53 59.954 0.274 7.66 1.8 8.6
9/13/2016 5:45:00 AM 15.46 59.828 0.274 7.66 2.4 8.7
9/13/2016 6:00:00 AM 15.39 59.702 0.273 7.65 1.7 8.7
9/13/2016 6:15:00 AM 15.3 59.54 0.273 7.64 1.7 8.51
9/13/2016 6:30:00 AM 15.24 59.432 0.273 7.64 1.7 8.61
9/13/2016 6:45:00 AM 15.17 59.306 0.274 7.66 1.7 8.72
9/13/2016 7:00:00 AM 15.11 59.198 0.274 7.66 1.5 8.74
9/13/2016 7:15:00 AM 15.06 59.108 0.274 7.66 1.7 8.75
9/13/2016 7:30:00 AM 15 59 0.273 7.65 1.3 8.79
9/13/2016 7:45:00 AM 14.96 58.928 0.273 7.67 1.6 8.84
9/13/2016 8:00:00 AM 14.93 58.874 0.273 7.68 1.5 8.88
9/13/2016 8:15:00 AM 14.93 58.874 0.273 7.69 1.3 9
9/13/2016 8:30:00 AM 14.92 58.856 0.273 7.72 1.4 9.08
9/13/2016 8:45:00 AM 14.94 58.892 0.273 7.72 0.9 9.14
9/13/2016 9:00:00 AM 14.98 58.964 0.273 7.75 2.3 8.97
9/13/2016 9:15:00 AM 15.02 59.036 0.273 7.77 1 9.2
9/13/2016 9:30:00 AM 15.11 59.198 0.272 7.79 1.1 9.24
9/13/2016 9:45:00 AM 15.2 59.36 0.272 7.81 0.9 9.27
9/13/2016 10:00:00 AM 15.32 59.576 0.272 7.83 1.1 9.03
9/13/2016 10:15:00 AM 15.45 59.81 0.272 7.84 2 9.31
9/13/2016 10:30:00 AM 15.56 60.008 0.272 7.86 0.9 9.28
9/13/2016 10:45:00 AM 15.73 60.314 0.271 7.88 1 9.35
9/13/2016 11:00:00 AM 15.95 60.71 0.271 7.92 1.7 9.39
9/13/2016 11:15:00 AM 16.04 60.872 0.271 7.95 1.2 9.77
9/13/2016 11:30:00 AM 16.22 61.196 0.271 7.98 1.2 9.5
9/13/2016 11:45:00 AM 16.42 61.556 0.27 8.03 1.4 9.48
9/13/2016 12:00:00 PM 16.92 62.456 0.269 8.11 1.6 9.85
9/13/2016 12:15:00 PM 17.67 63.806 0.268 8.25 1.4 10.23
9/13/2016 12:30:00 PM 18.74 65.732 0.267 8.44 1.4 10.86
9/13/2016 12:45:00 PM 19.9 67.82 0.266 8.56 1.3 10.99
9/13/2016 1:00:00 PM 20.64 69.152 0.266 8.61 4.1 11.09
9/13/2016 1:15:00 PM 21.6 70.88 0.265 8.68 1.5 11.04
9/13/2016 1:30:00 PM 21.72 71.096 0.267 8.7 1.6 11.28
9/13/2016 1:45:00 PM 22.56 72.608 0.265 8.77 1.5 10.85
9/13/2016 2:00:00 PM 22.99 73.382 0.265 8.82 1.7 11.15
9/13/2016 2:15:00 PM 23.22 73.796 0.265 8.84 1.4 11.08
9/13/2016 2:30:00 PM 23.34 74.012 0.265 8.84 1.8 11
9/13/2016 2:45:00 PM 23.31 73.958 0.265 8.83 2.5 10.85
9/13/2016 3:00:00 PM 23.26 73.868 0.265 8.75 1.5 10.59
9/13/2016 3:15:00 PM 23.04 73.472 0.266 8.71 1.1 10.07
9/13/2016 3:30:00 PM 23 73.4 0.266 8.67 2.4 10.07
9/13/2016 3:45:00 PM 22.8 73.04 0.267 8.58 1.5 9.84
9/13/2016 4:00:00 PM 22.62 72.716 0.267 8.53 1.9 9.64
9/13/2016 4:15:00 PM 22.4 72.32 0.267 8.51 1.3 9.49
9/13/2016 4:30:00 PM 22.32 72.176 0.268 8.53 1.8 9.39
9/13/2016 4:45:00 PM 22.18 71.924 0.268 8.52 1.7 9.28
9/13/2016 5:00:00 PM 22.05 71.69 0.268 8.5 1.6 9.18
9/13/2016 5:15:00 PM 21.95 71.51 0.268 8.5 1.6 9.12
9/13/2016 5:30:00 PM 21.92 71.456 0.268 8.49 1.9 8.81
9/13/2016 5:45:00 PM 21.88 71.384 0.268 8.47 1.5 8.91
9/13/2016 6:00:00 PM 21.8 71.24 0.268 8.31 1.6 8.8
9/13/2016 6:15:00 PM 21.69 71.042 0.269 8.2 1.1 8.6
9/13/2016 6:30:00 PM 21.59 70.862 0.269 8.12 1.8 8.42
9/13/2016 6:45:00 PM 21.48 70.664 0.27 8.05 1.4 8.27
9/13/2016 7:00:00 PM 21.37 70.466 0.271 8 2 8.15
9/13/2016 7:15:00 PM 21.24 70.232 0.271 7.94 1.7 8.01
9/13/2016 7:30:00 PM 21.12 70.016 0.271 7.89 1.9 7.92
9/13/2016 7:45:00 PM 21 69.8 0.272 7.85 1.9 7.76
9/13/2016 8:00:00 PM 20.89 69.602 0.272 7.82 3.6 7.68
9/13/2016 8:15:00 PM 20.78 69.404 0.273 7.79 2.3 7.65
9/13/2016 8:30:00 PM 20.67 69.206 0.273 7.76 2.2 7.59
9/13/2016 8:45:00 PM 20.57 69.026 0.273 7.74 2.1 7.51
9/13/2016 9:00:00 PM 20.48 68.864 0.274 7.72 2.2 7.52
9/13/2016 9:15:00 PM 20.37 68.666 0.274 7.71 1.8 7.35
9/13/2016 9:30:00 PM 20.26 68.468 0.274 7.7 2.1 7.49
9/13/2016 9:45:00 PM 20.18 68.324 0.274 7.68 1.9 7.49
9/13/2016 10:00:00 PM 20.07 68.126 0.274 7.67 3 7.49
9/13/2016 10:15:00 PM 19.97 67.946 0.275 7.67 2.5 7.54
9/13/2016 10:30:00 PM 19.87 67.766 0.275 7.66 2.3 7.46
9/13/2016 10:45:00 PM 19.77 67.586 0.275 7.65 2.3 7.44
9/13/2016 11:00:00 PM 19.66 67.388 0.275 7.65 1.9 7.5
9/13/2016 11:15:00 PM 19.57 67.226 0.275 7.64 2.6 7.62
9/13/2016 11:30:00 PM 19.46 67.028 0.275 7.64 2 7.57
9/13/2016 11:45:00 PM 19.35 66.83 0.276 7.63 2.3 7.58
9/14/2016 12:00:00 AM 19.24 66.632 0.276 7.63 2.6 7.63
9/14/2016 12:15:00 AM 19.13 66.434 0.276 7.62 2.3 7.61
9/14/2016 12:30:00 AM 19.02 66.236 0.276 7.62 2.5 7.61
9/14/2016 12:45:00 AM 18.9 66.02 0.276 7.61 2.1 7.74
9/14/2016 1:00:00 AM 18.78 65.804 0.276 7.62 2.2 7.59
9/14/2016 1:15:00 AM 18.69 65.642 0.276 7.61 2.4 7.71
9/14/2016 1:30:00 AM 18.6 65.48 0.276 7.62 1.6 7.74
9/14/2016 1:45:00 AM 18.52 65.336 0.276 7.62 1.8 7.84
9/14/2016 2:00:00 AM 18.42 65.156 0.276 7.62 2.5 7.82
9/14/2016 2:15:00 AM 18.35 65.03 0.276 7.61 2.2 7.86
9/14/2016 2:30:00 AM 18.28 64.904 0.276 7.62 2.3 7.8
9/14/2016 2:45:00 AM 18.19 64.742 0.276 7.61 2.2 7.9
9/14/2016 3:00:00 AM 18.15 64.67 0.276 7.61 2 7.86
9/14/2016 3:15:00 AM 18.1 64.58 0.276 7.62 2.4 7.83
9/14/2016 3:30:00 AM 18 64.4 0.276 7.61 2.5 7.89
9/14/2016 3:45:00 AM 17.93 64.274 0.276 7.6 3.8 7.91
9/14/2016 4:00:00 AM 17.9 64.22 0.276 7.63 2.9 7.91
9/14/2016 4:15:00 AM 17.78 64.004 0.276 7.61 2.7 7.94
9/14/2016 4:30:00 AM 17.73 63.914 0.276 7.62 3 7.98
9/14/2016 4:45:00 AM 17.66 63.788 0.276 7.61 2.3 7.85
9/14/2016 5:00:00 AM 17.61 63.698 0.276 7.61 2.7 7.97
9/14/2016 5:15:00 AM 17.54 63.572 0.276 7.61 2.4 8.05
9/14/2016 5:30:00 AM 17.47 63.446 0.276 7.6 2.6 8.03
9/14/2016 5:45:00 AM 17.4 63.32 0.277 7.61 2.5 8.02
9/14/2016 6:00:00 AM 17.34 63.212 0.276 7.61 1.8 8.07
9/14/2016 6:15:00 AM 17.29 63.122 0.276 7.61 2.1 8.13
9/14/2016 6:30:00 AM 17.22 62.996 0.277 7.59 2 8.08
9/14/2016 6:45:00 AM 17.16 62.888 0.276 7.62 2.7 8.14
9/14/2016 7:00:00 AM 17.1 62.78 0.277 7.62 2.2 8.12
9/14/2016 7:15:00 AM 17.04 62.672 0.277 7.62 1.8 8.12
9/14/2016 7:30:00 AM 17.01 62.618 0.277 7.64 1.5 8.22
9/14/2016 7:45:00 AM 16.99 62.582 0.276 7.65 1.3 8.27
9/14/2016 8:00:00 AM 17 62.6 0.276 7.68 1.2 8.35
9/14/2016 8:15:00 AM 17.03 62.654 0.276 7.71 1.3 8.43
9/14/2016 8:30:00 AM 17.06 62.708 0.276 7.74 1.4 8.62
9/14/2016 8:45:00 AM 17.1 62.78 0.275 7.76 1.1 8.79
9/14/2016 9:00:00 AM 17.14 62.852 0.275 7.79 0.7 8.92
9/14/2016 9:15:00 AM 17.21 62.978 0.275 7.83 1.7 8.82
9/14/2016 9:30:00 AM 17.29 63.122 0.274 7.84 1 9.06
9/14/2016 9:45:00 AM 17.38 63.284 0.274 7.86 1 8.98
9/14/2016 10:00:00 AM 17.46 63.428 0.274 7.87 1.3 9.01
9/14/2016 10:15:00 AM 17.57 63.626 0.273 7.9 0.9 9.02
9/14/2016 10:30:00 AM 17.65 63.77 0.273 7.93 1.2 9.24
9/14/2016 10:45:00 AM 17.81 64.058 0.273 7.96 0.9 9.34
9/14/2016 11:00:00 AM 17.98 64.364 0.272 8.05 1.1 9.34
9/14/2016 11:15:00 AM 18.19 64.742 0.272 8.08 1 9.66
9/14/2016 11:30:00 AM 18.27 64.886 0.271 8.14 1.7 9.73
9/14/2016 11:45:00 AM 18.49 65.282 0.271 8.21 1.7 9.85
9/14/2016 12:00:00 PM 18.89 66.002 0.27 8.28 1.3 10.21
9/14/2016 12:15:00 PM 19.53 67.154 0.268 8.41 1.3 10.19
9/14/2016 12:30:00 PM 20.13 68.234 0.268 8.45 2 10.97
9/14/2016 12:45:00 PM 20.65 69.17 0.268 8.55 1.1 10.69
9/14/2016 1:00:00 PM 20.96 69.728 0.267 8.52 1.6 10.62
9/14/2016 1:15:00 PM 20.98 69.764 0.267 8.55 1.2 10.39
9/14/2016 1:30:00 PM 21.17 70.106 0.267 8.65 1.3 10.38
9/14/2016 1:45:00 PM 21.66 70.988 0.266 8.73 1 10.23
9/14/2016 2:00:00 PM 22.27 72.086 0.265 8.74 1.4 10.35
9/14/2016 2:15:00 PM 22.67 72.806 0.264 8.65 1.1 10.52
9/14/2016 2:30:00 PM 22.52 72.536 0.264 8.67 1.3 10.55
9/14/2016 2:45:00 PM 22.51 72.518 0.265 8.72 1.2 10.38
9/14/2016 3:00:00 PM 22.67 72.806 0.265 8.77 1.8 10.28
9/14/2016 3:15:00 PM 22.71 72.878 0.264 8.75 1.3 10.4
9/14/2016 3:30:00 PM 22.58 72.644 0.264 8.72 2.3 10.41
9/14/2016 3:45:00 PM 22.44 72.392 0.264 8.69 1.6 10.3
9/14/2016 4:00:00 PM 22.34 72.212 0.264 8.68 1.9 9.78
9/14/2016 4:15:00 PM 22.26 72.068 0.264 8.65 1.9 10.02
9/14/2016 4:30:00 PM 22.11 71.798 0.264 8.6 2 10.03
9/14/2016 4:45:00 PM 21.96 71.528 0.265 8.57 1.4 9.81
9/14/2016 5:00:00 PM 21.83 71.294 0.265 8.54 1.8 9.54
9/14/2016 5:15:00 PM 21.73 71.114 0.266 8.5 1.5 9.41
9/14/2016 5:30:00 PM 21.66 70.988 0.266 8.46 1.3 9.33
9/14/2016 5:45:00 PM 21.56 70.808 0.266 8.44 1.1 9.28
9/14/2016 6:00:00 PM 21.47 70.646 0.266 8.38 1.5 9.07
9/14/2016 6:15:00 PM 21.36 70.448 0.267 8.34 1.3 9.02
9/14/2016 6:30:00 PM 21.25 70.25 0.267 8.29 1.6 8.83
9/14/2016 6:45:00 PM 21.11 69.998 0.268 8.22 1.6 8.64
9/14/2016 7:00:00 PM 20.97 69.746 0.269 8.15 1.8 8.53
9/14/2016 7:15:00 PM 20.83 69.494 0.269 8.08 1.4 8.31
9/14/2016 7:30:00 PM 20.67 69.206 0.27 8.02 2.2 8.22
9/14/2016 7:45:00 PM 20.51 68.918 0.27 7.96 1.6 7.9
9/14/2016 8:00:00 PM 20.29 68.522 0.271 7.91 2.1 7.94
9/14/2016 8:15:00 PM 20.16 68.288 0.272 7.86 2.2 7.89
9/14/2016 8:30:00 PM 19.98 67.964 0.272 7.83 2.3 7.8
9/14/2016 8:45:00 PM 19.82 67.676 0.272 7.8 2.3 7.82
9/14/2016 9:00:00 PM 19.67 67.406 0.272 7.77 2.7 7.86
9/14/2016 9:15:00 PM 19.51 67.118 0.273 7.75 3.6 7.78
9/14/2016 9:30:00 PM 19.37 66.866 0.273 7.73 2 7.82
9/14/2016 9:45:00 PM 19.27 66.686 0.273 7.72 1.8 7.82
9/14/2016 10:00:00 PM 19.08 66.344 0.273 7.7 3.2 7.81
9/14/2016 10:15:00 PM 18.94 66.092 0.274 7.69 3.3 7.84
9/14/2016 10:30:00 PM 18.8 65.84 0.274 7.68 3.1 7.83
9/14/2016 10:45:00 PM 18.65 65.57 0.274 7.68 2.1 7.88
9/14/2016 11:00:00 PM 18.52 65.336 0.274 7.67 1.9 7.86
9/14/2016 11:15:00 PM 18.39 65.102 0.274 7.67 1.5 7.9
9/14/2016 11:30:00 PM 18.26 64.868 0.274 7.67 2.3 7.74
9/14/2016 11:45:00 PM 18.12 64.616 0.274 7.67 2.1 7.98
9/15/2016 12:00:00 AM 18 64.4 0.274 7.65 2.5 8
9/15/2016 12:15:00 AM 17.86 64.148 0.274 7.66 2.2 8.01
9/15/2016 12:30:00 AM 17.75 63.95 0.274 7.65 1.9 8.01
9/15/2016 12:45:00 AM 17.61 63.698 0.275 7.64 2 8.08
9/15/2016 1:00:00 AM 17.5 63.5 0.275 7.65 1.6 8.08
9/15/2016 1:15:00 AM 17.38 63.284 0.275 7.66 1.9 8.14
9/15/2016 1:30:00 AM 17.24 63.032 0.275 7.65 1.5 8.12
9/15/2016 1:45:00 AM 17.13 62.834 0.275 7.65 2 8.2
9/15/2016 2:00:00 AM 16.99 62.582 0.275 7.65 1344.6 8.18
9/15/2016 2:15:00 AM 16.88 62.384 0.275 7.65 3.6 8.22
9/15/2016 2:30:00 AM 16.77 62.186 0.275 7.65 1.7 8.27
9/15/2016 2:45:00 AM 16.65 61.97 0.275 7.65 2.5 8.3
9/15/2016 3:00:00 AM 16.59 61.862 0.275 7.65 2.8 8.32
9/15/2016 3:15:00 AM 16.41 61.538 0.275 7.66 1.7 8.21
9/15/2016 3:30:00 AM 16.29 61.322 0.275 7.65 1.6 8.38
9/15/2016 3:45:00 AM 16.18 61.124 0.276 7.65 2.1 8.44
9/15/2016 4:00:00 AM 16.08 60.944 0.276 7.64 1.6 8.42
9/15/2016 4:15:00 AM 16 60.8 0.276 7.63 1.9 8.45
9/15/2016 4:30:00 AM 15.9 60.62 0.276 7.63 2.3 8.5
9/15/2016 4:45:00 AM 15.77 60.386 0.276 7.64 1.8 8.53
9/15/2016 5:00:00 AM 15.66 60.188 0.276 7.64 1.9 8.6
9/15/2016 5:15:00 AM 15.56 60.008 0.276 7.63 2.1 8.59
9/15/2016 5:30:00 AM 15.45 59.81 0.276 7.62 1.8 8.63
9/15/2016 5:45:00 AM 15.35 59.63 0.276 7.63 1.7 8.39
9/15/2016 6:00:00 AM 15.25 59.45 0.276 7.63 1.8 8.65
9/15/2016 6:15:00 AM 15.15 59.27 0.276 7.61 3.3 8.71
9/15/2016 6:30:00 AM 15.05 59.09 0.276 7.61 2.1 8.72
9/15/2016 6:45:00 AM 14.96 58.928 0.276 7.63 1.7 8.76
9/15/2016 7:00:00 AM 14.86 58.748 0.276 7.64 1.5 8.62
9/15/2016 7:15:00 AM 14.79 58.622 0.276 7.63 1.2 8.83
9/15/2016 7:30:00 AM 14.74 58.532 0.276 7.65 0.9 8.87
9/15/2016 7:45:00 AM 14.71 58.478 0.276 7.66 1.1 8.97
9/15/2016 8:00:00 AM 14.66 58.388 0.276 7.7 1 9.1
9/15/2016 8:15:00 AM 14.64 58.352 0.275 7.73 1 9.22
9/15/2016 8:30:00 AM 14.65 58.37 0.275 7.77 1.4 9.37
9/15/2016 8:45:00 AM 14.65 58.37 0.274 7.79 1.1 9.5
9/15/2016 9:00:00 AM 14.63 58.334 0.274 7.81 0.8 9.7
9/15/2016 9:15:00 AM 14.63 58.334 0.274 7.82 1 9.77
9/15/2016 9:30:00 AM 14.64 58.352 0.274 7.84 0.6 9.8
9/15/2016 9:45:00 AM 14.65 58.37 0.274 7.84 0.9 9.79
9/15/2016 10:00:00 AM 14.7 58.46 0.273 7.86 1 9.78
9/15/2016 10:15:00 AM 14.79 58.622 0.273 7.88 1.6 9.76
9/15/2016 10:30:00 AM 14.9 58.82 0.273 7.88 0.9 9.87
9/15/2016 10:45:00 AM 15.02 59.036 0.273 7.91 0.9 9.66
9/15/2016 11:00:00 AM 15.15 59.27 0.272 7.95 1.4 9.94
9/15/2016 11:15:00 AM 15.28 59.504 0.272 7.97 0.8 9.82
9/15/2016 11:30:00 AM 15.26 59.468 0.272 7.99 1.2 9.79
9/15/2016 11:45:00 AM 15.5 59.9 0.271 8.02 0.9 9.58
9/15/2016 12:00:00 PM 15.76 60.368 0.27 8.07 0.6 9.44
9/15/2016 12:15:00 PM 16.43 61.574 0.269 8.17 0.9 9.87
9/15/2016 12:30:00 PM 17.64 63.752 0.268 8.35 1.1 10.58
9/15/2016 12:45:00 PM 18.84 65.912 0.268 8.47 0.9 10.81
9/15/2016 1:00:00 PM 19.77 67.586 0.266 8.57 1 10.94
9/15/2016 1:15:00 PM 20.52 68.936 0.266 8.6 0.8 11.04
9/15/2016 1:30:00 PM 20.89 69.602 0.266 8.67 1.6 11.18
9/15/2016 1:45:00 PM 21.16 70.088 0.266 8.76 0.9 11.3
9/15/2016 2:00:00 PM 21.42 70.556 0.266 8.85 1.1 11.33
9/15/2016 2:15:00 PM 21.55 70.79 0.266 8.9 1.5 10.89
9/15/2016 2:30:00 PM 21.62 70.916 0.266 8.9 1.5 11
9/15/2016 2:45:00 PM 21.68 71.024 0.267 8.85 1.3 10.74
9/15/2016 3:00:00 PM 21.66 70.988 0.267 8.78 1.7 10.55
9/15/2016 3:15:00 PM 21.55 70.79 0.267 8.73 1.9 10.27
9/15/2016 3:30:00 PM 21.34 70.412 0.268 8.63 1.6 10.14
9/15/2016 3:45:00 PM 20.92 69.656 0.269 8.51 1.6 9.84
9/15/2016 4:00:00 PM 20.71 69.278 0.269 8.47 1.5 9.69
9/15/2016 4:15:00 PM 20.49 68.882 0.27 8.43 1.4 9.67
9/15/2016 4:30:00 PM 20.34 68.612 0.27 8.48 1.9 9.58
9/15/2016 4:45:00 PM 20.14 68.252 0.27 8.43 1.4 9.5
9/15/2016 5:00:00 PM 19.95 67.91 0.27 8.45 1.3 9.56
9/15/2016 5:15:00 PM 19.75 67.55 0.27 8.44 1.4 9.49
9/15/2016 5:30:00 PM 19.61 67.298 0.27 8.46 1.3 9.31
9/15/2016 5:45:00 PM 19.54 67.172 0.27 8.43 1.3 9.34
9/15/2016 6:00:00 PM 19.37 66.866 0.27 8.23 1.2 9.02
9/15/2016 6:15:00 PM 19.19 66.542 0.27 8.16 1.3 9.09
9/15/2016 6:30:00 PM 19.03 66.254 0.27 8.1 1.1 8.91
9/15/2016 6:45:00 PM 18.83 65.894 0.271 8.05 1.3 8.81
9/15/2016 7:00:00 PM 18.68 65.624 0.271 7.99 1.6 8.71
9/15/2016 7:15:00 PM 18.49 65.282 0.271 7.95 1.7 8.55
9/15/2016 7:30:00 PM 18.33 64.994 0.272 7.9 1.3 8.5
9/15/2016 7:45:00 PM 18.17 64.706 0.272 7.86 1.4 8.43
9/15/2016 8:00:00 PM 17.98 64.364 0.272 7.83 1.1 8.37
9/15/2016 8:15:00 PM 17.82 64.076 0.272 7.8 1.1 8.32
9/15/2016 8:30:00 PM 17.65 63.77 0.273 7.78 1.6 8.32
9/15/2016 8:45:00 PM 17.51 63.518 0.273 7.75 1.9 8.28
9/15/2016 9:00:00 PM 17.35 63.23 0.273 7.73 1.5 8.31
9/15/2016 9:15:00 PM 17.22 62.996 0.273 7.73 1.5 8.28
9/15/2016 9:30:00 PM 17.06 62.708 0.273 7.71 1.9 8.22
9/15/2016 9:45:00 PM 16.91 62.438 0.274 7.71 1.6 8.18
9/15/2016 10:00:00 PM 16.78 62.204 0.274 7.7 1.5 8.35
9/15/2016 10:15:00 PM 16.64 61.952 0.274 7.69 1.5 8.33
9/15/2016 10:30:00 PM 16.49 61.682 0.274 7.7 1.2 8.37
9/15/2016 10:45:00 PM 16.35 61.43 0.274 7.68 1.7 8.39
9/15/2016 11:00:00 PM 16.22 61.196 0.274 7.67 1.5 8.43
9/15/2016 11:15:00 PM 16.09 60.962 0.275 7.67 1.9 8.42
9/15/2016 11:30:00 PM 15.96 60.728 0.275 7.67 1.6 8.48
9/15/2016 11:45:00 PM 15.79 60.422 0.275 7.68 1.6 8.52
9/16/2016 12:00:00 AM 15.68 60.224 0.275 7.66 1.4 8.53
9/16/2016 12:15:00 AM 15.57 60.026 0.275 7.66 1.5 8.56
9/16/2016 12:30:00 AM 15.43 59.774 0.275 7.67 1.2 8.6
9/16/2016 12:45:00 AM 15.31 59.558 0.275 7.67 2 8.65
9/16/2016 1:00:00 AM 15.19 59.342 0.275 7.67 1.6 8.69
9/16/2016 1:15:00 AM 15.07 59.126 0.275 7.66 1.1 8.67
9/16/2016 1:30:00 AM 14.97 58.946 0.275 7.66 1.6 8.53
9/16/2016 1:45:00 AM 14.84 58.712 0.275 7.64 1.7 8.76
9/16/2016 2:00:00 AM 14.73 58.514 0.276 7.64 1.5 8.78
9/16/2016 2:15:00 AM 14.61 58.298 0.275 7.66 1.8 8.83
9/16/2016 2:30:00 AM 14.51 58.118 0.276 7.67 2.2 8.88
9/16/2016 2:45:00 AM 14.41 57.938 0.276 7.66 1.9 8.88
9/16/2016 3:00:00 AM 14.3 57.74 0.276 7.65 2.4 8.93
9/16/2016 3:15:00 AM 14.18 57.524 0.276 7.66 1.4 8.94
9/16/2016 3:30:00 AM 14.09 57.362 0.276 7.66 1.2 8.97
9/16/2016 3:45:00 AM 13.99 57.182 0.276 7.67 1.5 9.01
9/16/2016 4:00:00 AM 13.9 57.02 0.276 7.66 1.6 8.97
9/16/2016 4:15:00 AM 13.79 56.822 0.276 7.65 1.2 9.07
9/16/2016 4:30:00 AM 13.71 56.678 0.276 7.66 1.7 9.09
9/16/2016 4:45:00 AM 13.62 56.516 0.276 7.66 1.2 9.13
9/16/2016 5:00:00 AM 13.54 56.372 0.276 7.67 1.4 9.16
9/16/2016 5:15:00 AM 13.44 56.192 0.276 7.67 1.2 8.97
9/16/2016 5:30:00 AM 13.36 56.048 0.276 7.66 1.6 9.16
9/16/2016 5:45:00 AM 13.28 55.904 0.276 7.66 1.9 9.21
9/16/2016 6:00:00 AM 13.2 55.76 0.276 7.67 2.3 9.23
9/16/2016 6:15:00 AM 13.1 55.58 0.277 7.67 2.3 9.26
9/16/2016 6:30:00 AM 13.02 55.436 0.277 7.67 1.9 9.31
9/16/2016 6:45:00 AM 12.93 55.274 0.277 7.68 1.5 9.28
9/16/2016 7:00:00 AM 12.88 55.184 0.277 7.67 2.6 9.33
9/16/2016 7:15:00 AM 12.8 55.04 0.277 7.68 1.9 9.34
9/16/2016 7:30:00 AM 12.74 54.932 0.277 7.69 3.2 9.44
9/16/2016 7:45:00 AM 12.68 54.824 0.276 7.7 1.2 9.5
9/16/2016 8:00:00 AM 12.64 54.752 0.276 7.71 4.9 9.6
9/16/2016 8:15:00 AM 12.61 54.698 0.276 7.73 2.4 9.65
9/16/2016 8:30:00 AM 12.6 54.68 0.276 7.75 7.1 9.73
9/16/2016 8:45:00 AM 12.63 54.734 0.276 7.77 5.3 9.79
9/16/2016 9:00:00 AM 12.66 54.788 0.276 7.78 0.6 9.64
9/16/2016 9:15:00 AM 12.7 54.86 0.275 7.82 0.7 9.91
9/16/2016 9:30:00 AM 12.77 54.986 0.275 7.83 1.4 9.96
9/16/2016 9:45:00 AM 12.87 55.166 0.275 7.85 0.8 9.98
9/16/2016 10:00:00 AM 12.99 55.382 0.275 7.87 1 10.03
9/16/2016 10:15:00 AM 13.12 55.616 0.274 7.89 1 10.1
9/16/2016 10:30:00 AM 13.29 55.922 0.274 7.91 1 10.25
9/16/2016 10:45:00 AM 13.45 56.21 0.274 7.94 1 10.4
9/16/2016 11:00:00 AM 13.64 56.552 0.273 7.97 1.4 10.43
9/16/2016 11:15:00 AM 13.85 56.93 0.273 8.01 0.8 10.52
9/16/2016 11:30:00 AM 14.09 57.362 0.272 8.04 2 10.61
9/16/2016 11:45:00 AM 14.23 57.614 0.272 8.11 0.9 10.33
9/16/2016 12:00:00 PM 14.36 57.848 0.272 8.19 0.9 10.65
9/16/2016 12:15:00 PM 15.02 59.036 0.27 8.3 1 10.72
9/16/2016 12:30:00 PM 16.12 61.016 0.269 8.47 0.9 11.18
9/16/2016 12:45:00 PM 17.49 63.482 0.268 8.61 1.4 11.24
9/16/2016 1:00:00 PM 18.32 64.976 0.268 8.69 1.6 11.6
9/16/2016 1:15:00 PM 19.22 66.596 0.267 8.74 1.2 11.71
9/16/2016 1:30:00 PM 19.87 67.766 0.266 8.75 1 11.8
9/16/2016 1:45:00 PM 20.26 68.468 0.266 8.83 1.4 11.81
9/16/2016 2:00:00 PM 20.55 68.99 0.266 8.9 1 11.96
9/16/2016 2:15:00 PM 20.81 69.458 0.266 8.94 1.2 11.79
9/16/2016 2:30:00 PM 21.04 69.872 0.266 8.97 0.8 11.69
9/16/2016 2:45:00 PM 20.97 69.746 0.266 8.91 1.6 11.6
9/16/2016 3:00:00 PM 20.85 69.53 0.266 8.85 1.2 11.17
9/16/2016 3:15:00 PM 20.86 69.548 0.266 8.79 1.4 10.76
9/16/2016 3:30:00 PM 20.78 69.404 0.267 8.78 1.1 10.59
9/16/2016 3:45:00 PM 20.56 69.008 0.267 8.7 2.3 10.39
9/16/2016 4:00:00 PM 20.49 68.882 0.268 8.67 1.3 10.19
9/16/2016 4:15:00 PM 20.27 68.486 0.268 8.63 1.3 10.18
9/16/2016 4:30:00 PM 20.06 68.108 0.269 8.58 1.5 9.89
9/16/2016 4:45:00 PM 19.95 67.91 0.269 8.62 1.7 9.97
9/16/2016 5:00:00 PM 19.85 67.73 0.269 8.65 1.4 9.95
9/16/2016 5:15:00 PM 19.71 67.478 0.269 8.63 1.3 9.95
9/16/2016 5:30:00 PM 19.62 67.316 0.269 8.62 1.6 9.79
9/16/2016 5:45:00 PM 19.53 67.154 0.269 8.59 1.5 9.62
9/16/2016 6:00:00 PM 19.4 66.92 0.269 8.38 1.5 9.52
9/16/2016 6:15:00 PM 19.25 66.65 0.27 8.3 1.4 9.31
9/16/2016 6:30:00 PM 19.13 66.434 0.27 8.23 1.4 9.1
9/16/2016 6:45:00 PM 18.99 66.182 0.271 8.18 1.5 8.96
9/16/2016 7:00:00 PM 18.88 65.984 0.271 8.12 1.2 8.79
9/16/2016 7:15:00 PM 18.75 65.75 0.272 8.04 1.1 8.61
9/16/2016 7:30:00 PM 18.6 65.48 0.272 7.99 1 8.57
9/16/2016 7:45:00 PM 18.47 65.246 0.273 7.94 1.2 8.42
9/16/2016 8:00:00 PM 18.33 64.994 0.273 7.89 1.3 8.32
9/16/2016 8:15:00 PM 18.2 64.76 0.273 7.86 1.2 8.13
9/16/2016 8:30:00 PM 18.07 64.526 0.274 7.83 1.4 8.27
9/16/2016 8:45:00 PM 17.94 64.292 0.274 7.8 1.4 8.25
9/16/2016 9:00:00 PM 17.83 64.094 0.274 7.77 1.5 8.21
9/16/2016 9:15:00 PM 17.71 63.878 0.275 7.75 1.2 8.19
9/16/2016 9:30:00 PM 17.61 63.698 0.275 7.72 1.3 8.17
9/16/2016 9:45:00 PM 17.48 63.464 0.275 7.71 1.6 8.17
9/16/2016 10:00:00 PM 17.36 63.248 0.276 7.7 2.1 8.19
9/16/2016 10:15:00 PM 17.25 63.05 0.276 7.7 2.7 8.22
9/16/2016 10:30:00 PM 17.15 62.87 0.276 7.68 3.1 8.2
9/16/2016 10:45:00 PM 17.06 62.708 0.276 7.68 2.2 8.17
9/16/2016 11:00:00 PM 16.95 62.51 0.276 7.67 2.3 8.19
9/16/2016 11:15:00 PM 16.86 62.348 0.277 7.67 2 8.2
9/16/2016 11:30:00 PM 16.78 62.204 0.277 7.65 1.5 8.24
9/16/2016 11:45:00 PM 16.68 62.024 0.277 7.65 1.8 8.22
9/17/2016 12:00:00 AM 16.57 61.826 0.277 7.64 1.9 8.13
9/17/2016 12:15:00 AM 16.48 61.664 0.277 7.64 1.7 8.29
9/17/2016 12:30:00 AM 16.42 61.556 0.277 7.64 2.2 8.25
9/17/2016 12:45:00 AM 16.34 61.412 0.277 7.64 1.5 8.27
9/17/2016 1:00:00 AM 16.27 61.286 0.277 7.64 1.6 8.31
9/17/2016 1:15:00 AM 16.19 61.142 0.277 7.62 1.6 8.32
9/17/2016 1:30:00 AM 16.11 60.998 0.278 7.63 1.7 8.29
9/17/2016 1:45:00 AM 16.04 60.872 0.278 7.62 1.8 8.33
9/17/2016 2:00:00 AM 15.98 60.764 0.278 7.64 1.8 8.39
9/17/2016 2:15:00 AM 15.91 60.638 0.278 7.61 1.7 8.44
9/17/2016 2:30:00 AM 15.85 60.53 0.278 7.63 0.9 8.4
9/17/2016 2:45:00 AM 15.81 60.458 0.278 7.63 1.4 8.38
9/17/2016 3:00:00 AM 15.77 60.386 0.278 7.63 2.1 8.46
9/17/2016 3:15:00 AM 15.73 60.314 0.278 7.63 1.6 8.41
9/17/2016 3:30:00 AM 15.68 60.224 0.278 7.63 0.9 8.46
9/17/2016 3:45:00 AM 15.62 60.116 0.278 7.64 1.2 8.34
9/17/2016 4:00:00 AM 15.58 60.044 0.278 7.63 1.1 8.47
9/17/2016 4:15:00 AM 15.53 59.954 0.278 7.61 1.4 8.55
9/17/2016 4:30:00 AM 15.49 59.882 0.278 7.64 1.2 8.55
9/17/2016 4:45:00 AM 15.42 59.756 0.279 7.63 1 8.54
9/17/2016 5:00:00 AM 15.36 59.648 0.279 7.62 1.5 8.52
9/17/2016 5:15:00 AM 15.31 59.558 0.279 7.62 1.3 8.56
9/17/2016 5:30:00 AM 15.24 59.432 0.279 7.63 1.3 8.61
9/17/2016 5:45:00 AM 15.2 59.36 0.279 7.63 1.4 8.61
9/17/2016 6:00:00 AM 15.14 59.252 0.279 7.62 1.1 8.66
9/17/2016 6:15:00 AM 15.1 59.18 0.279 7.62 1.4 8.67
9/17/2016 6:30:00 AM 15.05 59.09 0.279 7.65 1.4 8.68
9/17/2016 6:45:00 AM 15.01 59.018 0.279 7.62 3 8.69
9/17/2016 7:00:00 AM 14.97 58.946 0.279 7.61 2.3 8.67
9/17/2016 7:15:00 AM 14.93 58.874 0.279 7.63 1.3 8.69
9/17/2016 7:30:00 AM 14.89 58.802 0.279 7.64 1.4 8.76
9/17/2016 7:45:00 AM 14.89 58.802 0.279 7.65 1.1 8.83
9/17/2016 8:00:00 AM 14.88 58.784 0.279 7.67 1.9 8.91
9/17/2016 8:15:00 AM 14.89 58.802 0.278 7.68 0.6 8.98
9/17/2016 8:30:00 AM 14.94 58.892 0.278 7.74 1 9.05
9/17/2016 8:45:00 AM 15.05 59.09 0.278 7.79 0.6 9.14
9/17/2016 9:00:00 AM 15.16 59.288 0.277 7.83 1 9.31
9/17/2016 9:15:00 AM 15.29 59.522 0.277 7.88 0.9 9.56
9/17/2016 9:30:00 AM 15.4 59.72 0.276 7.9 0.9 9.72
9/17/2016 9:45:00 AM 15.53 59.954 0.276 7.94 1.3 9.87
9/17/2016 10:00:00 AM 15.71 60.278 0.275 8.03 1.2 9.9
9/17/2016 10:15:00 AM 15.9 60.62 0.275 8.08 0.8 10.2
9/17/2016 10:30:00 AM 16.1 60.98 0.274 8.17 1.1 10.44
9/17/2016 10:45:00 AM 16.32 61.376 0.273 8.25 0.6 10.66
9/17/2016 11:00:00 AM 16.55 61.79 0.272 8.29 1.1 10.83
9/17/2016 11:15:00 AM 16.75 62.15 0.271 8.36 0.6 10.55
9/17/2016 11:30:00 AM 16.98 62.564 0.27 8.44 0.6 11
9/17/2016 11:45:00 AM 17.27 63.086 0.269 8.53 0.9 11.1
9/17/2016 12:00:00 PM 17.58 63.644 0.268 8.58 0.4 11.35
9/17/2016 12:15:00 PM 17.63 63.734 0.269 8.65 0.9 11.84
9/17/2016 12:30:00 PM 18.06 64.508 0.268 8.7 0.5 11.74
9/17/2016 12:45:00 PM 18.58 65.444 0.266 8.82 0.9 11.68
9/17/2016 1:00:00 PM 18.93 66.074 0.266 8.85 1.3 11.79
9/17/2016 1:15:00 PM 19.25 66.65 0.265 8.85 0.9 11.84
9/17/2016 1:30:00 PM 19.44 66.992 0.265 8.83 1 11.89
9/17/2016 1:45:00 PM 19.5 67.1 0.265 8.87 1.1 11.99
9/17/2016 2:00:00 PM 19.48 67.064 0.264 8.86 1.2 11.87
9/17/2016 2:15:00 PM 19.46 67.028 0.265 8.83 0.9 11.69
9/17/2016 2:30:00 PM 19.44 66.992 0.265 8.84 1.2 11.58
9/17/2016 2:45:00 PM 19.48 67.064 0.265 8.84 1.2 11.16
9/17/2016 3:00:00 PM 19.54 67.172 0.265 8.8 1.4 10.78
9/17/2016 3:15:00 PM 19.58 67.244 0.265 8.77 1.1 11.06
9/17/2016 3:30:00 PM 19.62 67.316 0.265 8.77 0.8 10.83
9/17/2016 3:45:00 PM 19.65 67.37 0.265 8.76 1.1 10.76
9/17/2016 4:00:00 PM 19.64 67.352 0.265 8.74 0.8 10.77
9/17/2016 4:15:00 PM 19.61 67.298 0.266 8.72 1 10.5
9/17/2016 4:30:00 PM 19.57 67.226 0.266 8.68 1.6 10.3
9/17/2016 4:45:00 PM 19.52 67.136 0.267 8.64 1.1 9.97
9/17/2016 5:00:00 PM 19.49 67.082 0.267 8.59 1 9.8
9/17/2016 5:15:00 PM 19.47 67.046 0.268 8.55 1.4 9.7
9/17/2016 5:30:00 PM 19.42 66.956 0.268 8.52 1.5 9.59
9/17/2016 5:45:00 PM 19.39 66.902 0.268 8.47 1.2 9.45
9/17/2016 6:00:00 PM 19.34 66.812 0.269 8.41 1.4 9.31
9/17/2016 6:15:00 PM 19.3 66.74 0.27 8.34 1 9.06
9/17/2016 6:30:00 PM 19.24 66.632 0.27 8.29 1.1 8.9
9/17/2016 6:45:00 PM 19.19 66.542 0.271 8.23 0.9 8.54
9/17/2016 7:00:00 PM 19.15 66.47 0.271 8.16 1 8.57
9/17/2016 7:15:00 PM 19.11 66.398 0.272 8.1 1.3 8.45
9/17/2016 7:30:00 PM 19.05 66.29 0.272 8.04 1.1 8.36
9/17/2016 7:45:00 PM 19.01 66.218 0.273 8 1.1 8.22
9/17/2016 8:00:00 PM 18.97 66.146 0.273 7.95 1.2 8.19
9/17/2016 8:15:00 PM 18.93 66.074 0.274 7.91 1.2 8.13
9/17/2016 8:30:00 PM 18.89 66.002 0.274 7.87 1.3 7.98
9/17/2016 8:45:00 PM 18.85 65.93 0.275 7.84 1.5 8.02
9/17/2016 9:00:00 PM 18.81 65.858 0.275 7.82 2.6 7.96
9/17/2016 9:15:00 PM 18.77 65.786 0.276 7.8 1.5 7.94
9/17/2016 9:30:00 PM 18.73 65.714 0.276 7.77 1.9 7.89
9/17/2016 9:45:00 PM 18.69 65.642 0.276 7.75 1.6 7.89
9/17/2016 10:00:00 PM 18.65 65.57 0.277 7.74 1.1 7.83
9/17/2016 10:15:00 PM 18.62 65.516 0.277 7.72 1.5 7.8
9/17/2016 10:30:00 PM 18.59 65.462 0.278 7.71 1.8 7.63
9/17/2016 10:45:00 PM 18.56 65.408 0.278 7.69 1.2 7.79
9/17/2016 11:00:00 PM 18.54 65.372 0.278 7.67 2.1 7.78
9/17/2016 11:15:00 PM 18.51 65.318 0.278 7.66 1.1 7.8
9/17/2016 11:30:00 PM 18.49 65.282 0.278 7.66 2.7 7.79
9/17/2016 11:45:00 PM 18.47 65.246 0.278 7.67 2.1 7.74
9/18/2016 12:00:00 AM 18.45 65.21 0.279 7.61 2.1 7.78
9/18/2016 12:15:00 AM 18.42 65.156 0.279 7.62 1.4 7.76
9/18/2016 12:30:00 AM 18.41 65.138 0.279 7.58 3.8 7.8
9/18/2016 12:45:00 AM 18.4 65.12 0.279 7.64 1.3 7.78
9/18/2016 1:00:00 AM 18.4 65.12 0.279 7.66 2.1 7.76
9/18/2016 1:15:00 AM 18.4 65.12 0.279 7.64 1.7 7.74
9/18/2016 1:30:00 AM 18.4 65.12 0.279 7.63 1.5 7.77
9/18/2016 1:45:00 AM 18.41 65.138 0.279 7.63 1.6 7.75
9/18/2016 2:00:00 AM 18.4 65.12 0.28 7.64 1.1 7.72
9/18/2016 2:15:00 AM 18.4 65.12 0.28 7.61 1.3 7.57
9/18/2016 2:30:00 AM 18.4 65.12 0.28 7.61 1.5 7.76
9/18/2016 2:45:00 AM 18.4 65.12 0.279 7.59 1.4 7.79
9/18/2016 3:00:00 AM 18.38 65.084 0.279 7.58 2.4 7.75
9/18/2016 3:15:00 AM 18.37 65.066 0.279 7.59 1.9 7.64
9/18/2016 3:30:00 AM 18.35 65.03 0.279 7.58 1.7 7.6
9/18/2016 3:45:00 AM 18.33 64.994 0.28 7.55 1.7 7.52
9/18/2016 4:00:00 AM 18.32 64.976 0.28 7.6 2 7.51
9/18/2016 4:15:00 AM 18.3 64.94 0.28 7.55 1.6 7.51
9/18/2016 4:30:00 AM 18.29 64.922 0.28 7.55 1.5 7.48
9/18/2016 4:45:00 AM 18.28 64.904 0.28 7.54 1.3 7.55
9/18/2016 5:00:00 AM 18.27 64.886 0.28 7.6 1.2 7.45
9/18/2016 5:15:00 AM 18.26 64.868 0.28 7.58 1.8 7.55
9/18/2016 5:30:00 AM 18.25 64.85 0.28 7.58 1.7 7.48
9/18/2016 5:45:00 AM 18.24 64.832 0.28 7.59 1.7 7.44
9/18/2016 6:00:00 AM 18.23 64.814 0.28 7.58 1.7 7.45
9/18/2016 6:15:00 AM 18.22 64.796 0.28 7.57 1.3 7.6
9/18/2016 6:30:00 AM 18.22 64.796 0.28 7.57 1.8 7.54
9/18/2016 6:45:00 AM 18.21 64.778 0.28 7.54 1.3 7.52
9/18/2016 7:00:00 AM 18.21 64.778 0.28 7.54 1.7 7.43
9/18/2016 7:15:00 AM 18.2 64.76 0.28 7.5 1.5 7.4
9/18/2016 7:30:00 AM 18.2 64.76 0.281 7.51 1.6 7.36
9/18/2016 7:45:00 AM 18.2 64.76 0.281 7.54 1.6 7.52
9/18/2016 8:00:00 AM 18.21 64.778 0.281 7.58 1.2 7.51
9/18/2016 8:15:00 AM 18.24 64.832 0.281 7.62 1.1 7.45
9/18/2016 8:30:00 AM 18.26 64.868 0.281 7.65 1.6 7.63
9/18/2016 8:45:00 AM 18.32 64.976 0.28 7.71 1.2 7.84
9/18/2016 9:00:00 AM 18.39 65.102 0.28 7.74 1 8.07
9/18/2016 9:15:00 AM 18.47 65.246 0.279 7.75 1.3 8.32
9/18/2016 9:30:00 AM 18.53 65.354 0.279 7.78 1.1 8.85
9/18/2016 9:45:00 AM 18.64 65.552 0.278 7.8 1.1 8.24
9/18/2016 10:00:00 AM 18.77 65.786 0.278 7.83 1.4 8.89
9/18/2016 10:15:00 AM 18.91 66.038 0.277 7.87 1.1 8.88
9/18/2016 10:30:00 AM 19.06 66.308 0.276 7.93 0.9 8.81
9/18/2016 10:45:00 AM 19.19 66.542 0.275 8.01 1 9.35
9/18/2016 11:00:00 AM 19.33 66.794 0.275 8.06 1.2 9.42
9/18/2016 11:15:00 AM 19.42 66.956 0.274 8.13 1.2 9.73
9/18/2016 11:30:00 AM 19.57 67.226 0.273 8.21 1 9.92
9/18/2016 11:45:00 AM 19.73 67.514 0.272 8.26 1.2 10.09
9/18/2016 12:00:00 PM 19.74 67.532 0.272 8.32 0.7 10.43
9/18/2016 12:15:00 PM 20.03 68.054 0.271 8.39 1.2 10.58
9/18/2016 12:30:00 PM 20.26 68.468 0.27 8.46 1.4 10.63
9/18/2016 12:45:00 PM 20.38 68.684 0.269 8.52 1.1 10.72
9/18/2016 1:00:00 PM 20.45 68.81 0.269 8.52 1.3 10.85
9/18/2016 1:15:00 PM 20.58 69.044 0.268 8.54 1.2 11.1
9/18/2016 1:30:00 PM 20.67 69.206 0.268 8.6 1.2 10.6
9/18/2016 1:45:00 PM 20.8 69.44 0.267 8.65 1.1 11.08
9/18/2016 2:00:00 PM 20.9 69.62 0.267 8.64 1.8 11.1
9/18/2016 2:15:00 PM 20.98 69.764 0.267 8.66 1.4 11.14
9/18/2016 2:30:00 PM 21.04 69.872 0.267 8.63 1.4 11.09
9/18/2016 2:45:00 PM 21.06 69.908 0.267 8.62 0.9 10.98
9/18/2016 3:00:00 PM 21.09 69.962 0.267 8.61 1.1 10.86
9/18/2016 3:15:00 PM 21.16 70.088 0.267 8.66 1.6 10.75
9/18/2016 3:30:00 PM 21.2 70.16 0.267 8.64 1 10.64
9/18/2016 3:45:00 PM 21.26 70.268 0.267 8.63 1.1 10.48
9/18/2016 4:00:00 PM 21.33 70.394 0.267 8.65 0.8 10.32
9/18/2016 4:15:00 PM 21.4 70.52 0.267 8.64 0.9 10.22
9/18/2016 4:30:00 PM 21.41 70.538 0.267 8.62 1.4 10.22
9/18/2016 4:45:00 PM 21.45 70.61 0.267 8.63 1.1 10.23
9/18/2016 5:00:00 PM 21.43 70.574 0.267 8.62 1.4 10.13
9/18/2016 5:15:00 PM 21.37 70.466 0.268 8.57 1.7 9.72
9/18/2016 5:30:00 PM 21.32 70.376 0.268 8.49 1.6 9.48
9/18/2016 5:45:00 PM 21.26 70.268 0.269 8.45 1.2 9.47
9/18/2016 6:00:00 PM 21.2 70.16 0.27 8.39 1.1 8.82
9/18/2016 6:15:00 PM 21.13 70.034 0.27 8.31 1.1 8.67
9/18/2016 6:30:00 PM 21.06 69.908 0.27 8.23 1.5 8.38
9/18/2016 6:45:00 PM 20.99 69.782 0.269 8.15 1.6 8.14
9/18/2016 7:00:00 PM 20.91 69.638 0.266 8.06 2.7 8.01
9/18/2016 7:15:00 PM 20.85 69.53 0.259 7.99 8.5 7.83
9/18/2016 7:30:00 PM 20.72 69.296 0.249 7.8 193.3 7.86
9/18/2016 7:45:00 PM 20.63 69.134 0.246 7.74 159.5 7.69
9/18/2016 8:00:00 PM 20.56 69.008 0.247 7.69 141.4 7.53
9/18/2016 8:15:00 PM 20.49 68.882 0.249 7.66 95.2 7.58
9/18/2016 8:30:00 PM 20.36 68.648 0.245 7.63 122.8 7.6
9/18/2016 8:45:00 PM 20.24 68.432 0.237 7.56 216.2 7.56
9/18/2016 9:00:00 PM 20.17 68.306 0.238 7.54 161.5 7.33
9/18/2016 9:15:00 PM 20.12 68.216 0.243 7.54 69.6 7.41
9/18/2016 9:30:00 PM 20.07 68.126 0.245 7.55 41.8 7.44
9/18/2016 9:45:00 PM 20.02 68.036 0.245 7.55 21.2 7.28
9/18/2016 10:00:00 PM 19.96 67.92799 0.243 7.57 14.7 7.25
9/18/2016 10:15:00 PM 19.86 67.748 0.228 7.54 188.6 7.86
9/18/2016 10:30:00 PM 19.77 67.586 0.216 7.45 441.1 7.96
9/18/2016 10:45:00 PM 19.77 67.586 0.219 7.49 225.9 8.01
9/18/2016 11:00:00 PM 19.79 67.622 0.219 7.52 148.5 8.05
9/18/2016 11:15:00 PM 19.82 67.676 0.221 7.54 63.9 8.04
9/18/2016 11:30:00 PM 19.86 67.748 0.226 7.57 43.1 8.08
9/18/2016 11:45:00 PM 19.9 67.82 0.229 7.59 35.2 8.12
9/19/2016 12:00:00 AM 19.94 67.892 0.234 7.61 25.9 8.16
9/19/2016 12:15:00 AM 19.95 67.91 0.241 7.61 18.1 8.17
9/19/2016 12:30:00 AM 19.96 67.92799 0.246 7.61 13.1 8.2
9/19/2016 12:45:00 AM 19.95 67.91 0.249 7.62 11.5 8.07
9/19/2016 1:00:00 AM 19.94 67.892 0.25 7.61 10.8 8.2
9/19/2016 1:15:00 AM 19.9 67.82 0.25 7.6 11.1 8.19
9/19/2016 1:30:00 AM 19.85 67.73 0.249 7.59 12.9 8.19
9/19/2016 1:45:00 AM 19.79 67.622 0.248 7.58 16.2 8.18
9/19/2016 2:00:00 AM 19.73 67.514 0.246 7.57 20.1 8.19
9/19/2016 2:15:00 AM 19.68 67.424 0.243 7.56 22.1 8.19
9/19/2016 2:30:00 AM 19.62 67.316 0.241 7.55 22.1 8.2
9/19/2016 2:45:00 AM 19.57 67.226 0.239 7.54 23.4 8.21
9/19/2016 3:00:00 AM 19.51 67.118 0.238 7.54 25.7 8.22
9/19/2016 3:15:00 AM 19.46 67.028 0.237 7.54 22.9 8.25
9/19/2016 3:30:00 AM 19.42 66.956 0.237 7.54 17.7 8.25
9/19/2016 3:45:00 AM 19.39 66.902 0.237 7.54 15.2 8.27
9/19/2016 4:00:00 AM 19.36 66.848 0.237 7.54 14.3 8.28
9/19/2016 4:15:00 AM 19.33 66.794 0.238 7.55 11.9 8.3
9/19/2016 4:30:00 AM 19.3 66.74 0.239 7.56 11.1 8.24
9/19/2016 4:45:00 AM 19.28 66.704 0.24 7.56 9.6 8.32
9/19/2016 5:00:00 AM 19.26 66.668 0.241 7.57 9.7 8.32
9/19/2016 5:15:00 AM 19.24 66.632 0.242 7.57 9 8.32
9/19/2016 5:30:00 AM 19.23 66.614 0.243 7.58 12.5 8.32
9/19/2016 5:45:00 AM 19.22 66.596 0.244 7.58 11.2 8.32
9/19/2016 6:00:00 AM 19.21 66.578 0.244 7.58 8.5 8.33
9/19/2016 6:15:00 AM 19.2 66.56 0.244 7.59 9.4 8.33
9/19/2016 6:30:00 AM 19.19 66.542 0.245 7.59 10 8.32
9/19/2016 6:45:00 AM 19.18 66.524 0.244 7.59 10.8 8.31
9/19/2016 7:00:00 AM 19.17 66.506 0.244 7.6 11 8.32
9/19/2016 7:15:00 AM 19.16 66.488 0.244 7.59 9.1 8.32
9/19/2016 7:30:00 AM 19.15 66.47 0.244 7.6 10 8.31
9/19/2016 7:45:00 AM 19.14 66.452 0.243 7.6 9.7 8.33
9/19/2016 8:00:00 AM 19.14 66.452 0.243 7.61 9.4 8.35
9/19/2016 8:15:00 AM 19.15 66.47 0.242 7.63 11.9 8.34
9/19/2016 8:30:00 AM 19.18 66.524 0.242 7.64 11.5 8.55
9/19/2016 8:45:00 AM 19.23 66.614 0.241 7.67 12.3 8.68
9/19/2016 9:00:00 AM 19.28 66.704 0.241 7.7 11.5 8.8
9/19/2016 9:15:00 AM 19.33 66.794 0.241 7.72 12.5 8.9
9/19/2016 9:30:00 AM 19.4 66.92 0.24 7.75 12.6 9.01
9/19/2016 9:45:00 AM 19.47 67.046 0.24 7.77 13.2 9.11
9/19/2016 10:00:00 AM 19.58 67.244 0.24 7.81 11.8 9.21
9/19/2016 10:15:00 AM 19.73 67.514 0.239 7.85 11.7 9.35
9/19/2016 10:30:00 AM 19.86 67.748 0.239 7.89 11.5 9.41
9/19/2016 10:45:00 AM 20 68 0.239 7.91 12.6 9.41
9/19/2016 11:00:00 AM 20.17 68.306 0.239 7.93 1051.6 9.43
9/19/2016 11:15:00 AM 20.35 68.63 0.239 7.95 12.1 9.46
9/19/2016 11:30:00 AM 20.47 68.846 0.239 7.97 11.9 9.46
9/19/2016 11:45:00 AM 20.63 69.134 0.239 7.99 13.3 9.46
9/19/2016 12:00:00 PM 20.75 69.35 0.239 7.99 18.3 9.34
9/19/2016 12:15:00 PM 20.79 69.422 0.238 7.98 22.9 9.33
9/19/2016 12:30:00 PM 20.79 69.422 0.237 7.99 22.5 9.34
9/19/2016 12:45:00 PM 20.81 69.458 0.237 8.02 20.4 9.4
9/19/2016 1:00:00 PM 20.83 69.494 0.237 8.04 20.5 9.38
9/19/2016 1:15:00 PM 20.85 69.53 0.237 8.04 17.6 9.36
9/19/2016 1:30:00 PM 20.91 69.638 0.238 8.06 18.9 9.37
9/19/2016 1:45:00 PM 20.97 69.746 0.238 8.09 16.5 9.4
9/19/2016 2:00:00 PM 20.99 69.782 0.238 8.09 16 9.34
9/19/2016 2:15:00 PM 21.03 69.854 0.238 8.1 13.4 9.33
9/19/2016 2:30:00 PM 21.1 69.98 0.239 8.12 12.9 9.35
9/19/2016 2:45:00 PM 21.12 70.016 0.239 8.12 12.5 9.33
9/19/2016 3:00:00 PM 21.14 70.052 0.239 8.11 12.3 9.27
9/19/2016 3:15:00 PM 21.2 70.16 0.24 8.13 13.8 9.27
9/19/2016 3:30:00 PM 21.22 70.196 0.24 8.13 13.9 9.25
9/19/2016 3:45:00 PM 21.24 70.232 0.241 8.13 14 9.16
9/19/2016 4:00:00 PM 21.25 70.25 0.241 8.12 15 9.16
9/19/2016 4:15:00 PM 21.25 70.25 0.241 8.1 15 9.1
9/19/2016 4:30:00 PM 21.24 70.232 0.241 8.09 16.2 9.06
9/19/2016 4:45:00 PM 21.22 70.196 0.241 8.07 18.1 9
9/19/2016 5:00:00 PM 21.19 70.142 0.241 8.05 18.6 8.95
9/19/2016 5:15:00 PM 21.16 70.088 0.24 8.04 18.4 8.92
9/19/2016 5:30:00 PM 21.13 70.034 0.24 8.02 17.2 8.86
9/19/2016 5:45:00 PM 21.09 69.962 0.239 7.99 15.5 8.79
9/19/2016 6:00:00 PM 21.04 69.872 0.239 7.97 16.5 8.71
9/19/2016 6:15:00 PM 21 69.8 0.239 7.94 17.3 8.66
9/19/2016 6:30:00 PM 20.95 69.71 0.239 7.91 15.1 8.59
9/19/2016 6:45:00 PM 20.9 69.62 0.239 7.89 14.1 8.54
9/19/2016 7:00:00 PM 20.84 69.512 0.24 7.87 15.3 8.48
9/19/2016 7:15:00 PM 20.78 69.404 0.24 7.85 12 8.43
9/19/2016 7:30:00 PM 20.72 69.296 0.241 7.83 13 8.35
9/19/2016 7:45:00 PM 20.66 69.188 0.242 7.81 11.6 8.35
9/19/2016 8:00:00 PM 20.59 69.062 0.244 7.79 11.9 8.33
9/19/2016 8:15:00 PM 20.53 68.954 0.245 7.78 11.9 8.32
9/19/2016 8:30:00 PM 20.47 68.846 0.246 7.77 10.2 8.31
9/19/2016 8:45:00 PM 20.42 68.756 0.247 7.76 10.1 8.3
9/19/2016 9:00:00 PM 20.36 68.648 0.248 7.74 10.3 8.29
9/19/2016 9:15:00 PM 20.31 68.558 0.249 7.74 8.7 8.29
9/19/2016 9:30:00 PM 20.26 68.468 0.25 7.73 8.6 8.29
9/19/2016 9:45:00 PM 20.21 68.378 0.251 7.73 8.7 8.29
9/19/2016 10:00:00 PM 20.17 68.306 0.251 7.72 8.5 8.29
9/19/2016 10:15:00 PM 20.14 68.252 0.252 7.72 7.7 8.3
9/19/2016 10:30:00 PM 20.1 68.18 0.252 7.72 8.1 8.3
9/19/2016 10:45:00 PM 20.07 68.126 0.252 7.71 7 8.3
9/19/2016 11:00:00 PM 20.05 68.09 0.253 7.71 7.1 8.3
9/19/2016 11:15:00 PM 20.01 68.018 0.253 7.71 7.3 8.23
9/19/2016 11:30:00 PM 19.97 67.946 0.252 7.71 7.2 8.31
9/19/2016 11:45:00 PM 19.93 67.874 0.252 7.71 7.7 8.32
9/20/2016 12:00:00 AM 19.89 67.802 0.252 7.7 6.8 8.32
9/20/2016 12:15:00 AM 19.84 67.712 0.252 7.7 6.5 8.33
9/20/2016 12:30:00 AM 19.8 67.64 0.252 7.69 6.9 8.34
9/20/2016 12:45:00 AM 19.77 67.586 0.251 7.69 7.6 8.34
9/20/2016 1:00:00 AM 19.73 67.514 0.251 7.69 7.7 8.35
9/20/2016 1:15:00 AM 19.7 67.46 0.251 7.7 6.8 8.36
9/20/2016 1:30:00 AM 19.66 67.388 0.251 7.7 6.3 8.36
9/20/2016 1:45:00 AM 19.62 67.316 0.25 7.69 6.2 8.37
9/20/2016 2:00:00 AM 19.57 67.226 0.25 7.69 5.9 8.38
9/20/2016 2:15:00 AM 19.52 67.136 0.25 7.69 6.7 8.38
9/20/2016 2:30:00 AM 19.48 67.064 0.25 7.68 6.1 8.38
9/20/2016 2:45:00 AM 19.43 66.974 0.25 7.68 6.2 8.4
9/20/2016 3:00:00 AM 19.38 66.884 0.249 7.69 6.2 8.31
9/20/2016 3:15:00 AM 19.34 66.812 0.249 7.69 5.9 8.41
9/20/2016 3:30:00 AM 19.3 66.74 0.249 7.68 5.8 8.42
9/20/2016 3:45:00 AM 19.25 66.65 0.249 7.68 6.6 8.42
9/20/2016 4:00:00 AM 19.22 66.596 0.249 7.68 5.9 8.43
9/20/2016 4:15:00 AM 19.18 66.524 0.249 7.68 6.3 8.44
9/20/2016 4:30:00 AM 19.13 66.434 0.249 7.68 6 8.45
9/20/2016 4:45:00 AM 19.09 66.362 0.249 7.68 5.3 8.46
9/20/2016 5:00:00 AM 19.05 66.29 0.249 7.68 6.5 8.46
9/20/2016 5:15:00 AM 19 66.2 0.249 7.68 5.4 8.47
9/20/2016 5:30:00 AM 18.96 66.128 0.249 7.68 5.9 8.48
9/20/2016 5:45:00 AM 18.92 66.056 0.249 7.68 5.5 8.49
9/20/2016 6:00:00 AM 18.87 65.966 0.249 7.68 5.6 8.5
9/20/2016 6:15:00 AM 18.83 65.894 0.249 7.68 6.1 8.51
9/20/2016 6:30:00 AM 18.78 65.804 0.25 7.68 5.1 8.51
9/20/2016 6:45:00 AM 18.74 65.732 0.25 7.68 5.5 8.43
9/20/2016 7:00:00 AM 18.69 65.642 0.25 7.68 6.3 8.53
9/20/2016 7:15:00 AM 18.65 65.57 0.25 7.68 5.1 8.53
9/20/2016 7:30:00 AM 18.61 65.498 0.25 7.68 5 8.56
9/20/2016 7:45:00 AM 18.58 65.444 0.25 7.68 4.3 8.61
9/20/2016 8:00:00 AM 18.56 65.408 0.25 7.7 5.1 8.66
9/20/2016 8:15:00 AM 18.53 65.354 0.25 7.71 4.6 8.74
9/20/2016 8:30:00 AM 18.52 65.336 0.249 7.73 3.8 8.83
9/20/2016 8:45:00 AM 18.53 65.354 0.249 7.75 4.6 8.94
9/20/2016 9:00:00 AM 18.54 65.372 0.249 7.77 3.6 9.06
9/20/2016 9:15:00 AM 18.56 65.408 0.249 7.8 3.8 9.16
9/20/2016 9:30:00 AM 18.61 65.498 0.249 7.83 3.8 9.3
9/20/2016 9:45:00 AM 18.68 65.624 0.249 7.87 3.8 9.42
9/20/2016 10:00:00 AM 18.75 65.75 0.249 7.9 4.5 9.5
9/20/2016 10:15:00 AM 18.83 65.894 0.249 7.94 3.7 9.6
9/20/2016 10:30:00 AM 18.94 66.092 0.249 7.97 3.6 9.52
9/20/2016 10:45:00 AM 18.99 66.182 0.249 7.97 3.6 9.58
9/20/2016 11:00:00 AM 19.16 66.488 0.25 7.98 3.6 9.53
9/20/2016 11:15:00 AM 19.52 67.136 0.249 8.01 3.5 9.62
9/20/2016 11:30:00 AM 20.06 68.108 0.249 8.05 3.4 9.67
9/20/2016 11:45:00 AM 20.54 68.972 0.249 8.1 3.1 9.76
9/20/2016 12:00:00 PM 21.13 70.034 0.248 8.13 3.8 9.77
9/20/2016 12:15:00 PM 21.62 70.916 0.249 8.17 2.7 9.81
9/20/2016 12:30:00 PM 22 71.6 0.249 8.22 2.9 9.81
9/20/2016 12:45:00 PM 22.27 72.086 0.249 8.26 3.6 9.78
9/20/2016 1:00:00 PM 22.42 72.356 0.249 8.28 3.4 9.73
9/20/2016 1:15:00 PM 22.48 72.464 0.249 8.31 4 9.67
9/20/2016 1:30:00 PM 22.46 72.42799 0.249 8.32 3.6 9.59
9/20/2016 1:45:00 PM 22.38 72.284 0.249 8.34 3.5 9.49
9/20/2016 2:00:00 PM 22.35 72.23 0.249 8.38 3.4 9.4
9/20/2016 2:15:00 PM 22.32 72.176 0.249 8.41 3.8 9.21
9/20/2016 2:30:00 PM 22.29 72.122 0.249 8.43 3.5 9.23
9/20/2016 2:45:00 PM 22.32 72.176 0.25 8.43 3.2 9.14
9/20/2016 3:00:00 PM 22.35 72.23 0.25 8.36 3 9.05
9/20/2016 3:15:00 PM 22.41 72.338 0.25 8.31 3.1 8.97
9/20/2016 3:30:00 PM 22.46 72.42799 0.25 8.25 3.3 8.87
9/20/2016 3:45:00 PM 22.5 72.5 0.25 8.19 3.1 8.79
9/20/2016 4:00:00 PM 22.58 72.644 0.25 8.17 3.4 8.74
9/20/2016 4:15:00 PM 22.63 72.734 0.25 8.14 3.1 8.68
9/20/2016 4:30:00 PM 22.66 72.788 0.25 8.16 2.8 8.66
9/20/2016 4:45:00 PM 22.67 72.806 0.25 8.18 3.3 8.62
9/20/2016 5:00:00 PM 22.59 72.662 0.251 8.17 3 8.56
9/20/2016 5:15:00 PM 22.52 72.536 0.251 8.12 3.5 8.5
9/20/2016 5:30:00 PM 22.39 72.302 0.251 8.04 2.9 8.43
9/20/2016 5:45:00 PM 22.29 72.122 0.252 8 3.4 8.37
9/20/2016 6:00:00 PM 22.14 71.852 0.252 7.96 3.5 8.17
9/20/2016 6:15:00 PM 22 71.6 0.252 7.92 4.8 8.23
9/20/2016 6:30:00 PM 21.87 71.366 0.253 7.89 3.2 8.19
9/20/2016 6:45:00 PM 21.72 71.096 0.253 7.86 3.2 8.17
9/20/2016 7:00:00 PM 21.58 70.844 0.253 7.83 3.1 8.15
9/20/2016 7:15:00 PM 21.44 70.592 0.253 7.81 3 8.11
9/20/2016 7:30:00 PM 21.29 70.32201 0.253 7.79 3.5 8.11
9/20/2016 7:45:00 PM 21.14 70.052 0.253 7.77 3.8 8.09
9/20/2016 8:00:00 PM 20.99 69.782 0.253 7.75 3.5 8.09
9/20/2016 8:15:00 PM 20.86 69.548 0.253 7.73 5.2 8.09
9/20/2016 8:30:00 PM 20.73 69.314 0.254 7.72 4.2 8.09
9/20/2016 8:45:00 PM 20.6 69.08 0.254 7.71 4.9 8.11
9/20/2016 9:00:00 PM 20.48 68.864 0.254 7.7 4.1 8.1
9/20/2016 9:15:00 PM 20.36 68.648 0.254 7.69 3.8 8.12
9/20/2016 9:30:00 PM 20.24 68.432 0.254 7.68 3.6 8.15
9/20/2016 9:45:00 PM 20.13 68.234 0.254 7.68 4.1 8.02
9/20/2016 10:00:00 PM 20.03 68.054 0.254 7.67 4.4 8.17
9/20/2016 10:15:00 PM 19.94 67.892 0.254 7.67 3.7 8.18
9/20/2016 10:30:00 PM 19.84 67.712 0.255 7.67 4.6 8.21
9/20/2016 10:45:00 PM 19.75 67.55 0.255 7.67 4.2 8.22
9/20/2016 11:00:00 PM 19.66 67.388 0.255 7.66 3.8 8.24
9/20/2016 11:15:00 PM 19.57 67.226 0.255 7.66 3.4 8.25
9/20/2016 11:30:00 PM 19.49 67.082 0.255 7.66 4.2 8.27
9/20/2016 11:45:00 PM 19.41 66.938 0.255 7.65 5.1 8.28
9/21/2016 12:00:00 AM 19.33 66.794 0.255 7.66 3.6 8.31
9/21/2016 12:15:00 AM 19.25 66.65 0.255 7.65 3.3 8.31
9/21/2016 12:30:00 AM 19.17 66.506 0.255 7.65 3.5 8.33
9/21/2016 12:45:00 AM 19.1 66.38 0.255 7.65 3.3 8.34
9/21/2016 1:00:00 AM 19.02 66.236 0.256 7.65 3.7 8.36
9/21/2016 1:15:00 AM 18.95 66.11 0.256 7.64 3.9 8.35
9/21/2016 1:30:00 AM 18.87 65.966 0.256 7.65 3.7 8.18
9/21/2016 1:45:00 AM 18.8 65.84 0.256 7.65 3.9 8.39
9/21/2016 2:00:00 AM 18.73 65.714 0.256 7.65 3.8 8.41
9/21/2016 2:15:00 AM 18.66 65.588 0.256 7.65 3.1 8.43
9/21/2016 2:30:00 AM 18.59 65.462 0.256 7.64 3.5 8.44
9/21/2016 2:45:00 AM 18.53 65.354 0.256 7.64 3.6 8.45
9/21/2016 3:00:00 AM 18.45 65.21 0.256 7.64 4 8.46
9/21/2016 3:15:00 AM 18.38 65.084 0.256 7.64 4.6 8.46
9/21/2016 3:30:00 AM 18.3 64.94 0.256 7.64 4.3 8.49
9/21/2016 3:45:00 AM 18.23 64.814 0.256 7.64 3.9 8.51
9/21/2016 4:00:00 AM 18.15 64.67 0.256 7.64 3 8.51
9/21/2016 4:15:00 AM 18.07 64.526 0.256 7.64 3.6 8.53
9/21/2016 4:30:00 AM 18 64.4 0.256 7.63 3.1 8.55
9/21/2016 4:45:00 AM 17.92 64.256 0.256 7.63 3.8 8.58
9/21/2016 5:00:00 AM 17.84 64.112 0.256 7.63 3.1 8.59
9/21/2016 5:15:00 AM 17.76 63.968 0.256 7.63 3.9 8.44
9/21/2016 5:30:00 AM 17.69 63.842 0.256 7.62 3.9 8.62
9/21/2016 5:45:00 AM 17.6 63.68 0.256 7.63 3.2 8.65
9/21/2016 6:00:00 AM 17.54 63.572 0.257 7.63 2.8 8.65
9/21/2016 6:15:00 AM 17.49 63.482 0.257 7.63 3.8 8.67
9/21/2016 6:30:00 AM 17.43 63.374 0.257 7.63 3.5 8.68
9/21/2016 6:45:00 AM 17.37 63.266 0.257 7.64 3.4 8.69
9/21/2016 7:00:00 AM 17.31 63.158 0.257 7.63 4.5 8.72
9/21/2016 7:15:00 AM 17.25 63.05 0.257 7.64 3.6 8.74
9/21/2016 7:30:00 AM 17.2 62.96 0.257 7.64 2.6 8.8
9/21/2016 7:45:00 AM 17.16 62.888 0.257 7.66 3.5 8.84
9/21/2016 8:00:00 AM 17.14 62.852 0.257 7.67 2.4 8.91
9/21/2016 8:15:00 AM 17.12 62.816 0.257 7.68 2.6 9.02
9/21/2016 8:30:00 AM 17.11 62.798 0.257 7.7 2.4 9.13
9/21/2016 8:45:00 AM 17.11 62.798 0.257 7.73 2.6 9.22
9/21/2016 9:00:00 AM 17.13 62.834 0.256 7.76 2.4 9.09
9/21/2016 9:15:00 AM 17.14 62.852 0.256 7.77 2.4 9.44
9/21/2016 9:30:00 AM 17.16 62.888 0.256 7.79 2.5 9.44
9/21/2016 9:45:00 AM 17.21 62.978 0.256 7.8 2.9 9.44
9/21/2016 10:00:00 AM 17.27 63.086 0.256 7.82 2.6 9.46
9/21/2016 10:15:00 AM 17.36 63.248 0.256 7.84 1.7 9.48
9/21/2016 10:30:00 AM 17.51 63.518 0.256 7.86 2.4 9.52
9/21/2016 10:45:00 AM 17.73 63.914 0.256 7.88 2.2 9.56
9/21/2016 11:00:00 AM 17.97 64.346 0.256 7.91 2.6 9.61
9/21/2016 11:15:00 AM 18.37 65.066 0.255 7.96 1.9 9.72
9/21/2016 11:30:00 AM 18.94 66.092 0.255 8.01 1.6 9.83
9/21/2016 11:45:00 AM 19.51 67.118 0.254 8.07 2.6 9.94
9/21/2016 12:00:00 PM 20.16 68.288 0.254 8.12 2.5 10.03
9/21/2016 12:15:00 PM 20.79 69.422 0.254 8.18 2.1 10.14
9/21/2016 12:30:00 PM 21.39 70.502 0.254 8.24 3.1 10.16
9/21/2016 12:45:00 PM 21.88 71.384 0.254 8.3 2.4 9.87
9/21/2016 1:00:00 PM 22.19 71.942 0.254 8.33 2.3 10.16
9/21/2016 1:15:00 PM 22.3 72.14 0.255 8.35 2.4 10.12
9/21/2016 1:30:00 PM 22.32 72.176 0.255 8.37 2.7 10.05
9/21/2016 1:45:00 PM 22.22 71.996 0.255 8.4 2.3 9.98
9/21/2016 2:00:00 PM 22.16 71.888 0.255 8.44 2.7 9.87
9/21/2016 2:15:00 PM 21.88 71.384 0.256 8.48 1.8 9.82
9/21/2016 2:30:00 PM 21.74 71.132 0.256 8.5 2.4 9.71
9/21/2016 2:45:00 PM 21.58 70.844 0.256 8.48 2 9.63
9/21/2016 3:00:00 PM 21.49 70.682 0.256 8.42 2.1 9.53
9/21/2016 3:15:00 PM 21.49 70.682 0.256 8.36 1.8 9.41
9/21/2016 3:30:00 PM 21.5 70.7 0.256 8.31 2.3 9.3
9/21/2016 3:45:00 PM 21.4 70.52 0.256 8.25 2.1 9.19
9/21/2016 4:00:00 PM 21.42 70.556 0.256 8.22 2 9.14
9/21/2016 4:15:00 PM 21.42 70.556 0.256 8.19 2.8 9.01
9/21/2016 4:30:00 PM 21.47 70.646 0.256 8.2 2.2 8.87
9/21/2016 4:45:00 PM 21.49 70.682 0.256 8.22 2.5 8.98
9/21/2016 5:00:00 PM 21.45 70.61 0.256 8.21 2.3 8.95
9/21/2016 5:15:00 PM 21.38 70.484 0.257 8.17 2.3 8.86
9/21/2016 5:30:00 PM 21.28 70.304 0.257 8.11 2.3 8.75
9/21/2016 5:45:00 PM 21.18 70.124 0.257 8.07 2.7 8.66
9/21/2016 6:00:00 PM 21.08 69.944 0.257 8.03 2.5 8.6
9/21/2016 6:15:00 PM 20.97 69.746 0.257 8.01 1.5 8.56
9/21/2016 6:30:00 PM 20.85 69.53 0.258 7.98 2.3 8.5
9/21/2016 6:45:00 PM 20.72 69.296 0.258 7.95 1.9 8.47
9/21/2016 7:00:00 PM 20.59 69.062 0.258 7.91 1.7 8.39
9/21/2016 7:15:00 PM 20.45 68.81 0.258 7.88 2.6 8.33
9/21/2016 7:30:00 PM 20.3 68.54 0.259 7.85 2.6 8.29
9/21/2016 7:45:00 PM 20.15 68.27 0.259 7.83 2.1 8.27
9/21/2016 8:00:00 PM 20 68 0.259 7.8 2.2 8.22
9/21/2016 8:15:00 PM 19.85 67.73 0.259 7.78 2.9 8.02
9/21/2016 8:30:00 PM 19.72 67.496 0.259 7.76 3.6 8.22
9/21/2016 8:45:00 PM 19.6 67.28 0.259 7.75 3 8.2
9/21/2016 9:00:00 PM 19.48 67.064 0.259 7.74 2.7 8.21
9/21/2016 9:15:00 PM 19.36 66.848 0.259 7.73 3.3 8.23
9/21/2016 9:30:00 PM 19.26 66.668 0.26 7.72 2.5 8.21
9/21/2016 9:45:00 PM 19.14 66.452 0.26 7.71 2.6 8.29
9/21/2016 10:00:00 PM 19.04 66.272 0.26 7.7 2.8 8.26
9/21/2016 10:15:00 PM 18.94 66.092 0.26 7.7 2.7 8.29
9/21/2016 10:30:00 PM 18.83 65.894 0.26 7.69 3.4 8.34
9/21/2016 10:45:00 PM 18.73 65.714 0.26 7.69 2.3 8.31
9/21/2016 11:00:00 PM 18.64 65.552 0.26 7.69 75.7 8.32
9/21/2016 11:15:00 PM 18.55 65.39 0.26 7.68 2.2 8.33
9/21/2016 11:30:00 PM 18.45 65.21 0.26 7.68 2.3 8.38
9/21/2016 11:45:00 PM 18.35 65.03 0.261 7.67 2.3 8.38
9/22/2016 12:00:00 AM 18.25 64.85 0.261 7.68 2.7 8.24
9/22/2016 12:15:00 AM 18.16 64.688 0.261 7.67 2.7 8.42
9/22/2016 12:30:00 AM 18.07 64.526 0.261 7.67 2.6 8.44
9/22/2016 12:45:00 AM 17.97 64.346 0.261 7.67 2.2 8.46
9/22/2016 1:00:00 AM 17.87 64.166 0.261 7.67 2.4 8.45
9/22/2016 1:15:00 AM 17.78 64.004 0.261 7.66 2.3 8.45
9/22/2016 1:30:00 AM 17.68 63.824 0.261 7.66 2.7 8.48
9/22/2016 1:45:00 AM 17.59 63.662 0.261 7.66 3.5 8.55
9/22/2016 2:00:00 AM 17.49 63.482 0.262 7.66 2.6 8.56
9/22/2016 2:15:00 AM 17.4 63.32 0.262 7.66 3.2 8.57
9/22/2016 2:30:00 AM 17.3 63.14 0.262 7.65 2.7 8.47
9/22/2016 2:45:00 AM 17.21 62.978 0.262 7.65 2.8 8.63
9/22/2016 3:00:00 AM 17.12 62.816 0.262 7.65 2.6 8.62
9/22/2016 3:15:00 AM 17.02 62.636 0.262 7.65 3.1 8.65
9/22/2016 3:30:00 AM 16.94 62.492 0.262 7.65 2.7 8.66
9/22/2016 3:45:00 AM 16.85 62.33 0.262 7.66 2.4 8.51
9/22/2016 4:00:00 AM 16.78 62.204 0.262 7.65 2.8 8.69
9/22/2016 4:15:00 AM 16.71 62.078 0.263 7.66 2.6 8.68
9/22/2016 4:30:00 AM 16.62 61.916 0.263 7.65 2.3 8.75
9/22/2016 4:45:00 AM 16.51 61.718 0.263 7.65 2.7 8.77
9/22/2016 5:00:00 AM 16.43 61.574 0.263 7.65 2.5 8.82
9/22/2016 5:15:00 AM 16.35 61.43 0.264 7.65 2.6 8.78
9/22/2016 5:30:00 AM 16.28 61.304 0.263 7.66 2.3 8.78
9/22/2016 5:45:00 AM 16.22 61.196 0.263 7.65 2.1 8.8
9/22/2016 6:00:00 AM 16.16 61.088 0.263 7.66 1.9 8.81
9/22/2016 6:15:00 AM 16.11 60.998 0.263 7.66 2.6 8.91
9/22/2016 6:30:00 AM 16.06 60.908 0.263 7.66 4.5 8.91
9/22/2016 6:45:00 AM 16.02 60.836 0.263 7.66 2.2 8.92
9/22/2016 7:00:00 AM 15.98 60.764 0.263 7.66 3 8.83
9/22/2016 7:15:00 AM 15.93 60.674 0.263 7.67 1.9 8.87
9/22/2016 7:30:00 AM 15.88 60.584 0.263 7.68 2.3 8.76
9/22/2016 7:45:00 AM 15.84 60.512 0.263 7.68 2.5 9.05
9/22/2016 8:00:00 AM 15.81 60.458 0.263 7.69 1.7 9.07
9/22/2016 8:15:00 AM 15.78 60.404 0.263 7.7 2.1 9.16
9/22/2016 8:30:00 AM 15.77 60.386 0.263 7.72 1.7 9.25
9/22/2016 8:45:00 AM 15.75 60.35 0.263 7.73 2.2 9.3
9/22/2016 9:00:00 AM 15.74 60.332 0.263 7.75 1.6 9.36
9/22/2016 9:15:00 AM 15.74 60.332 0.262 7.77 1.9 9.45
9/22/2016 9:30:00 AM 15.76 60.368 0.262 7.78 1.4 9.69
9/22/2016 9:45:00 AM 15.77 60.386 0.262 7.8 1.7 9.66
9/22/2016 10:00:00 AM 15.82 60.476 0.262 7.81 1.9 9.62
9/22/2016 10:15:00 AM 15.9 60.62 0.262 7.83 1.3 9.72
9/22/2016 10:30:00 AM 16 60.8 0.262 7.85 1.6 9.77
9/22/2016 10:45:00 AM 16.14 61.052 0.261 7.87 1.6 9.75
9/22/2016 11:00:00 AM 16.37 61.466 0.261 7.88 2.1 9.77
9/22/2016 11:15:00 AM 16.74 62.132 0.26 7.91 1.3 9.7
9/22/2016 11:30:00 AM 17.2 62.96 0.26 7.92 1.2 9.9
9/22/2016 11:45:00 AM 17.81 64.058 0.26 7.95 1.2 9.86
9/22/2016 12:00:00 PM 18.28 64.904 0.26 7.97 1.8 9.83
9/22/2016 12:15:00 PM 19.06 66.308 0.259 8.02 1.7 9.73
9/22/2016 12:30:00 PM 19.91 67.838 0.258 8.11 1.3 9.83
9/22/2016 12:45:00 PM 20.76 69.368 0.258 8.23 1.5 10.04
9/22/2016 1:00:00 PM 21.32 70.376 0.258 8.32 1.8 10.38
9/22/2016 1:15:00 PM 21.75 71.15 0.258 8.38 2.1 10.39
9/22/2016 1:30:00 PM 21.96 71.528 0.258 8.43 1.7 10.45
9/22/2016 1:45:00 PM 22 71.6 0.259 8.47 1.5 10.29
9/22/2016 2:00:00 PM 21.97 71.546 0.26 8.52 1.6 10.25
9/22/2016 2:15:00 PM 21.89 71.402 0.26 8.56 1.6 10.14
9/22/2016 2:30:00 PM 21.69 71.042 0.26 8.59 2 9.99
9/22/2016 2:45:00 PM 21.54 70.772 0.261 8.57 1.6 9.88
9/22/2016 3:00:00 PM 21.31 70.358 0.261 8.52 1.9 9.56
9/22/2016 3:15:00 PM 21.13 70.034 0.261 8.45 1.5 9.74
9/22/2016 3:30:00 PM 20.96 69.728 0.261 8.36 1.6 9.54
9/22/2016 3:45:00 PM 20.89 69.602 0.261 8.31 1.8 9.43
9/22/2016 4:00:00 PM 20.82 69.476 0.261 8.27 1.5 9.3
9/22/2016 4:15:00 PM 20.79 69.422 0.261 8.24 1.7 9.18
9/22/2016 4:30:00 PM 20.81 69.458 0.261 8.23 1.4 9.11
9/22/2016 4:45:00 PM 20.83 69.494 0.261 8.25 1.9 9.13
9/22/2016 5:00:00 PM 20.84 69.512 0.261 8.29 1.5 9.08
9/22/2016 5:15:00 PM 20.77 69.386 0.261 8.23 1.6 9.03
9/22/2016 5:30:00 PM 20.68 69.224 0.261 8.15 1.8 8.88
9/22/2016 5:45:00 PM 20.6 69.08 0.261 8.11 1.5 8.76
9/22/2016 6:00:00 PM 20.46 68.828 0.261 8.06 1.4 8.64
9/22/2016 6:15:00 PM 20.33 68.594 0.262 8.02 1.8 8.5
9/22/2016 6:30:00 PM 20.19 68.342 0.262 7.98 1.4 8.4
9/22/2016 6:45:00 PM 20.05 68.09 0.262 7.94 1.7 8.26
9/22/2016 7:00:00 PM 19.93 67.874 0.262 7.91 1.9 8.31
9/22/2016 7:15:00 PM 19.79 67.622 0.263 7.87 1.9 8.27
9/22/2016 7:30:00 PM 19.66 67.388 0.263 7.84 1.8 8.2
9/22/2016 7:45:00 PM 19.53 67.154 0.263 7.82 2.6 8.19
9/22/2016 8:00:00 PM 19.39 66.902 0.263 7.79 2.3 8.16
9/22/2016 8:15:00 PM 19.26 66.668 0.264 7.77 1.8 8.14
9/22/2016 8:30:00 PM 19.13 66.434 0.264 7.76 1.8 8.19
9/22/2016 8:45:00 PM 19 66.2 0.264 7.75 2.7 8.13
9/22/2016 9:00:00 PM 18.87 65.966 0.264 7.74 2 8.15
9/22/2016 9:15:00 PM 18.76 65.768 0.264 7.72 2.7 8.13
9/22/2016 9:30:00 PM 18.65 65.57 0.264 7.71 2.2 8.16
9/22/2016 9:45:00 PM 18.54 65.372 0.264 7.71 2.2 8.19
9/22/2016 10:00:00 PM 18.44 65.192 0.264 7.7 3.7 8.19
9/22/2016 10:15:00 PM 18.33 64.994 0.264 7.7 3 8.2
9/22/2016 10:30:00 PM 18.23 64.814 0.264 7.7 2.7 8.11
9/22/2016 10:45:00 PM 18.14 64.652 0.264 7.69 2.6 8.23
9/22/2016 11:00:00 PM 18.05 64.49 0.264 7.68 2.7 8.26
9/22/2016 11:15:00 PM 17.97 64.346 0.264 7.68 2.1 8.29
9/22/2016 11:30:00 PM 17.87 64.166 0.264 7.68 1.9 8.31
9/22/2016 11:45:00 PM 17.79 64.022 0.264 7.68 2.4 8.37
9/23/2016 12:00:00 AM 17.71 63.878 0.264 7.67 2 8.4
9/23/2016 12:15:00 AM 17.63 63.734 0.264 7.68 2.5 8.38
9/23/2016 12:30:00 AM 17.55 63.59 0.264 7.68 2.5 8.4
9/23/2016 12:45:00 AM 17.47 63.446 0.264 7.67 2.4 8.44
9/23/2016 1:00:00 AM 17.41 63.338 0.264 7.67 2.5 8.42
9/23/2016 1:15:00 AM 17.36 63.248 0.264 7.68 2 8.44
9/23/2016 1:30:00 AM 17.31 63.158 0.264 7.68 1.8 8.47
9/23/2016 1:45:00 AM 17.26 63.068 0.265 7.68 2.1 8.43
9/23/2016 2:00:00 AM 17.22 62.996 0.265 7.67 2.3 8.48
9/23/2016 2:15:00 AM 17.17 62.906 0.265 7.68 1.8 8.34
9/23/2016 2:30:00 AM 17.13 62.834 0.265 7.67 2.1 8.52
9/23/2016 2:45:00 AM 17.09 62.762 0.265 7.68 1.9 8.54
9/23/2016 3:00:00 AM 17.05 62.69 0.265 7.67 1.6 8.46
9/23/2016 3:15:00 AM 17.01 62.618 0.265 7.67 1.9 8.51
9/23/2016 3:30:00 AM 16.98 62.564 0.265 7.67 2.6 8.53
9/23/2016 3:45:00 AM 16.95 62.51 0.265 7.67 3.1 8.51
9/23/2016 4:00:00 AM 16.9 62.42 0.265 7.67 2.1 8.5
9/23/2016 4:15:00 AM 16.87 62.366 0.265 7.67 2.1 8.55
9/23/2016 4:30:00 AM 16.85 62.33 0.265 7.67 2.1 8.54
9/23/2016 4:45:00 AM 16.82 62.276 0.265 7.67 2.4 8.57
9/23/2016 5:00:00 AM 16.79 62.222 0.265 7.66 1.7 8.54
9/23/2016 5:15:00 AM 16.76 62.168 0.266 7.67 1.9 8.57
9/23/2016 5:30:00 AM 16.74 62.132 0.265 7.67 1.8 8.61
9/23/2016 5:45:00 AM 16.72 62.096 0.265 7.67 1.8 8.61
9/23/2016 6:00:00 AM 16.69 62.042 0.266 7.67 2.4 8.49
9/23/2016 6:15:00 AM 16.67 62.006 0.266 7.67 1.7 8.62
9/23/2016 6:30:00 AM 16.65 61.97 0.266 7.67 1.7 8.57
9/23/2016 6:45:00 AM 16.64 61.952 0.266 7.66 1.9 8.6
9/23/2016 7:00:00 AM 16.61 61.898 0.266 7.66 2.1 8.58
9/23/2016 7:15:00 AM 16.6 61.88 0.266 7.66 1.5 8.6
9/23/2016 7:30:00 AM 16.57 61.826 0.266 7.66 1.3 8.65
9/23/2016 7:45:00 AM 16.56 61.808 0.266 7.67 1.3 8.6
9/23/2016 8:00:00 AM 16.56 61.808 0.266 7.68 1.5 8.78
9/23/2016 8:15:00 AM 16.57 61.826 0.266 7.7 1.9 8.86
9/23/2016 8:30:00 AM 16.61 61.898 0.266 7.73 1 9.03
9/23/2016 8:45:00 AM 16.66 61.988 0.265 7.75 1.3 9.21
9/23/2016 9:00:00 AM 16.72 62.096 0.265 7.78 1.1 9.34
9/23/2016 9:15:00 AM 16.79 62.222 0.265 7.81 1 9.48
9/23/2016 9:30:00 AM 16.86 62.348 0.264 7.85 1.1 9.65
9/23/2016 9:45:00 AM 16.97 62.546 0.264 7.9 1.6 9.63
9/23/2016 10:00:00 AM 17.1 62.78 0.263 7.95 1.2 10.09
9/23/2016 10:15:00 AM 17.23 63.014 0.263 8 1.3 10.26
9/23/2016 10:30:00 AM 17.36 63.248 0.262 8.06 1.3 10.43
9/23/2016 10:45:00 AM 17.48 63.464 0.262 8.09 1.3 10.44
9/23/2016 11:00:00 AM 17.6 63.68 0.262 8.13 1.3 10.48
9/23/2016 11:15:00 AM 17.76 63.968 0.261 8.16 3.1 10.55
9/23/2016 11:30:00 AM 17.95 64.31 0.261 8.19 5.8 10.6
9/23/2016 11:45:00 AM 18.31 64.958 0.26 8.23 3.5 10.58
9/23/2016 12:00:00 PM 18.79 65.82201 0.26 8.22 3.1 10.31
9/23/2016 12:15:00 PM 18.91 66.038 0.261 8.27 2.9 10.61
9/23/2016 12:30:00 PM 19.39 66.902 0.26 8.36 1.8 10.74
9/23/2016 12:45:00 PM 20.12 68.216 0.261 8.45 1.9 10.91
9/23/2016 1:00:00 PM 21.02 69.836 0.259 8.5 2.3 10.82
9/23/2016 1:15:00 PM 21.29 70.32201 0.258 8.52 1.4 10.78
9/23/2016 1:30:00 PM 21.75 71.15 0.258 8.56 1.5 10.5
9/23/2016 1:45:00 PM 22.05 71.69 0.259 8.63 3.1 10.8
9/23/2016 2:00:00 PM 22.16 71.888 0.259 8.71 2.6 10.8
9/23/2016 2:15:00 PM 22.14 71.852 0.26 8.71 2.5 10.52
9/23/2016 2:30:00 PM 22.18 71.924 0.26 8.73 1.4 10.42
9/23/2016 2:45:00 PM 22.14 71.852 0.26 8.75 1.9 10.48
9/23/2016 3:00:00 PM 22.08 71.744 0.26 8.71 2.9 10.44
9/23/2016 3:15:00 PM 21.76 71.168 0.26 8.68 3.9 10.24
9/23/2016 3:30:00 PM 21.71 71.078 0.26 8.64 2.1 10.13
9/23/2016 3:45:00 PM 21.63 70.934 0.26 8.62 8.3 10.13
9/23/2016 4:00:00 PM 21.6 70.88 0.26 8.58 8.7 9.95
9/23/2016 4:15:00 PM 21.6 70.88 0.26 8.56 4.8 9.73
9/23/2016 4:30:00 PM 21.62 70.916 0.26 8.55 2.7 9.66
9/23/2016 4:45:00 PM 21.6 70.88 0.26 8.53 4 9.63
9/23/2016 5:00:00 PM 21.49 70.682 0.261 8.47 6 9.43
9/23/2016 5:15:00 PM 21.42 70.556 0.261 8.43 1.4 8.95
9/23/2016 5:30:00 PM 21.38 70.484 0.261 8.37 1.6 8.99
9/23/2016 5:45:00 PM 21.34 70.412 0.261 8.34 2.9 8.87
9/23/2016 6:00:00 PM 21.3 70.34 0.262 8.3 9.2 8.75
9/23/2016 6:15:00 PM 21.2 70.16 0.262 8.26 1.7 8.76
9/23/2016 6:30:00 PM 21.1 69.98 0.262 8.21 4.8 8.62
9/23/2016 6:45:00 PM 20.98 69.764 0.263 8.16 4 8.47
9/23/2016 7:00:00 PM 20.85 69.53 0.263 8.11 10 8.32
9/23/2016 7:15:00 PM 20.74 69.332 0.263 8.06 1.4 8.18
9/23/2016 7:30:00 PM 20.63 69.134 0.264 8.01 1.3 8.09
9/23/2016 7:45:00 PM 20.5 68.9 0.264 7.96 1.7 8
9/23/2016 8:00:00 PM 20.38 68.684 0.265 7.93 1.9 7.93
9/23/2016 8:15:00 PM 20.25 68.45 0.265 7.89 1.8 7.9
9/23/2016 8:30:00 PM 20.1 68.18 0.266 7.85 2.1 7.89
9/23/2016 8:45:00 PM 19.95 67.91 0.266 7.83 2.2 7.85
9/23/2016 9:00:00 PM 19.82 67.676 0.266 7.8 2.3 7.71
9/23/2016 9:15:00 PM 19.69 67.442 0.266 7.77 1.5 7.86
9/23/2016 9:30:00 PM 19.57 67.226 0.266 7.75 4 7.88
9/23/2016 9:45:00 PM 19.45 67.01 0.266 7.74 3.6 7.73
9/23/2016 10:00:00 PM 19.35 66.83 0.266 7.73 1.8 7.87
9/23/2016 10:15:00 PM 19.24 66.632 0.266 7.71 7.1 7.91
9/23/2016 10:30:00 PM 19.12 66.416 0.266 7.7 1.5 7.87
9/23/2016 10:45:00 PM 19.03 66.254 0.267 7.69 6 7.87
9/23/2016 11:00:00 PM 18.94 66.092 0.267 7.69 2 7.9
9/23/2016 11:15:00 PM 18.84 65.912 0.267 7.67 1.4 7.93
9/23/2016 11:30:00 PM 18.74 65.732 0.267 7.66 1.6 7.96
9/23/2016 11:45:00 PM 18.66 65.588 0.267 7.68 4.5 7.96
9/24/2016 12:00:00 AM 18.58 65.444 0.267 7.68 2.7 7.98
9/24/2016 12:15:00 AM 18.5 65.3 0.267 7.67 8.5 8
9/24/2016 12:30:00 AM 18.42 65.156 0.267 7.66 2.9 8.02
9/24/2016 12:45:00 AM 18.35 65.03 0.267 7.65 3 7.86
9/24/2016 1:00:00 AM 18.29 64.922 0.267 7.65 5.2 8.02
9/24/2016 1:15:00 AM 18.23 64.814 0.267 7.65 4.3 8.03
9/24/2016 1:30:00 AM 18.17 64.706 0.267 7.65 3.3 8.12
9/24/2016 1:45:00 AM 18.11 64.598 0.267 7.64 4.7 8.06
9/24/2016 2:00:00 AM 18.04 64.472 0.267 7.64 2.5 8.09
9/24/2016 2:15:00 AM 17.96 64.328 0.267 7.64 2.7 8.12
9/24/2016 2:30:00 AM 17.91 64.238 0.267 7.63 2.4 8.12
9/24/2016 2:45:00 AM 17.85 64.13 0.267 7.62 1.8 8.16
9/24/2016 3:00:00 AM 17.8 64.04 0.267 7.61 2.4 8.12
9/24/2016 3:15:00 AM 17.73 63.914 0.267 7.62 2.2 8.13
9/24/2016 3:30:00 AM 17.68 63.824 0.267 7.63 3.6 8.12
9/24/2016 3:45:00 AM 17.61 63.698 0.267 7.64 1.5 8.2
9/24/2016 4:00:00 AM 17.54 63.572 0.267 7.63 1.8 8.19
9/24/2016 4:15:00 AM 17.48 63.464 0.267 7.63 2 8.27
9/24/2016 4:30:00 AM 17.42 63.356 0.267 7.61 1.7 8.15
9/24/2016 4:45:00 AM 17.38 63.284 0.267 7.63 1.8 8.3
9/24/2016 5:00:00 AM 17.32 63.176 0.267 7.63 1.8 8.24
9/24/2016 5:15:00 AM 17.26 63.068 0.267 7.61 1.8 8.28
9/24/2016 5:30:00 AM 17.2 62.96 0.267 7.62 1.8 8.29
9/24/2016 5:45:00 AM 17.13 62.834 0.267 7.61 1.2 8.33
9/24/2016 6:00:00 AM 17.04 62.672 0.267 7.61 2.2 8.37
9/24/2016 6:15:00 AM 16.96 62.528 0.267 7.6 1.9 8.37
9/24/2016 6:30:00 AM 16.85 62.33 0.267 7.62 1.7 8.44
9/24/2016 6:45:00 AM 16.75 62.15 0.267 7.59 1.7 8.48
9/24/2016 7:00:00 AM 16.66 61.988 0.267 7.61 1.5 8.5
9/24/2016 7:15:00 AM 16.53 61.754 0.268 7.62 1.1 8.52
9/24/2016 7:30:00 AM 16.44 61.592 0.267 7.6 0.9 8.55
9/24/2016 7:45:00 AM 16.38 61.484 0.267 7.62 1.2 8.64
9/24/2016 8:00:00 AM 16.32 61.376 0.267 7.62 1.4 8.72
9/24/2016 8:15:00 AM 16.26 61.268 0.267 7.65 1.3 8.83
9/24/2016 8:30:00 AM 16.18 61.124 0.267 7.67 1.1 8.9
9/24/2016 8:45:00 AM 16.13 61.034 0.267 7.67 1.1 8.98
9/24/2016 9:00:00 AM 16.06 60.908 0.267 7.68 1.3 9
9/24/2016 9:15:00 AM 16.02 60.836 0.267 7.68 4.7 9.2
9/24/2016 9:30:00 AM 15.99 60.782 0.267 7.7 1.4 9.24
9/24/2016 9:45:00 AM 15.95 60.71 0.267 7.72 1.4 9.31
9/24/2016 10:00:00 AM 15.94 60.692 0.267 7.73 1.7 9.31
9/24/2016 10:15:00 AM 15.96 60.728 0.266 7.76 1.1 9.4
9/24/2016 10:30:00 AM 16 60.8 0.266 7.79 1.1 9.31
9/24/2016 10:45:00 AM 16.05 60.89 0.266 7.82 1.2 9.53
9/24/2016 11:00:00 AM 16.08 60.944 0.266 7.85 1.7 9.56
9/24/2016 11:15:00 AM 16.23 61.214 0.265 7.85 0.9 9.71
9/24/2016 11:30:00 AM 16.51 61.718 0.265 7.89 1.9 9.84
9/24/2016 11:45:00 AM 16.64 61.952 0.266 7.89 1.1 9.82
9/24/2016 12:00:00 PM 16.88 62.384 0.265 7.94 1.3 9.49
9/24/2016 12:15:00 PM 17.22 62.996 0.264 7.99 1.3 9.68
9/24/2016 12:30:00 PM 17.8 64.04 0.263 8.09 1.9 10.33
9/24/2016 12:45:00 PM 18.79 65.82201 0.262 8.2 1.6 10.32
9/24/2016 1:00:00 PM 19.67 67.406 0.263 8.29 1.4 10.64
9/24/2016 1:15:00 PM 20.53 68.954 0.261 8.33 1.4 10.63
9/24/2016 1:30:00 PM 20.8 69.44 0.261 8.38 1.8 10.66
9/24/2016 1:45:00 PM 21 69.8 0.261 8.46 1.5 10.68
9/24/2016 2:00:00 PM 21.08 69.944 0.262 8.55 1.2 10.67
9/24/2016 2:15:00 PM 21.05 69.89 0.262 8.63 1.4 10.57
9/24/2016 2:30:00 PM 20.95 69.71 0.263 8.67 1.5 10.36
9/24/2016 2:45:00 PM 20.74 69.332 0.263 8.67 1.2 10.26
9/24/2016 3:00:00 PM 20.44 68.792 0.264 8.62 1.5 10.19
9/24/2016 3:15:00 PM 20.04 68.07201 0.265 8.52 1.3 10.08
9/24/2016 3:30:00 PM 19.7 67.46 0.264 8.39 1.6 9.85
9/24/2016 3:45:00 PM 19.39 66.902 0.265 8.33 1.8 9.52
9/24/2016 4:00:00 PM 19.21 66.578 0.265 8.31 1.3 9.66
9/24/2016 4:15:00 PM 19.05 66.29 0.265 8.28 1.3 9.58
9/24/2016 4:30:00 PM 18.96 66.128 0.265 8.28 1.6 9.59
9/24/2016 4:45:00 PM 18.9 66.02 0.265 8.31 1.6 9.6
9/24/2016 5:00:00 PM 18.85 65.93 0.265 8.32 2.5 9.61
9/24/2016 5:15:00 PM 18.76 65.768 0.265 8.29 1.4 9.49
9/24/2016 5:30:00 PM 18.62 65.516 0.265 8.22 2.4 9.39
9/24/2016 5:45:00 PM 18.52 65.336 0.265 8.18 1.6 9.3
9/24/2016 6:00:00 PM 18.4 65.12 0.265 8.14 1.6 9.15
9/24/2016 6:15:00 PM 18.29 64.922 0.266 8.09 1.7 9.02
9/24/2016 6:30:00 PM 18.16 64.688 0.266 8.06 1.4 8.88
9/24/2016 6:45:00 PM 18.04 64.472 0.266 8.02 1.7 8.81
9/24/2016 7:00:00 PM 17.92 64.256 0.267 7.98 1.9 8.72
9/24/2016 7:15:00 PM 17.77 63.986 0.267 7.94 1.6 8.65
9/24/2016 7:30:00 PM 17.63 63.734 0.267 7.91 1.7 8.47
9/24/2016 7:45:00 PM 17.5 63.5 0.267 7.88 1.7 8.56
9/24/2016 8:00:00 PM 17.36 63.248 0.268 7.84 1.8 8.56
9/24/2016 8:15:00 PM 17.22 62.996 0.268 7.82 1.6 8.52
9/24/2016 8:30:00 PM 17.09 62.762 0.268 7.8 1.9 8.55
9/24/2016 8:45:00 PM 16.96 62.528 0.268 7.78 2.4 8.56
9/24/2016 9:00:00 PM 16.82 62.276 0.268 7.76 1.9 8.55
9/24/2016 9:15:00 PM 16.67 62.006 0.268 7.74 1.5 8.53
9/24/2016 9:30:00 PM 16.54 61.772 0.268 7.72 1.3 8.58
9/24/2016 9:45:00 PM 16.4 61.52 0.269 7.71 1.9 8.59
9/24/2016 10:00:00 PM 16.25 61.25 0.269 7.69 3 8.6
9/24/2016 10:15:00 PM 16.12 61.016 0.269 7.69 1.8 8.64
9/24/2016 10:30:00 PM 15.98 60.764 0.269 7.68 3.6 8.68
9/24/2016 10:45:00 PM 15.83 60.494 0.269 7.67 1.5 8.71
9/24/2016 11:00:00 PM 15.69 60.242 0.269 7.65 1.7 8.74
9/24/2016 11:15:00 PM 15.56 60.008 0.269 7.67 1.5 8.6
9/24/2016 11:30:00 PM 15.45 59.81 0.269 7.65 1.2 8.79
9/24/2016 11:45:00 PM 15.3 59.54 0.269 7.66 1.5 8.83
9/25/2016 12:00:00 AM 15.17 59.306 0.269 7.66 1.3 8.85
9/25/2016 12:15:00 AM 15.06 59.108 0.269 7.65 1.4 8.88
9/25/2016 12:30:00 AM 14.94 58.892 0.269 7.65 1.3 8.88
9/25/2016 12:45:00 AM 14.82 58.676 0.269 7.65 1.3 8.92
9/25/2016 1:00:00 AM 14.7 58.46 0.269 7.63 1.4 8.97
9/25/2016 1:15:00 AM 14.58 58.244 0.269 7.63 1.3 9.01
9/25/2016 1:30:00 AM 14.46 58.028 0.269 7.64 1.3 9.03
9/25/2016 1:45:00 AM 14.37 57.866 0.269 7.63 1.9 9.04
9/25/2016 2:00:00 AM 14.25 57.65 0.269 7.63 1.4 9.07
9/25/2016 2:15:00 AM 14.14 57.452 0.269 7.64 2.5 9.11
9/25/2016 2:30:00 AM 14.03 57.254 0.269 7.62 1.8 9.1
9/25/2016 2:45:00 AM 13.92 57.056 0.269 7.63 1.4 9.16
9/25/2016 3:00:00 AM 13.82 56.876 0.269 7.64 2.1 9.05
9/25/2016 3:15:00 AM 13.72 56.696 0.269 7.66 5.1 9.21
9/25/2016 3:30:00 AM 13.61 56.498 0.269 7.65 2.3 9.26
9/25/2016 3:45:00 AM 13.52 56.336 0.269 7.63 1.6 9.26
9/25/2016 4:00:00 AM 13.42 56.156 0.269 7.63 2 9.32
9/25/2016 4:15:00 AM 13.29 55.922 0.269 7.64 1.6 9.35
9/25/2016 4:30:00 AM 13.22 55.796 0.269 7.63 1.3 9.35
9/25/2016 4:45:00 AM 13.12 55.616 0.269 7.61 1.1 9.39
9/25/2016 5:00:00 AM 13.03 55.454 0.268 7.63 1.6 9.37
9/25/2016 5:15:00 AM 12.93 55.274 0.269 7.64 1.9 9.44
9/25/2016 5:30:00 AM 12.86 55.148 0.269 7.63 1.9 9.45
9/25/2016 5:45:00 AM 12.76 54.968 0.268 7.63 1.5 9.48
9/25/2016 6:00:00 AM 12.67 54.806 0.268 7.63 3.1 9.51
9/25/2016 6:15:00 AM 12.58 54.644 0.269 7.63 1.9 9.54
9/25/2016 6:30:00 AM 12.5 54.5 0.269 7.63 2.8 9.54
9/25/2016 6:45:00 AM 12.41 54.338 0.269 7.62 1.1 9.41
9/25/2016 7:00:00 AM 12.34 54.212 0.269 7.62 1.2 9.6
9/25/2016 7:15:00 AM 12.26 54.068 0.269 7.64 1 9.64
9/25/2016 7:30:00 AM 12.16 53.888 0.269 7.64 1.1 9.69
9/25/2016 7:45:00 AM 12.12 53.816 0.269 7.63 4.6 9.74
9/25/2016 8:00:00 AM 12.06 53.708 0.269 7.65 0.7 9.81
9/25/2016 8:15:00 AM 12.01 53.618 0.268 7.67 1.1 9.86
9/25/2016 8:30:00 AM 11.99 53.582 0.268 7.68 0.9 9.95
9/25/2016 8:45:00 AM 11.98 53.564 0.268 7.68 3.2 10.01
9/25/2016 9:00:00 AM 11.98 53.564 0.268 7.7 0.7 10.08
9/25/2016 9:15:00 AM 12.01 53.618 0.268 7.71 0.7 10.11
9/25/2016 9:30:00 AM 12.06 53.708 0.268 7.71 0.6 10.15
9/25/2016 9:45:00 AM 12.12 53.816 0.267 7.74 0.5 10.19
9/25/2016 10:00:00 AM 12.19 53.942 0.267 7.76 0.6 10.17
9/25/2016 10:15:00 AM 12.28 54.104 0.267 7.77 0.6 10.33
9/25/2016 10:30:00 AM 12.4 54.32 0.267 7.79 0.8 10.23
9/25/2016 10:45:00 AM 12.53 54.554 0.266 7.81 0.9 10.46
9/25/2016 11:00:00 AM 12.65 54.77 0.266 7.82 0.7 10.58
9/25/2016 11:15:00 AM 12.86 55.148 0.266 7.84 0.9 10.63
9/25/2016 11:30:00 AM 13.17 55.706 0.265 7.9 0.7 10.68
9/25/2016 11:45:00 AM 13.47 56.246 0.265 7.91 0.8 10.64
9/25/2016 12:00:00 PM 13.63 56.534 0.265 7.94 0.4 10.36
9/25/2016 12:15:00 PM 14.04 57.272 0.265 8 0.4 10.7
9/25/2016 12:30:00 PM 14.79 58.622 0.263 8.08 0.6 10.78
9/25/2016 12:45:00 PM 15.83 60.494 0.263 8.2 0.9 11
9/25/2016 1:00:00 PM 16.76 62.168 0.263 8.27 0.7 11.49
9/25/2016 1:15:00 PM 17.47 63.446 0.263 8.32 0.9 11.29
9/25/2016 1:30:00 PM 18.26 64.868 0.261 8.37 0.7 11.2
9/25/2016 1:45:00 PM 18.55 65.39 0.261 8.44 0.8 11.35
9/25/2016 2:00:00 PM 18.7 65.66 0.262 8.54 2.6 11.28
9/25/2016 2:15:00 PM 18.74 65.732 0.262 8.63 1.4 10.87
9/25/2016 2:30:00 PM 18.71 65.67799 0.262 8.67 2.2 11.01
9/25/2016 2:45:00 PM 18.6 65.48 0.263 8.67 3.8 10.91
9/25/2016 3:00:00 PM 18.41 65.138 0.263 8.61 4 10.78
9/25/2016 3:15:00 PM 18.04 64.472 0.264 8.55 4.5 10.59
9/25/2016 3:30:00 PM 17.68 63.824 0.264 8.44 9.5 10.44
9/25/2016 3:45:00 PM 17.42 63.356 0.264 8.37 10.1 10.31
9/25/2016 4:00:00 PM 17.27 63.086 0.264 8.35 9.5 10.26
9/25/2016 4:15:00 PM 17.14 62.852 0.264 8.33 10.1 10.17
9/25/2016 4:30:00 PM 17.08 62.744 0.264 8.33 12.4 10.11
9/25/2016 4:45:00 PM 17.07 62.726 0.264 8.34 10.3 10.14
9/25/2016 5:00:00 PM 17.01 62.618 0.264 8.37 10.7 10.09
9/25/2016 5:15:00 PM 16.95 62.51 0.265 8.32 5.8 10.08
9/25/2016 5:30:00 PM 16.87 62.366 0.265 8.27 6.3 9.93
9/25/2016 5:45:00 PM 16.78 62.204 0.265 8.23 8.3 9.84
9/25/2016 6:00:00 PM 16.64 61.952 0.265 8.19 4.7 9.46
9/25/2016 6:15:00 PM 16.5 61.7 0.266 8.14 1.6 9.53
9/25/2016 6:30:00 PM 16.36 61.448 0.266 8.08 1.6 9.45
9/25/2016 6:45:00 PM 16.22 61.196 0.267 8.05 1.6 9.36
9/25/2016 7:00:00 PM 16.09 60.962 0.267 8.02 1 9.29
9/25/2016 7:15:00 PM 15.94 60.692 0.267 7.98 1.1 9.21
9/25/2016 7:30:00 PM 15.81 60.458 0.267 7.94 2 9.15
9/25/2016 7:45:00 PM 15.67 60.206 0.267 7.91 1.5 9.09
9/25/2016 8:00:00 PM 15.54 59.972 0.268 7.89 1 9.07
9/25/2016 8:15:00 PM 15.4 59.72 0.268 7.86 1.5 9.06
9/25/2016 8:30:00 PM 15.26 59.468 0.268 7.83 4.8 9.04
9/25/2016 8:45:00 PM 15.14 59.252 0.268 7.8 1.5 9.06
9/25/2016 9:00:00 PM 15 59 0.268 7.79 3 8.99
9/25/2016 9:15:00 PM 14.86 58.748 0.269 7.78 14 9.04
9/25/2016 9:30:00 PM 14.74 58.532 0.269 7.76 21.6 9.01
9/25/2016 9:45:00 PM 14.59 58.262 0.269 7.74 7.6 8.96
9/25/2016 10:00:00 PM 14.45 58.01 0.269 7.73 4.4 9.12
9/25/2016 10:15:00 PM 14.34 57.812 0.269 7.72 5.4 9.16
9/25/2016 10:30:00 PM 14.2 57.56 0.269 7.71 5.8 9.19
9/25/2016 10:45:00 PM 14.09 57.362 0.269 7.7 4.5 9.22
9/25/2016 11:00:00 PM 13.96 57.128 0.269 7.69 4.1 9.22
9/25/2016 11:15:00 PM 13.83 56.894 0.27 7.68 4.8 9.27
9/25/2016 11:30:00 PM 13.72 56.696 0.27 7.68 4.4 9.27
9/25/2016 11:45:00 PM 13.59 56.462 0.27 7.69 3.5 9.32
9/26/2016 12:00:00 AM 13.49 56.282 0.27 7.68 3.7 9.33
9/26/2016 12:15:00 AM 13.38 56.084 0.27 7.67 2.1 9.38
9/26/2016 12:30:00 AM 13.26 55.868 0.27 7.66 1 9.39
9/26/2016 12:45:00 AM 13.17 55.706 0.27 7.67 1.1 9.45
9/26/2016 1:00:00 AM 13.06 55.508 0.27 7.67 1.2 9.47
9/26/2016 1:15:00 AM 12.96 55.328 0.27 7.67 1.1 9.45
9/26/2016 1:30:00 AM 12.86 55.148 0.27 7.68 2.6 9.32
9/26/2016 1:45:00 AM 12.77 54.986 0.27 7.66 1.4 9.53
9/26/2016 2:00:00 AM 12.68 54.824 0.27 7.66 2.9 9.56
9/26/2016 2:15:00 AM 12.57 54.626 0.27 7.66 2.8 9.58
9/26/2016 2:30:00 AM 12.48 54.464 0.27 7.67 1.4 9.59
9/26/2016 2:45:00 AM 12.4 54.32 0.27 7.66 2.8 9.61
9/26/2016 3:00:00 AM 12.32 54.176 0.269 7.67 1.5 9.6
9/26/2016 3:15:00 AM 12.23 54.014 0.27 7.65 1.1 9.66
9/26/2016 3:30:00 AM 12.15 53.87 0.27 7.66 1.6 9.62
9/26/2016 3:45:00 AM 12.09 53.762 0.269 7.66 1.4 9.67
9/26/2016 4:00:00 AM 12.02 53.636 0.27 7.66 1.3 9.6
9/26/2016 4:15:00 AM 11.96 53.528 0.27 7.65 1.9 9.51
9/26/2016 4:30:00 AM 11.88 53.384 0.269 7.64 1.6 9.74
9/26/2016 4:45:00 AM 11.8 53.24 0.27 7.67 1.5 9.78
9/26/2016 5:00:00 AM 11.73 53.114 0.27 7.66 1.1 9.82
9/26/2016 5:15:00 AM 11.67 53.006 0.269 7.66 1.7 9.69
9/26/2016 5:30:00 AM 11.6 52.88 0.27 7.67 5.1 9.84
9/26/2016 5:45:00 AM 11.54 52.772 0.27 7.64 1.1 9.88
9/26/2016 6:00:00 AM 11.47 52.646 0.269 7.62 1.2 9.88
9/26/2016 6:15:00 AM 11.41 52.538 0.269 7.62 8.7 9.89
9/26/2016 6:30:00 AM 11.34 52.412 0.269 7.63 2.1 9.92
9/26/2016 6:45:00 AM 11.26 52.268 0.269 7.64 3.6 9.95
9/26/2016 7:00:00 AM 11.21 52.178 0.269 7.62 6.9 9.94
9/26/2016 7:15:00 AM 11.16 52.088 0.269 7.63 5.6 9.95
9/26/2016 7:30:00 AM 11.12 52.016 0.269 7.63 2.9 10.02
9/26/2016 7:45:00 AM 11.11 51.998 0.269 7.67 2.5 10.1
9/26/2016 8:00:00 AM 11.11 51.998 0.269 7.67 0.8 10.22
9/26/2016 8:15:00 AM 11.11 51.998 0.269 7.69 0.7 10.34
9/26/2016 8:30:00 AM 11.13 52.034 0.268 7.7 1 10.43
9/26/2016 8:45:00 AM 11.13 52.034 0.268 7.72 1.6 10.5
9/26/2016 9:00:00 AM 11.2 52.16 0.268 7.78 0.8 10.43
9/26/2016 9:15:00 AM 11.29 52.322 0.268 7.81 0.6 10.55
9/26/2016 9:30:00 AM 11.4 52.52 0.267 7.83 1 10.78
9/26/2016 9:45:00 AM 11.5 52.7 0.267 7.86 0.7 10.85
9/26/2016 10:00:00 AM 11.62 52.916 0.266 7.88 0.8 10.99
9/26/2016 10:15:00 AM 11.76 53.168 0.266 7.92 0.6 10.98
9/26/2016 10:30:00 AM 11.93 53.474 0.265 7.95 0.6 11.18
9/26/2016 10:45:00 AM 12.12 53.816 0.265 7.98 0.5 11.35
9/26/2016 11:00:00 AM 12.31 54.158 0.264 8.02 0.5 11.46
9/26/2016 11:15:00 AM 12.57 54.626 0.264 8.08 1 11.61
9/26/2016 11:30:00 AM 12.88 55.184 0.263 8.16 0.4 11.63
9/26/2016 11:45:00 AM 13.2 55.76 0.263 8.19 0.6 11.59
9/26/2016 12:00:00 PM 13.45 56.21 0.262 8.24 0.5 11.71
9/26/2016 12:15:00 PM 13.68 56.624 0.262 8.26 0.6 11.72
9/26/2016 12:30:00 PM 13.91 57.038 0.261 8.33 4.4 11.9
9/26/2016 12:45:00 PM 14.17 57.506 0.261 8.37 0.8 11.59
9/26/2016 1:00:00 PM 14.54 58.172 0.26 8.42 4.7 11.76
9/26/2016 1:15:00 PM 14.89 58.802 0.26 8.47 0.8 11.81
9/26/2016 1:30:00 PM 15.32 59.576 0.26 8.54 0.9 11.82
9/26/2016 1:45:00 PM 15.73 60.314 0.26 8.62 2.9 11.95
9/26/2016 2:00:00 PM 16.11 60.998 0.259 8.66 0.8 12.11
9/26/2016 2:15:00 PM 16 60.8 0.259 8.69 0.8 12.08
9/26/2016 2:30:00 PM 15.92 60.656 0.259 8.67 0.9 11.91
9/26/2016 2:45:00 PM 15.93 60.674 0.259 8.67 0.7 11.68
9/26/2016 3:00:00 PM 16.01 60.818 0.259 8.68 1.4 11.63
9/26/2016 3:15:00 PM 16.09 60.962 0.259 8.68 1 11.56
9/26/2016 3:30:00 PM 16.14 61.052 0.259 8.7 0.7 11.59
9/26/2016 3:45:00 PM 16.19 61.142 0.259 8.72 0.9 11.54
9/26/2016 4:00:00 PM 16.34 61.412 0.259 8.74 1.1 11.5
9/26/2016 4:15:00 PM 16.42 61.556 0.259 8.73 1.3 11.51
9/26/2016 4:30:00 PM 16.41 61.538 0.259 8.72 0.9 11.34
9/26/2016 4:45:00 PM 16.36 61.448 0.259 8.7 1 11.42
9/26/2016 5:00:00 PM 16.29 61.322 0.26 8.66 0.9 11.16
9/26/2016 5:15:00 PM 16.23 61.214 0.261 8.62 0.9 10.83
9/26/2016 5:30:00 PM 16.17 61.106 0.261 8.59 1.6 10.51
9/26/2016 5:45:00 PM 16.11 60.998 0.262 8.54 1 10.29
9/26/2016 6:00:00 PM 16.06 60.908 0.263 8.5 1.5 10.09
9/26/2016 6:15:00 PM 16.02 60.836 0.263 8.43 0.8 9.88
9/26/2016 6:30:00 PM 15.98 60.764 0.264 8.38 1.1 9.7
9/26/2016 6:45:00 PM 15.95 60.71 0.264 8.34 1.6 9.58
9/26/2016 7:00:00 PM 15.9 60.62 0.265 8.28 0.7 9.45
9/26/2016 7:15:00 PM 15.85 60.53 0.266 8.24 1.8 9.33
9/26/2016 7:30:00 PM 15.82 60.476 0.266 8.19 1 9.22
9/26/2016 7:45:00 PM 15.77 60.386 0.267 8.15 1.2 9.15
9/26/2016 8:00:00 PM 15.73 60.314 0.268 8.12 3.9 9.06
9/26/2016 8:15:00 PM 15.69 60.242 0.268 8.08 0.9 9.01
9/26/2016 8:30:00 PM 15.65 60.17 0.268 8.04 0.7 8.96
9/26/2016 8:45:00 PM 15.61 60.098 0.269 8.01 1 8.89
9/26/2016 9:00:00 PM 15.57 60.026 0.269 7.98 1.3 8.87
9/26/2016 9:15:00 PM 15.54 59.972 0.269 7.95 0.8 8.84
9/26/2016 9:30:00 PM 15.51 59.918 0.27 7.93 0.8 8.78
9/26/2016 9:45:00 PM 15.48 59.864 0.27 7.91 0.9 8.77
9/26/2016 10:00:00 PM 15.46 59.828 0.27 7.89 0.7 8.8
9/26/2016 10:15:00 PM 15.43 59.774 0.27 7.87 1.3 8.74
9/26/2016 10:30:00 PM 15.41 59.738 0.27 7.85 1.2 8.74
9/26/2016 10:45:00 PM 15.39 59.702 0.271 7.84 1 8.72
9/26/2016 11:00:00 PM 15.37 59.666 0.271 7.82 1.3 8.7
9/26/2016 11:15:00 PM 15.35 59.63 0.271 7.8 1.5 8.65
9/26/2016 11:30:00 PM 15.34 59.612 0.271 7.79 0.8 8.56
9/26/2016 11:45:00 PM 15.33 59.594 0.271 7.77 0.9 8.65
9/27/2016 12:00:00 AM 15.32 59.576 0.271 7.76 1 8.6
9/27/2016 12:15:00 AM 15.31 59.558 0.271 7.75 1.4 8.65
9/27/2016 12:30:00 AM 15.3 59.54 0.271 7.75 1.2 8.61
9/27/2016 12:45:00 AM 15.29 59.522 0.271 7.75 1.5 8.68
9/27/2016 1:00:00 AM 15.28 59.504 0.271 7.75 1.3 8.63
9/27/2016 1:15:00 AM 15.25 59.45 0.271 7.73 4.3 8.83
9/27/2016 1:30:00 AM 15.23 59.414 0.271 7.74 3.7 8.96
9/27/2016 1:45:00 AM 15.23 59.414 0.27 7.75 5 9.1
9/27/2016 2:00:00 AM 15.24 59.432 0.268 7.78 3.5 9.22
9/27/2016 2:15:00 AM 15.26 59.468 0.267 7.8 3.8 9.3
9/27/2016 2:30:00 AM 15.27 59.486 0.266 7.82 3.2 9.33
9/27/2016 2:45:00 AM 15.27 59.486 0.266 7.83 2.4 9.32
9/27/2016 3:00:00 AM 15.26 59.468 0.266 7.82 2.1 9.33
9/27/2016 3:15:00 AM 15.23 59.414 0.266 7.82 2.7 9.31
9/27/2016 3:30:00 AM 15.18 59.324 0.266 7.8 2.2 9.3
9/27/2016 3:45:00 AM 15.12 59.216 0.267 7.8 2.1 9.13
9/27/2016 4:00:00 AM 15.06 59.108 0.267 7.79 1.8 9.28
9/27/2016 4:15:00 AM 14.99 58.982 0.267 7.78 2.4 9.27
9/27/2016 4:30:00 AM 14.91 58.838 0.267 7.77 2.1 9.29
9/27/2016 4:45:00 AM 14.83 58.694 0.268 7.76 1.9 9.26
9/27/2016 5:00:00 AM 14.75 58.55 0.268 7.75 2 9.3
9/27/2016 5:15:00 AM 14.66 58.388 0.268 7.75 2.2 9.29
9/27/2016 5:30:00 AM 14.57 58.226 0.268 7.74 3.5 9.3
9/27/2016 5:45:00 AM 14.5 58.1 0.268 7.74 1.9 9.31
9/27/2016 6:00:00 AM 14.44 57.992 0.268 7.73 2.8 9.3
9/27/2016 6:15:00 AM 14.38 57.884 0.268 7.74 2 9.35
9/27/2016 6:30:00 AM 14.32 57.776 0.269 7.74 1.8 9.32
9/27/2016 6:45:00 AM 14.25 57.65 0.269 7.73 1.8 9.33
9/27/2016 7:00:00 AM 14.18 57.524 0.269 7.73 2.2 9.31
9/27/2016 7:15:00 AM 14.11 57.398 0.269 7.73 1.5 9.32
9/27/2016 7:30:00 AM 14.05 57.29 0.269 7.74 1.6 9.38
9/27/2016 7:45:00 AM 14 57.2 0.269 7.74 1.2 9.43
9/27/2016 8:00:00 AM 13.95 57.11 0.269 7.75 7.3 9.48
9/27/2016 8:15:00 AM 13.89 57.002 0.269 7.75 1 9.59
9/27/2016 8:30:00 AM 13.84 56.912 0.269 7.77 1.1 9.64
9/27/2016 8:45:00 AM 13.8 56.84 0.268 7.78 1 9.68
9/27/2016 9:00:00 AM 13.79 56.822 0.268 7.79 5.1 9.72
9/27/2016 9:15:00 AM 13.79 56.822 0.268 7.8 0.9 9.76
9/27/2016 9:30:00 AM 13.81 56.858 0.268 7.82 1 9.84
9/27/2016 9:45:00 AM 13.85 56.93 0.268 7.83 1.1 9.91
9/27/2016 10:00:00 AM 13.9 57.02 0.267 7.84 0.9 9.96
9/27/2016 10:15:00 AM 13.95 57.11 0.268 7.87 1.5 9.99
9/27/2016 10:30:00 AM 14.03 57.254 0.268 7.9 1.2 10.06
9/27/2016 10:45:00 AM 14.15 57.47 0.267 7.9 1.3 10.13
9/27/2016 11:00:00 AM 14.32 57.776 0.267 7.93 0.9 10.2
9/27/2016 11:15:00 AM 14.63 58.334 0.266 7.96 1.3 10.13
9/27/2016 11:30:00 AM 15.01 59.018 0.266 7.99 0.6 10.16
9/27/2016 11:45:00 AM 15.46 59.828 0.265 7.98 1.1 10.09
9/27/2016 12:00:00 PM 15.81 60.458 0.265 8.01 1 9.89
9/27/2016 12:15:00 PM 16.07 60.926 0.265 8.08 0.9 10.24
9/27/2016 12:30:00 PM 16.73 62.114 0.264 8.16 1 10.34
9/27/2016 12:45:00 PM 17.24 63.032 0.265 8.26 1.1 10.65
9/27/2016 1:00:00 PM 18.04 64.472 0.264 8.35 1.2 10.87
9/27/2016 1:15:00 PM 18.89 66.002 0.263 8.39 1.2 10.75
9/27/2016 1:30:00 PM 19.13 66.434 0.263 8.45 1.2 10.89
9/27/2016 1:45:00 PM 19.3 66.74 0.263 8.48 1.4 10.85
9/27/2016 2:00:00 PM 19.38 66.884 0.263 8.56 1.1 10.79
9/27/2016 2:15:00 PM 19.29 66.722 0.264 8.62 1.4 10.82
9/27/2016 2:30:00 PM 19.16 66.488 0.264 8.65 1.4 10.65
9/27/2016 2:45:00 PM 18.88 65.984 0.265 8.6 1.5 10.53
9/27/2016 3:00:00 PM 18.67 65.606 0.265 8.59 0.9 10.19
9/27/2016 3:15:00 PM 18.39 65.102 0.265 8.52 1.4 10.28
9/27/2016 3:30:00 PM 18.11 64.598 0.265 8.44 1.2 10.12
9/27/2016 3:45:00 PM 17.97 64.346 0.265 8.4 1.2 10.04
9/27/2016 4:00:00 PM 17.9 64.22 0.265 8.42 1 10.06
9/27/2016 4:15:00 PM 17.77 63.986 0.265 8.4 2.4 9.97
9/27/2016 4:30:00 PM 17.75 63.95 0.265 8.4 1.1 9.85
9/27/2016 4:45:00 PM 17.76 63.968 0.265 8.42 1.1 9.96
9/27/2016 5:00:00 PM 17.7 63.86 0.265 8.42 1 9.87
9/27/2016 5:15:00 PM 17.64 63.752 0.265 8.37 0.9 9.81
9/27/2016 5:30:00 PM 17.59 63.662 0.266 8.34 0.9 9.74
9/27/2016 5:45:00 PM 17.53 63.554 0.266 8.31 1 9.64
9/27/2016 6:00:00 PM 17.44 63.392 0.266 8.26 1.5 9.49
9/27/2016 6:15:00 PM 17.34 63.212 0.267 8.21 1.3 9.35
9/27/2016 6:30:00 PM 17.25 63.05 0.267 8.15 1.2 9.25
9/27/2016 6:45:00 PM 17.13 62.834 0.267 8.12 1.4 8.99
9/27/2016 7:00:00 PM 17.02 62.636 0.268 8.08 1.5 9.02
9/27/2016 7:15:00 PM 16.86 62.348 0.268 8.04 1.2 8.86
9/27/2016 7:30:00 PM 16.73 62.114 0.268 8 1.5 8.85
9/27/2016 7:45:00 PM 16.59 61.862 0.269 7.96 1.1 8.76
9/27/2016 8:00:00 PM 16.47 61.646 0.269 7.93 1.4 8.75
9/27/2016 8:15:00 PM 16.36 61.448 0.27 7.92 1 8.71
9/27/2016 8:30:00 PM 16.24 61.232 0.27 7.89 1.2 8.69
9/27/2016 8:45:00 PM 16.12 61.016 0.27 7.79 1 8.61
9/27/2016 9:00:00 PM 16 60.8 0.27 7.84 1.5 8.54
9/27/2016 9:15:00 PM 15.87 60.566 0.27 7.82 1.7 8.35
9/27/2016 9:30:00 PM 15.74 60.332 0.271 7.79 1.5 8.65
9/27/2016 9:45:00 PM 15.61 60.098 0.271 7.78 1.4 8.69
9/27/2016 10:00:00 PM 15.5 59.9 0.271 7.77 1.3 8.7
9/27/2016 10:15:00 PM 15.36 59.648 0.271 7.76 1.8 8.68
9/27/2016 10:30:00 PM 15.21 59.378 0.271 7.74 1.3 8.6
9/27/2016 10:45:00 PM 15.09 59.162 0.271 7.74 1.4 8.75
9/27/2016 11:00:00 PM 14.95 58.91 0.272 7.73 1.5 8.73
9/27/2016 11:15:00 PM 14.84 58.712 0.271 7.71 1.3 8.73
9/27/2016 11:30:00 PM 14.71 58.478 0.271 7.7 1.3 8.82
9/27/2016 11:45:00 PM 14.59 58.262 0.272 7.7 1.2 8.5
9/28/2016 12:00:00 AM 14.47 58.046 0.272 7.69 34.1 8.83
9/28/2016 12:15:00 AM 14.34 57.812 0.272 7.7 1.9 8.91
9/28/2016 12:30:00 AM 14.23 57.614 0.272 7.67 1.4 8.92
9/28/2016 12:45:00 AM 14.1 57.38 0.272 7.68 1.6 8.95
9/28/2016 1:00:00 AM 13.99 57.182 0.272 7.67 2.6 8.95
9/28/2016 1:15:00 AM 13.88 56.984 0.272 7.68 2 9
9/28/2016 1:30:00 AM 13.75 56.75 0.272 7.67 1.9 8.99
9/28/2016 1:45:00 AM 13.65 56.57 0.272 7.66 110 9.04
9/28/2016 2:00:00 AM 13.54 56.372 0.272 7.65 1.3 9.1
9/28/2016 2:15:00 AM 13.41 56.138 0.272 7.66 1.6 8.98
9/28/2016 2:30:00 AM 13.31 55.958 0.272 7.65 1.1 9.11
9/28/2016 2:45:00 AM 13.2 55.76 0.272 7.65 1.1 9.14
9/28/2016 3:00:00 AM 13.1 55.58 0.272 7.66 1.3 9.12
9/28/2016 3:15:00 AM 12.99 55.382 0.272 7.64 0.8 9.19
9/28/2016 3:30:00 AM 12.89 55.202 0.272 7.66 0.8 9.14
9/28/2016 3:45:00 AM 12.79 55.022 0.272 7.66 0.9 9.23
9/28/2016 4:00:00 AM 12.69 54.842 0.272 7.66 0.6 9.29
9/28/2016 4:15:00 AM 12.58 54.644 0.272 7.66 1 9.32
9/28/2016 4:30:00 AM 12.49 54.482 0.272 7.67 3.8 9.32
9/28/2016 4:45:00 AM 12.4 54.32 0.272 7.68 1.6 9.4
9/28/2016 5:00:00 AM 12.3 54.14 0.273 7.67 1.7 9.46
9/28/2016 5:15:00 AM 12.23 54.014 0.272 7.67 1.4 9.47
9/28/2016 5:30:00 AM 12.13 53.834 0.273 7.67 1.6 9.5
9/28/2016 5:45:00 AM 12.09 53.762 0.273 7.67 1.5 9.49
9/28/2016 6:00:00 AM 12.02 53.636 0.273 7.67 1.2 9.36
9/28/2016 6:15:00 AM 11.98 53.564 0.273 7.67 1.2 9.44
9/28/2016 6:30:00 AM 11.95 53.51 0.273 7.67 1.1 9.58
9/28/2016 6:45:00 AM 11.92 53.456 0.273 7.67 1.3 9.49
9/28/2016 7:00:00 AM 11.9 53.42 0.273 7.68 1.2 9.49
9/28/2016 7:15:00 AM 11.86 53.348 0.273 7.68 0.7 9.53
9/28/2016 7:30:00 AM 11.85 53.33 0.273 7.67 1 9.5
9/28/2016 7:45:00 AM 11.84 53.312 0.273 7.69 0.7 9.54
9/28/2016 8:00:00 AM 11.8 53.24 0.273 7.7 0.5 9.57
9/28/2016 8:15:00 AM 11.81 53.258 0.273 7.73 0.5 9.73
9/28/2016 8:30:00 AM 11.83 53.294 0.272 7.74 0.8 9.91
9/28/2016 8:45:00 AM 11.86 53.348 0.272 7.76 0.6 10.12
9/28/2016 9:00:00 AM 11.86 53.348 0.272 7.78 0.7 10.2
9/28/2016 9:15:00 AM 11.9 53.42 0.271 7.81 1.1 10.38
9/28/2016 9:30:00 AM 11.93 53.474 0.271 7.83 0.6 10.48
9/28/2016 9:45:00 AM 11.97 53.546 0.27 7.85 0.7 10.42
9/28/2016 10:00:00 AM 12.01 53.618 0.27 7.88 0.7 10.62
9/28/2016 10:15:00 AM 12.07 53.726 0.27 7.89 0.5 10.7
9/28/2016 10:30:00 AM 12.18 53.924 0.27 7.9 0.6 10.67
9/28/2016 10:45:00 AM 12.31 54.158 0.27 7.9 1.1 10.68
9/28/2016 11:00:00 AM 12.44 54.392 0.269 7.91 0.6 10.79
9/28/2016 11:15:00 AM 12.61 54.698 0.269 7.93 0.4 10.79
9/28/2016 11:30:00 AM 12.74 54.932 0.269 7.94 0.5 10.74
9/28/2016 11:45:00 AM 12.74 54.932 0.269 7.97 0.5 10.54
9/28/2016 12:00:00 PM 13.02 55.436 0.268 8.01 0.4 10.69
9/28/2016 12:15:00 PM 13.52 56.336 0.267 8.08 0.4 10.81
9/28/2016 12:30:00 PM 14.29 57.722